<?xml version="1.0" encoding="UTF-8" standalone="no" ?>
<gpx xmlns="http://www.topografix.com/GPX/1/1" xmlns:xsi="http://www.w3.org/2001/XMLSchema-instance" xsi:schemaLocation="http://www.topografix.com/GPX/1/1 http://www.topografix.com/GPX/1/1/gpx.xsd" version="1.1" creator="VisuGPX - https://www.visugpx.com">
  <metadata>
    <name>balade d'anges heureuses</name>
    <desc><![CDATA[du nom du belvedère d'anges heureux ]]></desc>
  </metadata>
  <trk>
    <name><![CDATA[balade d'anges heureuses_1]]></name>
    <trkseg>
      <trkpt lat="45.05884" lon="5.37317">
        <ele>531.9</ele>
        <time>2017-05-24T09:12:17Z</time>
      </trkpt>
      <trkpt lat="45.05883" lon="5.37322">
        <ele>527.5</ele>
        <time>2017-05-24T09:12:25Z</time>
      </trkpt>
      <trkpt lat="45.05885" lon="5.37321">
        <ele>526.1</ele>
        <time>2017-05-24T09:12:30Z</time>
      </trkpt>
      <trkpt lat="45.05886" lon="5.37318">
        <ele>527.9</ele>
        <time>2017-05-24T09:12:46Z</time>
      </trkpt>
      <trkpt lat="45.05881" lon="5.37312">
        <ele>530.3</ele>
        <time>2017-05-24T09:13:26Z</time>
      </trkpt>
      <trkpt lat="45.05885" lon="5.37312">
        <ele>530.6</ele>
        <time>2017-05-24T09:13:42Z</time>
      </trkpt>
      <trkpt lat="45.05884" lon="5.37314">
        <ele>530.6</ele>
        <time>2017-05-24T09:13:54Z</time>
      </trkpt>
      <trkpt lat="45.05881" lon="5.37316">
        <ele>530.9</ele>
        <time>2017-05-24T09:13:58Z</time>
      </trkpt>
      <trkpt lat="45.05874" lon="5.37314">
        <ele>531.9</ele>
        <time>2017-05-24T09:14:14Z</time>
      </trkpt>
      <trkpt lat="45.05861" lon="5.37314">
        <ele>533.3</ele>
        <time>2017-05-24T09:14:38Z</time>
      </trkpt>
      <trkpt lat="45.05858" lon="5.37311">
        <ele>533.3</ele>
        <time>2017-05-24T09:14:42Z</time>
      </trkpt>
      <trkpt lat="45.0586" lon="5.3731">
        <ele>533.5</ele>
        <time>2017-05-24T09:14:46Z</time>
      </trkpt>
      <trkpt lat="45.05851" lon="5.37307">
        <ele>534.7</ele>
        <time>2017-05-24T09:14:58Z</time>
      </trkpt>
      <trkpt lat="45.05851" lon="5.37305">
        <ele>534.9</ele>
        <time>2017-05-24T09:15:06Z</time>
      </trkpt>
      <trkpt lat="45.05847" lon="5.37306">
        <ele>534</ele>
        <time>2017-05-24T09:15:10Z</time>
      </trkpt>
      <trkpt lat="45.05846" lon="5.37304">
        <ele>533.4</ele>
        <time>2017-05-24T09:15:18Z</time>
      </trkpt>
      <trkpt lat="45.0584" lon="5.37303">
        <ele>532.9</ele>
        <time>2017-05-24T09:15:26Z</time>
      </trkpt>
      <trkpt lat="45.05824" lon="5.3731">
        <ele>532.1</ele>
        <time>2017-05-24T09:15:42Z</time>
      </trkpt>
      <trkpt lat="45.05811" lon="5.3731">
        <ele>531.2</ele>
        <time>2017-05-24T09:16:02Z</time>
      </trkpt>
      <trkpt lat="45.05767" lon="5.37335">
        <ele>529.4</ele>
        <time>2017-05-24T09:16:42Z</time>
      </trkpt>
      <trkpt lat="45.05758" lon="5.37331">
        <ele>529.1</ele>
        <time>2017-05-24T09:16:50Z</time>
      </trkpt>
      <trkpt lat="45.05756" lon="5.37329">
        <ele>528.8</ele>
        <time>2017-05-24T09:17:06Z</time>
      </trkpt>
      <trkpt lat="45.0575" lon="5.37337">
        <ele>528</ele>
        <time>2017-05-24T09:17:22Z</time>
      </trkpt>
      <trkpt lat="45.05736" lon="5.37351">
        <ele>527.8</ele>
        <time>2017-05-24T09:17:38Z</time>
      </trkpt>
      <trkpt lat="45.05721" lon="5.37375">
        <ele>527.9</ele>
        <time>2017-05-24T09:17:58Z</time>
      </trkpt>
      <trkpt lat="45.05722" lon="5.3738">
        <ele>528.3</ele>
        <time>2017-05-24T09:18:02Z</time>
      </trkpt>
      <trkpt lat="45.05726" lon="5.3738">
        <ele>539.7</ele>
        <time>2017-05-24T09:18:18Z</time>
      </trkpt>
      <trkpt lat="45.05719" lon="5.37391">
        <ele>538.6</ele>
        <time>2017-05-24T09:18:42Z</time>
      </trkpt>
      <trkpt lat="45.05712" lon="5.37396">
        <ele>534.4</ele>
        <time>2017-05-24T09:18:50Z</time>
      </trkpt>
      <trkpt lat="45.05704" lon="5.37397">
        <ele>530.9</ele>
        <time>2017-05-24T09:18:58Z</time>
      </trkpt>
      <trkpt lat="45.05696" lon="5.37395">
        <ele>528.3</ele>
        <time>2017-05-24T09:19:08Z</time>
      </trkpt>
      <trkpt lat="45.05691" lon="5.37402">
        <ele>533.3</ele>
        <time>2017-05-24T09:19:16Z</time>
      </trkpt>
      <trkpt lat="45.05681" lon="5.37392">
        <ele>538.1</ele>
        <time>2017-05-24T09:19:28Z</time>
      </trkpt>
      <trkpt lat="45.05679" lon="5.37392">
        <ele>537</ele>
        <time>2017-05-24T09:20:00Z</time>
      </trkpt>
      <trkpt lat="45.05668" lon="5.37379">
        <ele>538.8</ele>
        <time>2017-05-24T09:20:16Z</time>
      </trkpt>
      <trkpt lat="45.05666" lon="5.37381">
        <ele>533.6</ele>
        <time>2017-05-24T09:20:32Z</time>
      </trkpt>
      <trkpt lat="45.05661" lon="5.37378">
        <ele>533.6</ele>
        <time>2017-05-24T09:20:40Z</time>
      </trkpt>
      <trkpt lat="45.0566" lon="5.37375">
        <ele>534.6</ele>
        <time>2017-05-24T09:20:44Z</time>
      </trkpt>
      <trkpt lat="45.05655" lon="5.37372">
        <ele>533.6</ele>
        <time>2017-05-24T09:20:52Z</time>
      </trkpt>
      <trkpt lat="45.05651" lon="5.37361">
        <ele>537.2</ele>
        <time>2017-05-24T09:21:00Z</time>
      </trkpt>
      <trkpt lat="45.05647" lon="5.37356">
        <ele>542.8</ele>
        <time>2017-05-24T09:21:08Z</time>
      </trkpt>
      <trkpt lat="45.05643" lon="5.37357">
        <ele>544.6</ele>
        <time>2017-05-24T09:21:16Z</time>
      </trkpt>
      <trkpt lat="45.05639" lon="5.37353">
        <ele>545.1</ele>
        <time>2017-05-24T09:21:24Z</time>
      </trkpt>
      <trkpt lat="45.0564" lon="5.37359">
        <ele>543.7</ele>
        <time>2017-05-24T09:21:32Z</time>
      </trkpt>
      <trkpt lat="45.05644" lon="5.37361">
        <ele>541.3</ele>
        <time>2017-05-24T09:21:44Z</time>
      </trkpt>
      <trkpt lat="45.05647" lon="5.3736">
        <ele>541.7</ele>
        <time>2017-05-24T09:21:52Z</time>
      </trkpt>
      <trkpt lat="45.05649" lon="5.37369">
        <ele>537.5</ele>
        <time>2017-05-24T09:22:08Z</time>
      </trkpt>
      <trkpt lat="45.05656" lon="5.37377">
        <ele>538.1</ele>
        <time>2017-05-24T09:22:16Z</time>
      </trkpt>
      <trkpt lat="45.05663" lon="5.37382">
        <ele>536</ele>
        <time>2017-05-24T09:22:24Z</time>
      </trkpt>
      <trkpt lat="45.05667" lon="5.37382">
        <ele>537.8</ele>
        <time>2017-05-24T09:22:32Z</time>
      </trkpt>
      <trkpt lat="45.05672" lon="5.37389">
        <ele>536.7</ele>
        <time>2017-05-24T09:22:40Z</time>
      </trkpt>
      <trkpt lat="45.05679" lon="5.37393">
        <ele>537.8</ele>
        <time>2017-05-24T09:22:48Z</time>
      </trkpt>
      <trkpt lat="45.05675" lon="5.37396">
        <ele>539.1</ele>
        <time>2017-05-24T09:22:54Z</time>
      </trkpt>
      <trkpt lat="45.05682" lon="5.3741">
        <ele>538.6</ele>
        <time>2017-05-24T09:23:10Z</time>
      </trkpt>
      <trkpt lat="45.05694" lon="5.37423">
        <ele>538.4</ele>
        <time>2017-05-24T09:23:26Z</time>
      </trkpt>
      <trkpt lat="45.05711" lon="5.37434">
        <ele>540.8</ele>
        <time>2017-05-24T09:23:42Z</time>
      </trkpt>
      <trkpt lat="45.05712" lon="5.37438">
        <ele>539</ele>
        <time>2017-05-24T09:23:50Z</time>
      </trkpt>
      <trkpt lat="45.05709" lon="5.37439">
        <ele>540.3</ele>
        <time>2017-05-24T09:23:58Z</time>
      </trkpt>
      <trkpt lat="45.05706" lon="5.37446">
        <ele>541.5</ele>
        <time>2017-05-24T09:24:14Z</time>
      </trkpt>
      <trkpt lat="45.05708" lon="5.3745">
        <ele>543.3</ele>
        <time>2017-05-24T09:24:26Z</time>
      </trkpt>
      <trkpt lat="45.05707" lon="5.37468">
        <ele>549.7</ele>
        <time>2017-05-24T09:24:58Z</time>
      </trkpt>
      <trkpt lat="45.05704" lon="5.37474">
        <ele>556.3</ele>
        <time>2017-05-24T09:25:30Z</time>
      </trkpt>
      <trkpt lat="45.05695" lon="5.37487">
        <ele>560</ele>
        <time>2017-05-24T09:25:46Z</time>
      </trkpt>
      <trkpt lat="45.05691" lon="5.3749">
        <ele>559</ele>
        <time>2017-05-24T09:25:54Z</time>
      </trkpt>
      <trkpt lat="45.05689" lon="5.37495">
        <ele>552.8</ele>
        <time>2017-05-24T09:26:02Z</time>
      </trkpt>
      <trkpt lat="45.0569" lon="5.375">
        <ele>547.7</ele>
        <time>2017-05-24T09:26:10Z</time>
      </trkpt>
      <trkpt lat="45.05682" lon="5.37516">
        <ele>534.2</ele>
        <time>2017-05-24T09:26:26Z</time>
      </trkpt>
      <trkpt lat="45.05675" lon="5.37523">
        <ele>527.6</ele>
        <time>2017-05-24T09:26:32Z</time>
      </trkpt>
      <trkpt lat="45.05679" lon="5.37529">
        <ele>538.7</ele>
        <time>2017-05-24T09:26:41Z</time>
      </trkpt>
      <trkpt lat="45.05681" lon="5.37522">
        <ele>556.5</ele>
        <time>2017-05-24T09:26:57Z</time>
      </trkpt>
      <trkpt lat="45.05684" lon="5.37522">
        <ele>557.4</ele>
        <time>2017-05-24T09:27:05Z</time>
      </trkpt>
      <trkpt lat="45.05676" lon="5.3753">
        <ele>561.6</ele>
        <time>2017-05-24T09:27:21Z</time>
      </trkpt>
      <trkpt lat="45.05682" lon="5.37525">
        <ele>571.9</ele>
        <time>2017-05-24T09:27:53Z</time>
      </trkpt>
      <trkpt lat="45.05684" lon="5.3752">
        <ele>575.2</ele>
        <time>2017-05-24T09:28:09Z</time>
      </trkpt>
      <trkpt lat="45.0569" lon="5.3752">
        <ele>580.4</ele>
        <time>2017-05-24T09:28:23Z</time>
      </trkpt>
      <trkpt lat="45.05688" lon="5.37517">
        <ele>584</ele>
        <time>2017-05-24T09:28:31Z</time>
      </trkpt>
      <trkpt lat="45.05679" lon="5.37517">
        <ele>586.6</ele>
        <time>2017-05-24T09:28:39Z</time>
      </trkpt>
      <trkpt lat="45.05678" lon="5.37521">
        <ele>581.1</ele>
        <time>2017-05-24T09:28:55Z</time>
      </trkpt>
      <trkpt lat="45.05682" lon="5.37526">
        <ele>586.1</ele>
        <time>2017-05-24T09:28:57Z</time>
      </trkpt>
      <trkpt lat="45.05683" lon="5.37522">
        <ele>591.5</ele>
        <time>2017-05-24T09:29:01Z</time>
      </trkpt>
      <trkpt lat="45.05683" lon="5.37518">
        <ele>585.6</ele>
        <time>2017-05-24T09:30:05Z</time>
      </trkpt>
      <trkpt lat="45.05688" lon="5.37512">
        <ele>585.1</ele>
        <time>2017-05-24T09:30:36Z</time>
      </trkpt>
      <trkpt lat="45.05687" lon="5.37514">
        <ele>582.6</ele>
        <time>2017-05-24T09:30:54Z</time>
      </trkpt>
      <trkpt lat="45.0569" lon="5.37521">
        <ele>577.5</ele>
        <time>2017-05-24T09:31:10Z</time>
      </trkpt>
      <trkpt lat="45.0569" lon="5.37517">
        <ele>574.6</ele>
        <time>2017-05-24T09:31:26Z</time>
      </trkpt>
      <trkpt lat="45.05682" lon="5.3752">
        <ele>568.7</ele>
        <time>2017-05-24T09:32:58Z</time>
      </trkpt>
      <trkpt lat="45.05682" lon="5.37517">
        <ele>567.6</ele>
        <time>2017-05-24T09:33:00Z</time>
      </trkpt>
      <trkpt lat="45.05684" lon="5.37516">
        <ele>567.3</ele>
        <time>2017-05-24T09:33:02Z</time>
      </trkpt>
      <trkpt lat="45.05686" lon="5.37519">
        <ele>569.6</ele>
        <time>2017-05-24T09:34:06Z</time>
      </trkpt>
      <trkpt lat="45.05684" lon="5.37523">
        <ele>583</ele>
        <time>2017-05-24T09:34:16Z</time>
      </trkpt>
      <trkpt lat="45.05672" lon="5.37522">
        <ele>577.8</ele>
        <time>2017-05-24T09:34:32Z</time>
      </trkpt>
      <trkpt lat="45.05668" lon="5.37518">
        <ele>581.2</ele>
        <time>2017-05-24T09:34:48Z</time>
      </trkpt>
      <trkpt lat="45.05659" lon="5.37519">
        <ele>578.2</ele>
        <time>2017-05-24T09:34:56Z</time>
      </trkpt>
      <trkpt lat="45.05656" lon="5.37516">
        <ele>579.9</ele>
        <time>2017-05-24T09:35:00Z</time>
      </trkpt>
      <trkpt lat="45.05655" lon="5.37503">
        <ele>588.2</ele>
        <time>2017-05-24T09:35:16Z</time>
      </trkpt>
      <trkpt lat="45.05641" lon="5.37492">
        <ele>593.3</ele>
        <time>2017-05-24T09:35:36Z</time>
      </trkpt>
      <trkpt lat="45.05633" lon="5.37494">
        <ele>592.6</ele>
        <time>2017-05-24T09:35:44Z</time>
      </trkpt>
      <trkpt lat="45.05614" lon="5.37495">
        <ele>579</ele>
        <time>2017-05-24T09:36:47Z</time>
      </trkpt>
      <trkpt lat="45.05608" lon="5.3749">
        <ele>602.6</ele>
        <time>2017-05-24T09:37:19Z</time>
      </trkpt>
      <trkpt lat="45.05596" lon="5.37493">
        <ele>604</ele>
        <time>2017-05-24T09:37:35Z</time>
      </trkpt>
      <trkpt lat="45.05593" lon="5.37496">
        <ele>602.6</ele>
        <time>2017-05-24T09:37:43Z</time>
      </trkpt>
      <trkpt lat="45.05591" lon="5.37508">
        <ele>600.5</ele>
        <time>2017-05-24T09:37:51Z</time>
      </trkpt>
      <trkpt lat="45.05597" lon="5.37551">
        <ele>614.9</ele>
        <time>2017-05-24T09:39:27Z</time>
      </trkpt>
      <trkpt lat="45.05596" lon="5.37558">
        <ele>617.5</ele>
        <time>2017-05-24T09:39:35Z</time>
      </trkpt>
      <trkpt lat="45.05598" lon="5.37572">
        <ele>622.1</ele>
        <time>2017-05-24T09:39:59Z</time>
      </trkpt>
      <trkpt lat="45.05596" lon="5.3758">
        <ele>624.8</ele>
        <time>2017-05-24T09:40:15Z</time>
      </trkpt>
      <trkpt lat="45.05598" lon="5.37594">
        <ele>626.2</ele>
        <time>2017-05-24T09:40:31Z</time>
      </trkpt>
      <trkpt lat="45.05598" lon="5.37607">
        <ele>629.9</ele>
        <time>2017-05-24T09:41:03Z</time>
      </trkpt>
      <trkpt lat="45.05596" lon="5.37616">
        <ele>634</ele>
        <time>2017-05-24T09:41:19Z</time>
      </trkpt>
      <trkpt lat="45.05595" lon="5.37627">
        <ele>640.3</ele>
        <time>2017-05-24T09:41:51Z</time>
      </trkpt>
      <trkpt lat="45.05597" lon="5.37644">
        <ele>640.9</ele>
        <time>2017-05-24T09:42:07Z</time>
      </trkpt>
      <trkpt lat="45.05598" lon="5.37676">
        <ele>651.6</ele>
        <time>2017-05-24T09:42:55Z</time>
      </trkpt>
      <trkpt lat="45.05597" lon="5.37679">
        <ele>655.9</ele>
        <time>2017-05-24T09:43:11Z</time>
      </trkpt>
      <trkpt lat="45.05601" lon="5.37694">
        <ele>659.9</ele>
        <time>2017-05-24T09:43:39Z</time>
      </trkpt>
      <trkpt lat="45.05602" lon="5.3771">
        <ele>666.9</ele>
        <time>2017-05-24T09:44:11Z</time>
      </trkpt>
      <trkpt lat="45.05607" lon="5.37725">
        <ele>670.6</ele>
        <time>2017-05-24T09:44:43Z</time>
      </trkpt>
      <trkpt lat="45.05606" lon="5.37738">
        <ele>674.3</ele>
        <time>2017-05-24T09:44:59Z</time>
      </trkpt>
      <trkpt lat="45.0561" lon="5.37753">
        <ele>677.3</ele>
        <time>2017-05-24T09:45:15Z</time>
      </trkpt>
      <trkpt lat="45.0561" lon="5.3776">
        <ele>678.1</ele>
        <time>2017-05-24T09:45:23Z</time>
      </trkpt>
      <trkpt lat="45.05614" lon="5.37764">
        <ele>679.1</ele>
        <time>2017-05-24T09:45:31Z</time>
      </trkpt>
      <trkpt lat="45.05614" lon="5.37773">
        <ele>682.6</ele>
        <time>2017-05-24T09:45:42Z</time>
      </trkpt>
      <trkpt lat="45.05626" lon="5.37796">
        <ele>701.7</ele>
        <time>2017-05-24T09:46:30Z</time>
      </trkpt>
      <trkpt lat="45.05631" lon="5.37809">
        <ele>704.1</ele>
        <time>2017-05-24T09:46:46Z</time>
      </trkpt>
      <trkpt lat="45.05634" lon="5.37826">
        <ele>704.4</ele>
        <time>2017-05-24T09:47:19Z</time>
      </trkpt>
      <trkpt lat="45.05635" lon="5.37827">
        <ele>702.7</ele>
        <time>2017-05-24T09:47:23Z</time>
      </trkpt>
      <trkpt lat="45.05635" lon="5.37843">
        <ele>683.5</ele>
        <time>2017-05-24T09:47:39Z</time>
      </trkpt>
      <trkpt lat="45.05637" lon="5.37846">
        <ele>675.4</ele>
        <time>2017-05-24T09:47:53Z</time>
      </trkpt>
      <trkpt lat="45.05642" lon="5.37842">
        <ele>674.9</ele>
        <time>2017-05-24T09:48:09Z</time>
      </trkpt>
      <trkpt lat="45.05642" lon="5.37844">
        <ele>673.4</ele>
        <time>2017-05-24T09:48:17Z</time>
      </trkpt>
      <trkpt lat="45.05647" lon="5.37847">
        <ele>692.3</ele>
        <time>2017-05-24T09:48:29Z</time>
      </trkpt>
      <trkpt lat="45.05648" lon="5.37851">
        <ele>705.4</ele>
        <time>2017-05-24T09:49:01Z</time>
      </trkpt>
      <trkpt lat="45.05661" lon="5.37874">
        <ele>717</ele>
        <time>2017-05-24T09:49:33Z</time>
      </trkpt>
      <trkpt lat="45.05672" lon="5.3787">
        <ele>715.5</ele>
        <time>2017-05-24T09:49:41Z</time>
      </trkpt>
      <trkpt lat="45.05676" lon="5.37875">
        <ele>706.9</ele>
        <time>2017-05-24T09:49:49Z</time>
      </trkpt>
      <trkpt lat="45.05692" lon="5.37885">
        <ele>710.8</ele>
        <time>2017-05-24T09:50:17Z</time>
      </trkpt>
      <trkpt lat="45.05695" lon="5.37882">
        <ele>713.8</ele>
        <time>2017-05-24T09:50:25Z</time>
      </trkpt>
      <trkpt lat="45.05711" lon="5.37889">
        <ele>707.9</ele>
        <time>2017-05-24T09:52:01Z</time>
      </trkpt>
      <trkpt lat="45.05712" lon="5.37887">
        <ele>709.6</ele>
        <time>2017-05-24T09:52:17Z</time>
      </trkpt>
      <trkpt lat="45.05711" lon="5.37884">
        <ele>713.3</ele>
        <time>2017-05-24T09:52:49Z</time>
      </trkpt>
      <trkpt lat="45.05709" lon="5.37885">
        <ele>725.2</ele>
        <time>2017-05-24T09:53:01Z</time>
      </trkpt>
      <trkpt lat="45.05719" lon="5.3789">
        <ele>723.9</ele>
        <time>2017-05-24T09:53:17Z</time>
      </trkpt>
      <trkpt lat="45.0573" lon="5.37891">
        <ele>724</ele>
        <time>2017-05-24T09:53:33Z</time>
      </trkpt>
      <trkpt lat="45.0573" lon="5.37894">
        <ele>728.6</ele>
        <time>2017-05-24T09:53:49Z</time>
      </trkpt>
      <trkpt lat="45.05733" lon="5.37897">
        <ele>726.3</ele>
        <time>2017-05-24T10:00:10Z</time>
      </trkpt>
      <trkpt lat="45.05713" lon="5.37922">
        <ele>729.6</ele>
        <time>2017-05-24T10:00:42Z</time>
      </trkpt>
      <trkpt lat="45.05696" lon="5.37954">
        <ele>729.7</ele>
        <time>2017-05-24T10:01:14Z</time>
      </trkpt>
      <trkpt lat="45.05693" lon="5.37955">
        <ele>730.5</ele>
        <time>2017-05-24T10:01:22Z</time>
      </trkpt>
      <trkpt lat="45.05684" lon="5.3797">
        <ele>734</ele>
        <time>2017-05-24T10:01:38Z</time>
      </trkpt>
      <trkpt lat="45.05673" lon="5.37979">
        <ele>742.7</ele>
        <time>2017-05-24T10:02:10Z</time>
      </trkpt>
      <trkpt lat="45.05671" lon="5.37986">
        <ele>753.4</ele>
        <time>2017-05-24T10:02:30Z</time>
      </trkpt>
      <trkpt lat="45.05672" lon="5.37992">
        <ele>751.8</ele>
        <time>2017-05-24T10:02:38Z</time>
      </trkpt>
      <trkpt lat="45.05668" lon="5.38007">
        <ele>756.5</ele>
        <time>2017-05-24T10:02:54Z</time>
      </trkpt>
      <trkpt lat="45.05668" lon="5.38019">
        <ele>754.2</ele>
        <time>2017-05-24T10:03:10Z</time>
      </trkpt>
      <trkpt lat="45.05665" lon="5.3804">
        <ele>756.2</ele>
        <time>2017-05-24T10:03:42Z</time>
      </trkpt>
      <trkpt lat="45.05663" lon="5.38046">
        <ele>760.4</ele>
        <time>2017-05-24T10:03:58Z</time>
      </trkpt>
      <trkpt lat="45.05664" lon="5.38055">
        <ele>760.3</ele>
        <time>2017-05-24T10:04:14Z</time>
      </trkpt>
      <trkpt lat="45.05664" lon="5.38073">
        <ele>768.4</ele>
        <time>2017-05-24T10:04:46Z</time>
      </trkpt>
      <trkpt lat="45.05669" lon="5.3808">
        <ele>782.7</ele>
        <time>2017-05-24T10:05:06Z</time>
      </trkpt>
      <trkpt lat="45.05669" lon="5.38084">
        <ele>782.5</ele>
        <time>2017-05-24T10:05:14Z</time>
      </trkpt>
      <trkpt lat="45.05675" lon="5.38106">
        <ele>790.3</ele>
        <time>2017-05-24T10:05:30Z</time>
      </trkpt>
      <trkpt lat="45.05676" lon="5.38122">
        <ele>796.7</ele>
        <time>2017-05-24T10:05:50Z</time>
      </trkpt>
      <trkpt lat="45.05678" lon="5.38124">
        <ele>797.1</ele>
        <time>2017-05-24T10:05:54Z</time>
      </trkpt>
      <trkpt lat="45.05677" lon="5.38138">
        <ele>798.9</ele>
        <time>2017-05-24T10:06:10Z</time>
      </trkpt>
      <trkpt lat="45.05679" lon="5.38149">
        <ele>802</ele>
        <time>2017-05-24T10:06:18Z</time>
      </trkpt>
      <trkpt lat="45.05677" lon="5.38152">
        <ele>802.8</ele>
        <time>2017-05-24T10:06:22Z</time>
      </trkpt>
      <trkpt lat="45.05678" lon="5.38156">
        <ele>805.6</ele>
        <time>2017-05-24T10:06:30Z</time>
      </trkpt>
      <trkpt lat="45.05676" lon="5.38162">
        <ele>803</ele>
        <time>2017-05-24T10:06:38Z</time>
      </trkpt>
      <trkpt lat="45.05681" lon="5.38177">
        <ele>801.4</ele>
        <time>2017-05-24T10:07:10Z</time>
      </trkpt>
      <trkpt lat="45.05675" lon="5.38175">
        <ele>790.9</ele>
        <time>2017-05-24T10:07:26Z</time>
      </trkpt>
      <trkpt lat="45.05675" lon="5.38173">
        <ele>795.1</ele>
        <time>2017-05-24T10:07:28Z</time>
      </trkpt>
      <trkpt lat="45.05666" lon="5.38179">
        <ele>793.6</ele>
        <time>2017-05-24T10:07:36Z</time>
      </trkpt>
      <trkpt lat="45.05669" lon="5.38182">
        <ele>794.6</ele>
        <time>2017-05-24T10:07:44Z</time>
      </trkpt>
      <trkpt lat="45.05673" lon="5.38176">
        <ele>794.7</ele>
        <time>2017-05-24T10:10:15Z</time>
      </trkpt>
      <trkpt lat="45.05663" lon="5.38182">
        <ele>782.2</ele>
        <time>2017-05-24T10:11:18Z</time>
      </trkpt>
      <trkpt lat="45.05665" lon="5.38184">
        <ele>777.9</ele>
        <time>2017-05-24T10:11:20Z</time>
      </trkpt>
      <trkpt lat="45.05653" lon="5.38187">
        <ele>754</ele>
        <time>2017-05-24T10:11:36Z</time>
      </trkpt>
      <trkpt lat="45.05653" lon="5.38181">
        <ele>755.9</ele>
        <time>2017-05-24T10:11:44Z</time>
      </trkpt>
      <trkpt lat="45.0565" lon="5.38176">
        <ele>755.1</ele>
        <time>2017-05-24T10:11:48Z</time>
      </trkpt>
      <trkpt lat="45.05646" lon="5.38172">
        <ele>750.7</ele>
        <time>2017-05-24T10:11:56Z</time>
      </trkpt>
      <trkpt lat="45.05658" lon="5.38197">
        <ele>758.8</ele>
        <time>2017-05-24T10:12:58Z</time>
      </trkpt>
      <trkpt lat="45.05649" lon="5.38196">
        <ele>777.8</ele>
        <time>2017-05-24T10:13:14Z</time>
      </trkpt>
      <trkpt lat="45.05651" lon="5.38203">
        <ele>786.1</ele>
        <time>2017-05-24T10:13:22Z</time>
      </trkpt>
      <trkpt lat="45.05654" lon="5.38205">
        <ele>791.2</ele>
        <time>2017-05-24T10:13:30Z</time>
      </trkpt>
      <trkpt lat="45.05653" lon="5.38212">
        <ele>788</ele>
        <time>2017-05-24T10:13:34Z</time>
      </trkpt>
      <trkpt lat="45.05657" lon="5.38227">
        <ele>791.9</ele>
        <time>2017-05-24T10:14:06Z</time>
      </trkpt>
      <trkpt lat="45.05665" lon="5.38241">
        <ele>810.1</ele>
        <time>2017-05-24T10:14:14Z</time>
      </trkpt>
      <trkpt lat="45.05667" lon="5.38277">
        <ele>823</ele>
        <time>2017-05-24T10:14:58Z</time>
      </trkpt>
      <trkpt lat="45.05665" lon="5.38288">
        <ele>820</ele>
        <time>2017-05-24T10:15:06Z</time>
      </trkpt>
      <trkpt lat="45.05652" lon="5.38307">
        <ele>813.4</ele>
        <time>2017-05-24T10:15:30Z</time>
      </trkpt>
      <trkpt lat="45.05652" lon="5.38309">
        <ele>813.6</ele>
        <time>2017-05-24T10:15:34Z</time>
      </trkpt>
      <trkpt lat="45.05641" lon="5.38324">
        <ele>808</ele>
        <time>2017-05-24T10:15:50Z</time>
      </trkpt>
      <trkpt lat="45.05642" lon="5.38339">
        <ele>810.7</ele>
        <time>2017-05-24T10:16:06Z</time>
      </trkpt>
      <trkpt lat="45.05639" lon="5.3834">
        <ele>810.4</ele>
        <time>2017-05-24T10:16:22Z</time>
      </trkpt>
      <trkpt lat="45.05634" lon="5.38355">
        <ele>806.1</ele>
        <time>2017-05-24T10:16:42Z</time>
      </trkpt>
      <trkpt lat="45.05643" lon="5.38366">
        <ele>811.3</ele>
        <time>2017-05-24T10:16:58Z</time>
      </trkpt>
      <trkpt lat="45.05642" lon="5.38368">
        <ele>812.1</ele>
        <time>2017-05-24T10:17:06Z</time>
      </trkpt>
      <trkpt lat="45.05649" lon="5.38377">
        <ele>823</ele>
        <time>2017-05-24T10:17:12Z</time>
      </trkpt>
      <trkpt lat="45.05643" lon="5.3839">
        <ele>832.1</ele>
        <time>2017-05-24T10:17:28Z</time>
      </trkpt>
      <trkpt lat="45.0564" lon="5.38404">
        <ele>833.2</ele>
        <time>2017-05-24T10:17:44Z</time>
      </trkpt>
      <trkpt lat="45.0564" lon="5.38412">
        <ele>832.4</ele>
        <time>2017-05-24T10:17:48Z</time>
      </trkpt>
      <trkpt lat="45.05638" lon="5.38419">
        <ele>831.9</ele>
        <time>2017-05-24T10:17:52Z</time>
      </trkpt>
      <trkpt lat="45.0564" lon="5.38424">
        <ele>833.7</ele>
        <time>2017-05-24T10:18:00Z</time>
      </trkpt>
      <trkpt lat="45.05653" lon="5.3844">
        <ele>850.8</ele>
        <time>2017-05-24T10:18:32Z</time>
      </trkpt>
      <trkpt lat="45.05657" lon="5.38442">
        <ele>856.1</ele>
        <time>2017-05-24T10:18:40Z</time>
      </trkpt>
      <trkpt lat="45.05656" lon="5.38446">
        <ele>854.9</ele>
        <time>2017-05-24T10:18:46Z</time>
      </trkpt>
      <trkpt lat="45.05653" lon="5.38448">
        <ele>852.3</ele>
        <time>2017-05-24T10:18:48Z</time>
      </trkpt>
      <trkpt lat="45.05651" lon="5.38455">
        <ele>854.9</ele>
        <time>2017-05-24T10:18:56Z</time>
      </trkpt>
      <trkpt lat="45.05656" lon="5.3846">
        <ele>857</ele>
        <time>2017-05-24T10:19:04Z</time>
      </trkpt>
      <trkpt lat="45.05656" lon="5.38463">
        <ele>858.2</ele>
        <time>2017-05-24T10:19:06Z</time>
      </trkpt>
      <trkpt lat="45.05662" lon="5.38464">
        <ele>859.2</ele>
        <time>2017-05-24T10:19:12Z</time>
      </trkpt>
      <trkpt lat="45.05662" lon="5.38475">
        <ele>860.2</ele>
        <time>2017-05-24T10:19:20Z</time>
      </trkpt>
      <trkpt lat="45.05659" lon="5.38485">
        <ele>853.3</ele>
        <time>2017-05-24T10:19:32Z</time>
      </trkpt>
      <trkpt lat="45.05651" lon="5.38489">
        <ele>848</ele>
        <time>2017-05-24T10:19:56Z</time>
      </trkpt>
      <trkpt lat="45.0565" lon="5.38487">
        <ele>849.3</ele>
        <time>2017-05-24T10:20:00Z</time>
      </trkpt>
      <trkpt lat="45.05649" lon="5.38491">
        <ele>848.8</ele>
        <time>2017-05-24T10:20:08Z</time>
      </trkpt>
      <trkpt lat="45.05644" lon="5.38488">
        <ele>851.1</ele>
        <time>2017-05-24T10:20:40Z</time>
      </trkpt>
      <trkpt lat="45.05635" lon="5.38489">
        <ele>852.6</ele>
        <time>2017-05-24T10:20:54Z</time>
      </trkpt>
      <trkpt lat="45.05636" lon="5.3849">
        <ele>853.2</ele>
        <time>2017-05-24T10:21:02Z</time>
      </trkpt>
      <trkpt lat="45.05635" lon="5.38489">
        <ele>852.7</ele>
        <time>2017-05-24T10:21:06Z</time>
      </trkpt>
      <trkpt lat="45.05638" lon="5.38486">
        <ele>854.9</ele>
        <time>2017-05-24T10:21:14Z</time>
      </trkpt>
      <trkpt lat="45.05639" lon="5.38477">
        <ele>856.7</ele>
        <time>2017-05-24T10:21:22Z</time>
      </trkpt>
      <trkpt lat="45.05633" lon="5.38472">
        <ele>853.6</ele>
        <time>2017-05-24T10:21:30Z</time>
      </trkpt>
      <trkpt lat="45.05631" lon="5.38473">
        <ele>853.5</ele>
        <time>2017-05-24T10:21:32Z</time>
      </trkpt>
      <trkpt lat="45.05632" lon="5.38475">
        <ele>853.6</ele>
        <time>2017-05-24T10:21:34Z</time>
      </trkpt>
      <trkpt lat="45.05635" lon="5.38475">
        <ele>853.7</ele>
        <time>2017-05-24T10:21:35Z</time>
      </trkpt>
      <trkpt lat="45.05635" lon="5.38477">
        <ele>853.5</ele>
        <time>2017-05-24T10:21:51Z</time>
      </trkpt>
      <trkpt lat="45.05625" lon="5.38481">
        <ele>853</ele>
        <time>2017-05-24T10:21:59Z</time>
      </trkpt>
      <trkpt lat="45.0562" lon="5.3848">
        <ele>853.2</ele>
        <time>2017-05-24T10:22:15Z</time>
      </trkpt>
      <trkpt lat="45.05611" lon="5.3847">
        <ele>853.7</ele>
        <time>2017-05-24T10:22:24Z</time>
      </trkpt>
      <trkpt lat="45.05611" lon="5.38471">
        <ele>853.8</ele>
        <time>2017-05-24T10:22:40Z</time>
      </trkpt>
      <trkpt lat="45.05603" lon="5.38465">
        <ele>854.2</ele>
        <time>2017-05-24T10:22:46Z</time>
      </trkpt>
      <trkpt lat="45.05601" lon="5.38466">
        <ele>854.3</ele>
        <time>2017-05-24T10:22:54Z</time>
      </trkpt>
      <trkpt lat="45.05599" lon="5.38479">
        <ele>854.4</ele>
        <time>2017-05-24T10:23:06Z</time>
      </trkpt>
      <trkpt lat="45.05604" lon="5.38483">
        <ele>854.4</ele>
        <time>2017-05-24T10:23:12Z</time>
      </trkpt>
      <trkpt lat="45.05601" lon="5.38485">
        <ele>854.4</ele>
        <time>2017-05-24T10:23:16Z</time>
      </trkpt>
      <trkpt lat="45.05609" lon="5.38505">
        <ele>854.5</ele>
        <time>2017-05-24T10:23:40Z</time>
      </trkpt>
      <trkpt lat="45.05606" lon="5.38502">
        <ele>854.5</ele>
        <time>2017-05-24T10:23:58Z</time>
      </trkpt>
      <trkpt lat="45.05598" lon="5.38505">
        <ele>854.5</ele>
        <time>2017-05-24T10:24:00Z</time>
      </trkpt>
      <trkpt lat="45.05582" lon="5.38484">
        <ele>854.8</ele>
        <time>2017-05-24T10:25:42Z</time>
      </trkpt>
      <trkpt lat="45.05579" lon="5.38476">
        <ele>854.9</ele>
        <time>2017-05-24T10:25:49Z</time>
      </trkpt>
      <trkpt lat="45.0557" lon="5.38463">
        <ele>854.1</ele>
        <time>2017-05-24T10:26:12Z</time>
      </trkpt>
      <trkpt lat="45.05579" lon="5.38485">
        <ele>853.8</ele>
        <time>2017-05-24T10:26:21Z</time>
      </trkpt>
      <trkpt lat="45.05592" lon="5.38536">
        <ele>853.7</ele>
        <time>2017-05-24T10:27:10Z</time>
      </trkpt>
      <trkpt lat="45.05538" lon="5.38443">
        <ele>851.7</ele>
        <time>2017-05-24T10:28:09Z</time>
      </trkpt>
      <trkpt lat="45.05593" lon="5.38525">
        <ele>850.3</ele>
        <time>2017-05-24T10:29:09Z</time>
      </trkpt>
      <trkpt lat="45.056" lon="5.38537">
        <ele>850</ele>
        <time>2017-05-24T10:29:13Z</time>
      </trkpt>
      <trkpt lat="45.0561" lon="5.38543">
        <ele>850.2</ele>
        <time>2017-05-24T10:29:38Z</time>
      </trkpt>
      <trkpt lat="45.05503" lon="5.38415">
        <ele>845.8</ele>
        <time>2017-05-24T10:30:46Z</time>
      </trkpt>
      <trkpt lat="45.05548" lon="5.3849">
        <ele>844.4</ele>
        <time>2017-05-24T10:31:28Z</time>
      </trkpt>
      <trkpt lat="45.05568" lon="5.38508">
        <ele>844.2</ele>
        <time>2017-05-24T10:31:44Z</time>
      </trkpt>
      <trkpt lat="45.05565" lon="5.38488">
        <ele>844.3</ele>
        <time>2017-05-24T10:32:02Z</time>
      </trkpt>
      <trkpt lat="45.0557" lon="5.38493">
        <ele>845.3</ele>
        <time>2017-05-24T10:32:08Z</time>
      </trkpt>
      <trkpt lat="45.0557" lon="5.38491">
        <ele>845.4</ele>
        <time>2017-05-24T10:32:10Z</time>
      </trkpt>
      <trkpt lat="45.05576" lon="5.38492">
        <ele>845.9</ele>
        <time>2017-05-24T10:32:14Z</time>
      </trkpt>
      <trkpt lat="45.05581" lon="5.38495">
        <ele>846.3</ele>
        <time>2017-05-24T10:32:16Z</time>
      </trkpt>
      <trkpt lat="45.05587" lon="5.38507">
        <ele>846.7</ele>
        <time>2017-05-24T10:32:20Z</time>
      </trkpt>
      <trkpt lat="45.05588" lon="5.38515">
        <ele>847.3</ele>
        <time>2017-05-24T10:32:28Z</time>
      </trkpt>
      <trkpt lat="45.05596" lon="5.3851">
        <ele>850.4</ele>
        <time>2017-05-24T10:33:12Z</time>
      </trkpt>
      <trkpt lat="45.05607" lon="5.38519">
        <ele>849.8</ele>
        <time>2017-05-24T10:33:26Z</time>
      </trkpt>
      <trkpt lat="45.05613" lon="5.38532">
        <ele>849.5</ele>
        <time>2017-05-24T10:33:34Z</time>
      </trkpt>
      <trkpt lat="45.0562" lon="5.38542">
        <ele>849.3</ele>
        <time>2017-05-24T10:33:42Z</time>
      </trkpt>
      <trkpt lat="45.05623" lon="5.38548">
        <ele>849.2</ele>
        <time>2017-05-24T10:33:46Z</time>
      </trkpt>
      <trkpt lat="45.05631" lon="5.38555">
        <ele>848.9</ele>
        <time>2017-05-24T10:34:18Z</time>
      </trkpt>
      <trkpt lat="45.05637" lon="5.38555">
        <ele>848.6</ele>
        <time>2017-05-24T10:34:26Z</time>
      </trkpt>
      <trkpt lat="45.05643" lon="5.38558">
        <ele>847</ele>
        <time>2017-05-24T10:34:41Z</time>
      </trkpt>
      <trkpt lat="45.05632" lon="5.38527">
        <ele>850.1</ele>
        <time>2017-05-24T10:35:13Z</time>
      </trkpt>
      <trkpt lat="45.05635" lon="5.38528">
        <ele>856.6</ele>
        <time>2017-05-24T10:35:45Z</time>
      </trkpt>
      <trkpt lat="45.05639" lon="5.38524">
        <ele>871.4</ele>
        <time>2017-05-24T10:35:59Z</time>
      </trkpt>
      <trkpt lat="45.0564" lon="5.38501">
        <ele>894.9</ele>
        <time>2017-05-24T10:36:11Z</time>
      </trkpt>
      <trkpt lat="45.05642" lon="5.38492">
        <ele>903.8</ele>
        <time>2017-05-24T10:36:15Z</time>
      </trkpt>
      <trkpt lat="45.0564" lon="5.38488">
        <ele>909.9</ele>
        <time>2017-05-24T10:36:19Z</time>
      </trkpt>
      <trkpt lat="45.05641" lon="5.38484">
        <ele>916.5</ele>
        <time>2017-05-24T10:36:35Z</time>
      </trkpt>
      <trkpt lat="45.05633" lon="5.3849">
        <ele>919.3</ele>
        <time>2017-05-24T10:36:43Z</time>
      </trkpt>
      <trkpt lat="45.05631" lon="5.38488">
        <ele>919.4</ele>
        <time>2017-05-24T10:36:51Z</time>
      </trkpt>
      <trkpt lat="45.05628" lon="5.38491">
        <ele>918.5</ele>
        <time>2017-05-24T10:37:17Z</time>
      </trkpt>
      <trkpt lat="45.05621" lon="5.38484">
        <ele>920.1</ele>
        <time>2017-05-24T10:37:45Z</time>
      </trkpt>
      <trkpt lat="45.05624" lon="5.38478">
        <ele>920.3</ele>
        <time>2017-05-24T10:38:01Z</time>
      </trkpt>
      <trkpt lat="45.05632" lon="5.38483">
        <ele>920.7</ele>
        <time>2017-05-24T10:38:17Z</time>
      </trkpt>
      <trkpt lat="45.05637" lon="5.38483">
        <ele>920.7</ele>
        <time>2017-05-24T10:38:21Z</time>
      </trkpt>
      <trkpt lat="45.05633" lon="5.38475">
        <ele>920.8</ele>
        <time>2017-05-24T10:38:29Z</time>
      </trkpt>
      <trkpt lat="45.05629" lon="5.38476">
        <ele>920.8</ele>
        <time>2017-05-24T10:38:33Z</time>
      </trkpt>
      <trkpt lat="45.05633" lon="5.38475">
        <ele>920.7</ele>
        <time>2017-05-24T10:38:35Z</time>
      </trkpt>
      <trkpt lat="45.05632" lon="5.38477">
        <ele>920.7</ele>
        <time>2017-05-24T10:38:36Z</time>
      </trkpt>
      <trkpt lat="45.05637" lon="5.3848">
        <ele>920.6</ele>
        <time>2017-05-24T10:38:37Z</time>
      </trkpt>
      <trkpt lat="45.0564" lon="5.38492">
        <ele>919.8</ele>
        <time>2017-05-24T10:38:49Z</time>
      </trkpt>
      <trkpt lat="45.05632" lon="5.38489">
        <ele>919.6</ele>
        <time>2017-05-24T10:38:53Z</time>
      </trkpt>
      <trkpt lat="45.05623" lon="5.38481">
        <ele>919.4</ele>
        <time>2017-05-24T10:38:55Z</time>
      </trkpt>
      <trkpt lat="45.05618" lon="5.38483">
        <ele>919.3</ele>
        <time>2017-05-24T10:38:56Z</time>
      </trkpt>
      <trkpt lat="45.056" lon="5.38502">
        <ele>918.9</ele>
        <time>2017-05-24T10:39:00Z</time>
      </trkpt>
      <trkpt lat="45.05596" lon="5.38505">
        <ele>918.7</ele>
        <time>2017-05-24T10:39:01Z</time>
      </trkpt>
      <trkpt lat="45.05586" lon="5.38564">
        <ele>916.4</ele>
        <time>2017-05-24T10:39:08Z</time>
      </trkpt>
      <trkpt lat="45.05616" lon="5.38558">
        <ele>915.2</ele>
        <time>2017-05-24T10:39:12Z</time>
      </trkpt>
      <trkpt lat="45.0562" lon="5.3856">
        <ele>914.5</ele>
        <time>2017-05-24T10:39:14Z</time>
      </trkpt>
      <trkpt lat="45.05618" lon="5.38558">
        <ele>913.8</ele>
        <time>2017-05-24T10:39:16Z</time>
      </trkpt>
      <trkpt lat="45.05624" lon="5.3856">
        <ele>913.1</ele>
        <time>2017-05-24T10:39:18Z</time>
      </trkpt>
      <trkpt lat="45.05629" lon="5.38542">
        <ele>912.2</ele>
        <time>2017-05-24T10:39:26Z</time>
      </trkpt>
      <trkpt lat="45.0563" lon="5.38535">
        <ele>912</ele>
        <time>2017-05-24T10:39:28Z</time>
      </trkpt>
      <trkpt lat="45.05628" lon="5.3853">
        <ele>911.9</ele>
        <time>2017-05-24T10:39:30Z</time>
      </trkpt>
      <trkpt lat="45.05621" lon="5.38524">
        <ele>911.8</ele>
        <time>2017-05-24T10:39:34Z</time>
      </trkpt>
      <trkpt lat="45.05622" lon="5.38518">
        <ele>912.6</ele>
        <time>2017-05-24T10:39:42Z</time>
      </trkpt>
      <trkpt lat="45.0562" lon="5.38514">
        <ele>913.9</ele>
        <time>2017-05-24T10:39:44Z</time>
      </trkpt>
      <trkpt lat="45.05621" lon="5.38506">
        <ele>915.3</ele>
        <time>2017-05-24T10:39:48Z</time>
      </trkpt>
      <trkpt lat="45.05624" lon="5.38504">
        <ele>916.9</ele>
        <time>2017-05-24T10:39:58Z</time>
      </trkpt>
      <trkpt lat="45.05624" lon="5.38502">
        <ele>917.9</ele>
        <time>2017-05-24T10:40:02Z</time>
      </trkpt>
      <trkpt lat="45.05625" lon="5.38501">
        <ele>918.2</ele>
        <time>2017-05-24T10:40:04Z</time>
      </trkpt>
      <trkpt lat="45.05624" lon="5.38499">
        <ele>919.2</ele>
        <time>2017-05-24T10:40:12Z</time>
      </trkpt>
      <trkpt lat="45.05623" lon="5.38501">
        <ele>919.8</ele>
        <time>2017-05-24T10:40:20Z</time>
      </trkpt>
      <trkpt lat="45.05626" lon="5.38509">
        <ele>919.9</ele>
        <time>2017-05-24T10:40:28Z</time>
      </trkpt>
      <trkpt lat="45.05626" lon="5.38505">
        <ele>920.1</ele>
        <time>2017-05-24T10:40:32Z</time>
      </trkpt>
      <trkpt lat="45.05629" lon="5.38502">
        <ele>920.2</ele>
        <time>2017-05-24T10:40:34Z</time>
      </trkpt>
      <trkpt lat="45.05628" lon="5.38499">
        <ele>920.2</ele>
        <time>2017-05-24T10:40:36Z</time>
      </trkpt>
      <trkpt lat="45.0563" lon="5.38498">
        <ele>920.2</ele>
        <time>2017-05-24T10:40:39Z</time>
      </trkpt>
      <trkpt lat="45.05628" lon="5.38501">
        <ele>920.7</ele>
        <time>2017-05-24T10:40:47Z</time>
      </trkpt>
      <trkpt lat="45.05627" lon="5.38487">
        <ele>922.8</ele>
        <time>2017-05-24T10:40:55Z</time>
      </trkpt>
      <trkpt lat="45.05619" lon="5.38486">
        <ele>923</ele>
        <time>2017-05-24T10:40:59Z</time>
      </trkpt>
      <trkpt lat="45.05601" lon="5.3846">
        <ele>923.5</ele>
        <time>2017-05-24T10:41:11Z</time>
      </trkpt>
      <trkpt lat="45.05598" lon="5.3846">
        <ele>923.5</ele>
        <time>2017-05-24T10:41:13Z</time>
      </trkpt>
      <trkpt lat="45.05596" lon="5.38463">
        <ele>923.9</ele>
        <time>2017-05-24T10:41:17Z</time>
      </trkpt>
      <trkpt lat="45.05591" lon="5.3844">
        <ele>924.1</ele>
        <time>2017-05-24T10:41:21Z</time>
      </trkpt>
      <trkpt lat="45.05585" lon="5.38427">
        <ele>924</ele>
        <time>2017-05-24T10:41:25Z</time>
      </trkpt>
      <trkpt lat="45.05583" lon="5.38421">
        <ele>924</ele>
        <time>2017-05-24T10:41:26Z</time>
      </trkpt>
      <trkpt lat="45.05589" lon="5.3843">
        <ele>924.3</ele>
        <time>2017-05-24T10:41:28Z</time>
      </trkpt>
      <trkpt lat="45.05598" lon="5.38448">
        <ele>924.9</ele>
        <time>2017-05-24T10:41:30Z</time>
      </trkpt>
      <trkpt lat="45.05625" lon="5.38492">
        <ele>925.7</ele>
        <time>2017-05-24T10:41:48Z</time>
      </trkpt>
      <trkpt lat="45.05616" lon="5.38496">
        <ele>927</ele>
        <time>2017-05-24T10:42:00Z</time>
      </trkpt>
      <trkpt lat="45.05613" lon="5.3849">
        <ele>927.9</ele>
        <time>2017-05-24T10:42:08Z</time>
      </trkpt>
      <trkpt lat="45.05616" lon="5.38487">
        <ele>928.3</ele>
        <time>2017-05-24T10:42:16Z</time>
      </trkpt>
      <trkpt lat="45.05613" lon="5.38489">
        <ele>930.5</ele>
        <time>2017-05-24T10:42:20Z</time>
      </trkpt>
      <trkpt lat="45.05618" lon="5.3849">
        <ele>935.3</ele>
        <time>2017-05-24T10:42:36Z</time>
      </trkpt>
      <trkpt lat="45.05629" lon="5.38473">
        <ele>940.2</ele>
        <time>2017-05-24T10:43:02Z</time>
      </trkpt>
      <trkpt lat="45.0563" lon="5.38476">
        <ele>940.3</ele>
        <time>2017-05-24T10:43:03Z</time>
      </trkpt>
      <trkpt lat="45.05634" lon="5.38469">
        <ele>940.7</ele>
        <time>2017-05-24T10:43:05Z</time>
      </trkpt>
      <trkpt lat="45.05639" lon="5.38467">
        <ele>941.4</ele>
        <time>2017-05-24T10:43:09Z</time>
      </trkpt>
      <trkpt lat="45.05641" lon="5.38464">
        <ele>941.7</ele>
        <time>2017-05-24T10:43:11Z</time>
      </trkpt>
      <trkpt lat="45.05642" lon="5.38467">
        <ele>942.4</ele>
        <time>2017-05-24T10:43:15Z</time>
      </trkpt>
      <trkpt lat="45.05641" lon="5.38473">
        <ele>943.7</ele>
        <time>2017-05-24T10:43:23Z</time>
      </trkpt>
      <trkpt lat="45.05635" lon="5.38478">
        <ele>946.1</ele>
        <time>2017-05-24T10:43:42Z</time>
      </trkpt>
      <trkpt lat="45.05634" lon="5.38482">
        <ele>946.6</ele>
        <time>2017-05-24T10:43:46Z</time>
      </trkpt>
      <trkpt lat="45.05632" lon="5.38482">
        <ele>947.6</ele>
        <time>2017-05-24T10:43:54Z</time>
      </trkpt>
      <trkpt lat="45.05634" lon="5.38479">
        <ele>948.4</ele>
        <time>2017-05-24T10:44:02Z</time>
      </trkpt>
      <trkpt lat="45.05638" lon="5.38485">
        <ele>948.7</ele>
        <time>2017-05-24T10:44:09Z</time>
      </trkpt>
      <trkpt lat="45.05637" lon="5.38487">
        <ele>948.5</ele>
        <time>2017-05-24T10:44:18Z</time>
      </trkpt>
      <trkpt lat="45.05636" lon="5.38483">
        <ele>948.4</ele>
        <time>2017-05-24T10:44:22Z</time>
      </trkpt>
      <trkpt lat="45.05643" lon="5.38485">
        <ele>948.4</ele>
        <time>2017-05-24T10:44:30Z</time>
      </trkpt>
      <trkpt lat="45.05643" lon="5.38487">
        <ele>948.4</ele>
        <time>2017-05-24T10:44:33Z</time>
      </trkpt>
      <trkpt lat="45.05643" lon="5.38484">
        <ele>948.4</ele>
        <time>2017-05-24T10:44:35Z</time>
      </trkpt>
      <trkpt lat="45.05637" lon="5.3848">
        <ele>948.1</ele>
        <time>2017-05-24T10:44:51Z</time>
      </trkpt>
      <trkpt lat="45.05635" lon="5.38485">
        <ele>946.3</ele>
        <time>2017-05-24T10:45:07Z</time>
      </trkpt>
      <trkpt lat="45.05634" lon="5.38483">
        <ele>945.4</ele>
        <time>2017-05-24T10:45:23Z</time>
      </trkpt>
      <trkpt lat="45.05634" lon="5.38484">
        <ele>945</ele>
        <time>2017-05-24T10:45:27Z</time>
      </trkpt>
      <trkpt lat="45.05633" lon="5.38481">
        <ele>944.8</ele>
        <time>2017-05-24T10:45:31Z</time>
      </trkpt>
      <trkpt lat="45.05627" lon="5.38479">
        <ele>944.6</ele>
        <time>2017-05-24T10:45:39Z</time>
      </trkpt>
      <trkpt lat="45.05627" lon="5.38484">
        <ele>944.3</ele>
        <time>2017-05-24T10:45:47Z</time>
      </trkpt>
      <trkpt lat="45.05626" lon="5.38482">
        <ele>944.6</ele>
        <time>2017-05-24T10:45:49Z</time>
      </trkpt>
      <trkpt lat="45.05627" lon="5.38479">
        <ele>944.7</ele>
        <time>2017-05-24T10:45:50Z</time>
      </trkpt>
      <trkpt lat="45.05625" lon="5.3848">
        <ele>945.4</ele>
        <time>2017-05-24T10:45:52Z</time>
      </trkpt>
      <trkpt lat="45.05634" lon="5.38494">
        <ele>947.2</ele>
        <time>2017-05-24T10:46:24Z</time>
      </trkpt>
      <trkpt lat="45.05629" lon="5.38497">
        <ele>943</ele>
        <time>2017-05-24T10:46:32Z</time>
      </trkpt>
      <trkpt lat="45.05626" lon="5.38498">
        <ele>940</ele>
        <time>2017-05-24T10:46:34Z</time>
      </trkpt>
      <trkpt lat="45.05622" lon="5.38503">
        <ele>936.9</ele>
        <time>2017-05-24T10:46:40Z</time>
      </trkpt>
      <trkpt lat="45.05621" lon="5.38503">
        <ele>935.5</ele>
        <time>2017-05-24T10:46:48Z</time>
      </trkpt>
      <trkpt lat="45.05619" lon="5.3851">
        <ele>932.6</ele>
        <time>2017-05-24T10:46:54Z</time>
      </trkpt>
      <trkpt lat="45.05623" lon="5.38505">
        <ele>936.6</ele>
        <time>2017-05-24T10:47:26Z</time>
      </trkpt>
      <trkpt lat="45.05633" lon="5.3851">
        <ele>933.8</ele>
        <time>2017-05-24T10:47:33Z</time>
      </trkpt>
      <trkpt lat="45.05643" lon="5.38503">
        <ele>933.4</ele>
        <time>2017-05-24T10:47:49Z</time>
      </trkpt>
      <trkpt lat="45.05635" lon="5.38511">
        <ele>932.3</ele>
        <time>2017-05-24T10:48:05Z</time>
      </trkpt>
      <trkpt lat="45.05625" lon="5.38526">
        <ele>924.1</ele>
        <time>2017-05-24T10:48:13Z</time>
      </trkpt>
      <trkpt lat="45.05626" lon="5.38531">
        <ele>921.5</ele>
        <time>2017-05-24T10:48:17Z</time>
      </trkpt>
      <trkpt lat="45.05624" lon="5.38534">
        <ele>920.5</ele>
        <time>2017-05-24T10:48:19Z</time>
      </trkpt>
      <trkpt lat="45.05625" lon="5.38543">
        <ele>917.2</ele>
        <time>2017-05-24T10:48:35Z</time>
      </trkpt>
      <trkpt lat="45.05627" lon="5.38534">
        <ele>912.2</ele>
        <time>2017-05-24T10:49:07Z</time>
      </trkpt>
      <trkpt lat="45.05629" lon="5.38536">
        <ele>913.8</ele>
        <time>2017-05-24T10:49:23Z</time>
      </trkpt>
      <trkpt lat="45.05635" lon="5.38527">
        <ele>921.4</ele>
        <time>2017-05-24T10:49:39Z</time>
      </trkpt>
      <trkpt lat="45.05635" lon="5.38523">
        <ele>922.7</ele>
        <time>2017-05-24T10:49:47Z</time>
      </trkpt>
      <trkpt lat="45.05634" lon="5.38523">
        <ele>922.9</ele>
        <time>2017-05-24T10:49:49Z</time>
      </trkpt>
      <trkpt lat="45.05636" lon="5.38519">
        <ele>923.6</ele>
        <time>2017-05-24T10:50:05Z</time>
      </trkpt>
      <trkpt lat="45.05635" lon="5.38526">
        <ele>923.3</ele>
        <time>2017-05-24T10:50:25Z</time>
      </trkpt>
      <trkpt lat="45.05642" lon="5.38514">
        <ele>936.7</ele>
        <time>2017-05-24T10:50:39Z</time>
      </trkpt>
      <trkpt lat="45.05642" lon="5.38502">
        <ele>942.2</ele>
        <time>2017-05-24T10:50:51Z</time>
      </trkpt>
      <trkpt lat="45.05638" lon="5.38504">
        <ele>943.2</ele>
        <time>2017-05-24T10:51:07Z</time>
      </trkpt>
      <trkpt lat="45.05635" lon="5.385">
        <ele>949.9</ele>
        <time>2017-05-24T10:51:21Z</time>
      </trkpt>
      <trkpt lat="45.05633" lon="5.38501">
        <ele>950.9</ele>
        <time>2017-05-24T10:51:23Z</time>
      </trkpt>
      <trkpt lat="45.05632" lon="5.38499">
        <ele>953.1</ele>
        <time>2017-05-24T10:51:27Z</time>
      </trkpt>
      <trkpt lat="45.05627" lon="5.38509">
        <ele>943.7</ele>
        <time>2017-05-24T10:51:43Z</time>
      </trkpt>
      <trkpt lat="45.05629" lon="5.38509">
        <ele>947.2</ele>
        <time>2017-05-24T10:51:57Z</time>
      </trkpt>
      <trkpt lat="45.05629" lon="5.38501">
        <ele>951.3</ele>
        <time>2017-05-24T10:52:21Z</time>
      </trkpt>
      <trkpt lat="45.05623" lon="5.38512">
        <ele>951.3</ele>
        <time>2017-05-24T10:52:26Z</time>
      </trkpt>
      <trkpt lat="45.05624" lon="5.38517">
        <ele>950</ele>
        <time>2017-05-24T10:52:28Z</time>
      </trkpt>
      <trkpt lat="45.0562" lon="5.38524">
        <ele>948.7</ele>
        <time>2017-05-24T10:52:34Z</time>
      </trkpt>
      <trkpt lat="45.05616" lon="5.38524">
        <ele>946.4</ele>
        <time>2017-05-24T10:52:42Z</time>
      </trkpt>
      <trkpt lat="45.05624" lon="5.38518">
        <ele>945.3</ele>
        <time>2017-05-24T10:52:50Z</time>
      </trkpt>
      <trkpt lat="45.05632" lon="5.38515">
        <ele>944.6</ele>
        <time>2017-05-24T10:52:56Z</time>
      </trkpt>
      <trkpt lat="45.0563" lon="5.38515">
        <ele>944.5</ele>
        <time>2017-05-24T10:53:04Z</time>
      </trkpt>
      <trkpt lat="45.05633" lon="5.38506">
        <ele>948.2</ele>
        <time>2017-05-24T10:53:05Z</time>
      </trkpt>
      <trkpt lat="45.0563" lon="5.38499">
        <ele>947.1</ele>
        <time>2017-05-24T10:53:13Z</time>
      </trkpt>
      <trkpt lat="45.05629" lon="5.38503">
        <ele>947.6</ele>
        <time>2017-05-24T10:53:17Z</time>
      </trkpt>
      <trkpt lat="45.05625" lon="5.38505">
        <ele>948.6</ele>
        <time>2017-05-24T10:53:33Z</time>
      </trkpt>
      <trkpt lat="45.05628" lon="5.38506">
        <ele>949.3</ele>
        <time>2017-05-24T10:53:41Z</time>
      </trkpt>
      <trkpt lat="45.05626" lon="5.38503">
        <ele>949.5</ele>
        <time>2017-05-24T10:53:43Z</time>
      </trkpt>
      <trkpt lat="45.05627" lon="5.38509">
        <ele>949.5</ele>
        <time>2017-05-24T10:53:47Z</time>
      </trkpt>
      <trkpt lat="45.05626" lon="5.38509">
        <ele>949.7</ele>
        <time>2017-05-24T10:53:48Z</time>
      </trkpt>
      <trkpt lat="45.05627" lon="5.38511">
        <ele>949.8</ele>
        <time>2017-05-24T10:53:49Z</time>
      </trkpt>
      <trkpt lat="45.05642" lon="5.38518">
        <ele>950.3</ele>
        <time>2017-05-24T10:54:03Z</time>
      </trkpt>
      <trkpt lat="45.05643" lon="5.38523">
        <ele>950.6</ele>
        <time>2017-05-24T10:54:06Z</time>
      </trkpt>
      <trkpt lat="45.05662" lon="5.38545">
        <ele>950.4</ele>
        <time>2017-05-24T10:54:17Z</time>
      </trkpt>
      <trkpt lat="45.05592" lon="5.38533">
        <ele>947.8</ele>
        <time>2017-05-24T10:54:45Z</time>
      </trkpt>
      <trkpt lat="45.05588" lon="5.3851">
        <ele>947</ele>
        <time>2017-05-24T10:55:02Z</time>
      </trkpt>
      <trkpt lat="45.05573" lon="5.38547">
        <ele>946</ele>
        <time>2017-05-24T10:55:34Z</time>
      </trkpt>
      <trkpt lat="45.05595" lon="5.3855">
        <ele>944.9</ele>
        <time>2017-05-24T10:55:49Z</time>
      </trkpt>
      <trkpt lat="45.056" lon="5.38552">
        <ele>945.1</ele>
        <time>2017-05-24T10:55:51Z</time>
      </trkpt>
      <trkpt lat="45.056" lon="5.38549">
        <ele>945.1</ele>
        <time>2017-05-24T10:55:53Z</time>
      </trkpt>
      <trkpt lat="45.05597" lon="5.38548">
        <ele>944.7</ele>
        <time>2017-05-24T10:56:01Z</time>
      </trkpt>
      <trkpt lat="45.05601" lon="5.38548">
        <ele>945.3</ele>
        <time>2017-05-24T10:56:06Z</time>
      </trkpt>
      <trkpt lat="45.05603" lon="5.38553">
        <ele>945.7</ele>
        <time>2017-05-24T10:56:08Z</time>
      </trkpt>
      <trkpt lat="45.05602" lon="5.38554">
        <ele>945.8</ele>
        <time>2017-05-24T10:56:10Z</time>
      </trkpt>
      <trkpt lat="45.05605" lon="5.38563">
        <ele>945.3</ele>
        <time>2017-05-24T10:56:19Z</time>
      </trkpt>
      <trkpt lat="45.05604" lon="5.38569">
        <ele>945.1</ele>
        <time>2017-05-24T10:56:23Z</time>
      </trkpt>
      <trkpt lat="45.05587" lon="5.38543">
        <ele>946.2</ele>
        <time>2017-05-24T10:56:42Z</time>
      </trkpt>
      <trkpt lat="45.0559" lon="5.38543">
        <ele>946.7</ele>
        <time>2017-05-24T10:56:46Z</time>
      </trkpt>
      <trkpt lat="45.05591" lon="5.3854">
        <ele>947.9</ele>
        <time>2017-05-24T10:56:54Z</time>
      </trkpt>
      <trkpt lat="45.05599" lon="5.38549">
        <ele>949.1</ele>
        <time>2017-05-24T10:56:58Z</time>
      </trkpt>
      <trkpt lat="45.05601" lon="5.38545">
        <ele>949.9</ele>
        <time>2017-05-24T10:57:01Z</time>
      </trkpt>
      <trkpt lat="45.05608" lon="5.38567">
        <ele>952.8</ele>
        <time>2017-05-24T10:57:21Z</time>
      </trkpt>
      <trkpt lat="45.05607" lon="5.38567">
        <ele>955.1</ele>
        <time>2017-05-24T10:57:25Z</time>
      </trkpt>
      <trkpt lat="45.05608" lon="5.38556">
        <ele>962.2</ele>
        <time>2017-05-24T10:57:37Z</time>
      </trkpt>
      <trkpt lat="45.05613" lon="5.38557">
        <ele>969.4</ele>
        <time>2017-05-24T10:57:45Z</time>
      </trkpt>
      <trkpt lat="45.0562" lon="5.38547">
        <ele>978.2</ele>
        <time>2017-05-24T10:58:01Z</time>
      </trkpt>
      <trkpt lat="45.0562" lon="5.38535">
        <ele>982.4</ele>
        <time>2017-05-24T10:58:09Z</time>
      </trkpt>
      <trkpt lat="45.0563" lon="5.38533">
        <ele>988.7</ele>
        <time>2017-05-24T10:58:24Z</time>
      </trkpt>
      <trkpt lat="45.05625" lon="5.3854">
        <ele>989.1</ele>
        <time>2017-05-24T10:58:28Z</time>
      </trkpt>
      <trkpt lat="45.0562" lon="5.38542">
        <ele>989.5</ele>
        <time>2017-05-24T10:58:30Z</time>
      </trkpt>
      <trkpt lat="45.05621" lon="5.38553">
        <ele>989.8</ele>
        <time>2017-05-24T10:58:38Z</time>
      </trkpt>
      <trkpt lat="45.05619" lon="5.38557">
        <ele>988.7</ele>
        <time>2017-05-24T10:58:42Z</time>
      </trkpt>
      <trkpt lat="45.05616" lon="5.38561">
        <ele>988.5</ele>
        <time>2017-05-24T10:58:46Z</time>
      </trkpt>
      <trkpt lat="45.05615" lon="5.38565">
        <ele>986.7</ele>
        <time>2017-05-24T10:58:48Z</time>
      </trkpt>
      <trkpt lat="45.05613" lon="5.38566">
        <ele>986.3</ele>
        <time>2017-05-24T10:58:52Z</time>
      </trkpt>
      <trkpt lat="45.05614" lon="5.38572">
        <ele>986.5</ele>
        <time>2017-05-24T10:59:00Z</time>
      </trkpt>
      <trkpt lat="45.05598" lon="5.38583">
        <ele>963.3</ele>
        <time>2017-05-24T10:59:22Z</time>
      </trkpt>
      <trkpt lat="45.05597" lon="5.38588">
        <ele>962.6</ele>
        <time>2017-05-24T10:59:26Z</time>
      </trkpt>
      <trkpt lat="45.05603" lon="5.38609">
        <ele>965.6</ele>
        <time>2017-05-24T10:59:42Z</time>
      </trkpt>
      <trkpt lat="45.05622" lon="5.3864">
        <ele>965.5</ele>
        <time>2017-05-24T11:00:14Z</time>
      </trkpt>
      <trkpt lat="45.05644" lon="5.38666">
        <ele>967.3</ele>
        <time>2017-05-24T11:00:46Z</time>
      </trkpt>
      <trkpt lat="45.05656" lon="5.38677">
        <ele>963.5</ele>
        <time>2017-05-24T11:01:02Z</time>
      </trkpt>
      <trkpt lat="45.05668" lon="5.3868">
        <ele>962.7</ele>
        <time>2017-05-24T11:01:17Z</time>
      </trkpt>
      <trkpt lat="45.05685" lon="5.38688">
        <ele>956.4</ele>
        <time>2017-05-24T11:01:49Z</time>
      </trkpt>
      <trkpt lat="45.05707" lon="5.38691">
        <ele>951.9</ele>
        <time>2017-05-24T11:02:13Z</time>
      </trkpt>
      <trkpt lat="45.05712" lon="5.38696">
        <ele>945.3</ele>
        <time>2017-05-24T11:02:45Z</time>
      </trkpt>
      <trkpt lat="45.05707" lon="5.38694">
        <ele>940.8</ele>
        <time>2017-05-24T11:03:49Z</time>
      </trkpt>
      <trkpt lat="45.05704" lon="5.38697">
        <ele>939.8</ele>
        <time>2017-05-24T11:04:09Z</time>
      </trkpt>
      <trkpt lat="45.05698" lon="5.38694">
        <ele>939.6</ele>
        <time>2017-05-24T11:04:17Z</time>
      </trkpt>
      <trkpt lat="45.05695" lon="5.38687">
        <ele>945.4</ele>
        <time>2017-05-24T11:04:49Z</time>
      </trkpt>
      <trkpt lat="45.05691" lon="5.38693">
        <ele>948.1</ele>
        <time>2017-05-24T11:05:53Z</time>
      </trkpt>
      <trkpt lat="45.05684" lon="5.38693">
        <ele>950.9</ele>
        <time>2017-05-24T11:06:14Z</time>
      </trkpt>
      <trkpt lat="45.05679" lon="5.38682">
        <ele>951.1</ele>
        <time>2017-05-24T11:06:26Z</time>
      </trkpt>
      <trkpt lat="45.05669" lon="5.38679">
        <ele>952.9</ele>
        <time>2017-05-24T11:07:30Z</time>
      </trkpt>
      <trkpt lat="45.05665" lon="5.38673">
        <ele>961.4</ele>
        <time>2017-05-24T11:09:38Z</time>
      </trkpt>
      <trkpt lat="45.0566" lon="5.38685">
        <ele>940.7</ele>
        <time>2017-05-24T11:11:46Z</time>
      </trkpt>
      <trkpt lat="45.05661" lon="5.38687">
        <ele>938</ele>
        <time>2017-05-24T11:12:14Z</time>
      </trkpt>
      <trkpt lat="45.05658" lon="5.38691">
        <ele>935.9</ele>
        <time>2017-05-24T11:12:18Z</time>
      </trkpt>
      <trkpt lat="45.05655" lon="5.38691">
        <ele>937.6</ele>
        <time>2017-05-24T11:12:22Z</time>
      </trkpt>
      <trkpt lat="45.0564" lon="5.38673">
        <ele>951.8</ele>
        <time>2017-05-24T11:12:46Z</time>
      </trkpt>
      <trkpt lat="45.05627" lon="5.38641">
        <ele>965.2</ele>
        <time>2017-05-24T11:13:06Z</time>
      </trkpt>
      <trkpt lat="45.05619" lon="5.38636">
        <ele>963.3</ele>
        <time>2017-05-24T11:13:14Z</time>
      </trkpt>
      <trkpt lat="45.0561" lon="5.38626">
        <ele>956.4</ele>
        <time>2017-05-24T11:13:46Z</time>
      </trkpt>
      <trkpt lat="45.05604" lon="5.38627">
        <ele>945.4</ele>
        <time>2017-05-24T11:14:02Z</time>
      </trkpt>
      <trkpt lat="45.05597" lon="5.38624">
        <ele>952.5</ele>
        <time>2017-05-24T11:14:14Z</time>
      </trkpt>
      <trkpt lat="45.05593" lon="5.38626">
        <ele>955.6</ele>
        <time>2017-05-24T11:14:18Z</time>
      </trkpt>
      <trkpt lat="45.05589" lon="5.38632">
        <ele>966.3</ele>
        <time>2017-05-24T11:14:26Z</time>
      </trkpt>
      <trkpt lat="45.05574" lon="5.38641">
        <ele>981.3</ele>
        <time>2017-05-24T11:14:57Z</time>
      </trkpt>
      <trkpt lat="45.05566" lon="5.38641">
        <ele>982</ele>
        <time>2017-05-24T11:15:05Z</time>
      </trkpt>
      <trkpt lat="45.05559" lon="5.38632">
        <ele>984.7</ele>
        <time>2017-05-24T11:15:13Z</time>
      </trkpt>
      <trkpt lat="45.05552" lon="5.38634">
        <ele>984.3</ele>
        <time>2017-05-24T11:15:21Z</time>
      </trkpt>
      <trkpt lat="45.05537" lon="5.38661">
        <ele>992.3</ele>
        <time>2017-05-24T11:16:09Z</time>
      </trkpt>
      <trkpt lat="45.05537" lon="5.38665">
        <ele>991.2</ele>
        <time>2017-05-24T11:16:17Z</time>
      </trkpt>
      <trkpt lat="45.05534" lon="5.38671">
        <ele>989.4</ele>
        <time>2017-05-24T11:16:25Z</time>
      </trkpt>
      <trkpt lat="45.05532" lon="5.38679">
        <ele>990.9</ele>
        <time>2017-05-24T11:16:33Z</time>
      </trkpt>
      <trkpt lat="45.05525" lon="5.38688">
        <ele>997.4</ele>
        <time>2017-05-24T11:16:49Z</time>
      </trkpt>
      <trkpt lat="45.05513" lon="5.38712">
        <ele>1009</ele>
        <time>2017-05-24T11:17:25Z</time>
      </trkpt>
      <trkpt lat="45.0551" lon="5.38712">
        <ele>1007.6</ele>
        <time>2017-05-24T11:17:29Z</time>
      </trkpt>
      <trkpt lat="45.055" lon="5.38727">
        <ele>1009.1</ele>
        <time>2017-05-24T11:17:45Z</time>
      </trkpt>
      <trkpt lat="45.05479" lon="5.38739">
        <ele>1014.1</ele>
        <time>2017-05-24T11:18:25Z</time>
      </trkpt>
      <trkpt lat="45.05473" lon="5.3874">
        <ele>1014.4</ele>
        <time>2017-05-24T11:18:33Z</time>
      </trkpt>
      <trkpt lat="45.05467" lon="5.38739">
        <ele>1014.4</ele>
        <time>2017-05-24T11:18:41Z</time>
      </trkpt>
      <trkpt lat="45.05444" lon="5.38746">
        <ele>1012.9</ele>
        <time>2017-05-24T11:19:05Z</time>
      </trkpt>
      <trkpt lat="45.05429" lon="5.38756">
        <ele>1013.5</ele>
        <time>2017-05-24T11:19:21Z</time>
      </trkpt>
      <trkpt lat="45.05422" lon="5.38768">
        <ele>1013.1</ele>
        <time>2017-05-24T11:19:38Z</time>
      </trkpt>
      <trkpt lat="45.05418" lon="5.3877">
        <ele>1011.4</ele>
        <time>2017-05-24T11:19:46Z</time>
      </trkpt>
      <trkpt lat="45.05413" lon="5.38769">
        <ele>1009.8</ele>
        <time>2017-05-24T11:19:54Z</time>
      </trkpt>
      <trkpt lat="45.05412" lon="5.38773">
        <ele>1008.8</ele>
        <time>2017-05-24T11:20:02Z</time>
      </trkpt>
      <trkpt lat="45.05414" lon="5.38776">
        <ele>1008</ele>
        <time>2017-05-24T11:20:06Z</time>
      </trkpt>
      <trkpt lat="45.05414" lon="5.38778">
        <ele>1007.4</ele>
        <time>2017-05-24T11:20:14Z</time>
      </trkpt>
      <trkpt lat="45.05417" lon="5.38776">
        <ele>1007</ele>
        <time>2017-05-24T11:20:22Z</time>
      </trkpt>
      <trkpt lat="45.05417" lon="5.38773">
        <ele>1007.3</ele>
        <time>2017-05-24T11:20:30Z</time>
      </trkpt>
      <trkpt lat="45.0541" lon="5.38772">
        <ele>1002.4</ele>
        <time>2017-05-24T11:20:59Z</time>
      </trkpt>
      <trkpt lat="45.05405" lon="5.38777">
        <ele>1024.3</ele>
        <time>2017-05-24T11:23:01Z</time>
      </trkpt>
      <trkpt lat="45.05405" lon="5.38775">
        <ele>1025.8</ele>
        <time>2017-05-24T11:23:41Z</time>
      </trkpt>
      <trkpt lat="45.05409" lon="5.38779">
        <ele>1019.6</ele>
        <time>2017-05-24T11:23:57Z</time>
      </trkpt>
      <trkpt lat="45.0541" lon="5.38777">
        <ele>1020.4</ele>
        <time>2017-05-24T11:24:29Z</time>
      </trkpt>
      <trkpt lat="45.05398" lon="5.38757">
        <ele>1024.6</ele>
        <time>2017-05-24T11:24:53Z</time>
      </trkpt>
      <trkpt lat="45.05383" lon="5.38751">
        <ele>1024.7</ele>
        <time>2017-05-24T11:25:09Z</time>
      </trkpt>
      <trkpt lat="45.05356" lon="5.38754">
        <ele>1024.7</ele>
        <time>2017-05-24T11:25:33Z</time>
      </trkpt>
      <trkpt lat="45.05304" lon="5.38779">
        <ele>1012.6</ele>
        <time>2017-05-24T11:26:20Z</time>
      </trkpt>
      <trkpt lat="45.0528" lon="5.38785">
        <ele>1013.9</ele>
        <time>2017-05-24T11:26:44Z</time>
      </trkpt>
      <trkpt lat="45.05261" lon="5.38783">
        <ele>1018.9</ele>
        <time>2017-05-24T11:26:58Z</time>
      </trkpt>
      <trkpt lat="45.05258" lon="5.38786">
        <ele>1023.9</ele>
        <time>2017-05-24T11:26:59Z</time>
      </trkpt>
      <trkpt lat="45.05241" lon="5.38783">
        <ele>1032.2</ele>
        <time>2017-05-24T11:27:15Z</time>
      </trkpt>
      <trkpt lat="45.0522" lon="5.38804">
        <ele>1031</ele>
        <time>2017-05-24T11:27:39Z</time>
      </trkpt>
      <trkpt lat="45.05212" lon="5.38807">
        <ele>1028.8</ele>
        <time>2017-05-24T11:27:47Z</time>
      </trkpt>
      <trkpt lat="45.05164" lon="5.38835">
        <ele>1048.8</ele>
        <time>2017-05-24T11:28:43Z</time>
      </trkpt>
      <trkpt lat="45.05149" lon="5.38848">
        <ele>1052</ele>
        <time>2017-05-24T11:28:59Z</time>
      </trkpt>
      <trkpt lat="45.05134" lon="5.38853">
        <ele>1049</ele>
        <time>2017-05-24T11:29:07Z</time>
      </trkpt>
      <trkpt lat="45.0512" lon="5.38855">
        <ele>1047.6</ele>
        <time>2017-05-24T11:29:19Z</time>
      </trkpt>
      <trkpt lat="45.05107" lon="5.38865">
        <ele>1046</ele>
        <time>2017-05-24T11:29:29Z</time>
      </trkpt>
      <trkpt lat="45.05119" lon="5.38862">
        <ele>1034.7</ele>
        <time>2017-05-24T11:29:54Z</time>
      </trkpt>
      <trkpt lat="45.05123" lon="5.38863">
        <ele>1034.2</ele>
        <time>2017-05-24T11:30:10Z</time>
      </trkpt>
      <trkpt lat="45.05119" lon="5.3886">
        <ele>1026.5</ele>
        <time>2017-05-24T11:31:14Z</time>
      </trkpt>
      <trkpt lat="45.05117" lon="5.38861">
        <ele>1035.4</ele>
        <time>2017-05-24T11:31:36Z</time>
      </trkpt>
      <trkpt lat="45.05114" lon="5.38857">
        <ele>1027.6</ele>
        <time>2017-05-24T11:31:44Z</time>
      </trkpt>
      <trkpt lat="45.05113" lon="5.38859">
        <ele>1022.2</ele>
        <time>2017-05-24T11:31:52Z</time>
      </trkpt>
      <trkpt lat="45.05116" lon="5.38858">
        <ele>1022.5</ele>
        <time>2017-05-24T11:31:59Z</time>
      </trkpt>
      <trkpt lat="45.05114" lon="5.38865">
        <ele>1028.7</ele>
        <time>2017-05-24T11:32:03Z</time>
      </trkpt>
      <trkpt lat="45.05108" lon="5.38869">
        <ele>1033.4</ele>
        <time>2017-05-24T11:32:11Z</time>
      </trkpt>
      <trkpt lat="45.05108" lon="5.38871">
        <ele>1037.6</ele>
        <time>2017-05-24T11:32:13Z</time>
      </trkpt>
      <trkpt lat="45.05103" lon="5.3887">
        <ele>1035.8</ele>
        <time>2017-05-24T11:32:21Z</time>
      </trkpt>
      <trkpt lat="45.0509" lon="5.38875">
        <ele>1035.6</ele>
        <time>2017-05-24T11:32:37Z</time>
      </trkpt>
      <trkpt lat="45.05082" lon="5.38876">
        <ele>1030.7</ele>
        <time>2017-05-24T11:32:53Z</time>
      </trkpt>
      <trkpt lat="45.0507" lon="5.38883">
        <ele>1027.8</ele>
        <time>2017-05-24T11:33:08Z</time>
      </trkpt>
      <trkpt lat="45.0502" lon="5.389">
        <ele>1018.2</ele>
        <time>2017-05-24T11:33:52Z</time>
      </trkpt>
      <trkpt lat="45.04983" lon="5.38927">
        <ele>1027.6</ele>
        <time>2017-05-24T11:34:24Z</time>
      </trkpt>
      <trkpt lat="45.04961" lon="5.38949">
        <ele>1027</ele>
        <time>2017-05-24T11:34:48Z</time>
      </trkpt>
      <trkpt lat="45.04942" lon="5.3895">
        <ele>1025.5</ele>
        <time>2017-05-24T11:35:04Z</time>
      </trkpt>
      <trkpt lat="45.04934" lon="5.38948">
        <ele>1024.7</ele>
        <time>2017-05-24T11:35:12Z</time>
      </trkpt>
      <trkpt lat="45.04925" lon="5.3895">
        <ele>1024.5</ele>
        <time>2017-05-24T11:35:26Z</time>
      </trkpt>
      <trkpt lat="45.04905" lon="5.38959">
        <ele>1026.6</ele>
        <time>2017-05-24T11:35:42Z</time>
      </trkpt>
      <trkpt lat="45.04886" lon="5.38971">
        <ele>1037.7</ele>
        <time>2017-05-24T11:35:58Z</time>
      </trkpt>
      <trkpt lat="45.04866" lon="5.38978">
        <ele>1050.4</ele>
        <time>2017-05-24T11:36:24Z</time>
      </trkpt>
      <trkpt lat="45.04866" lon="5.38981">
        <ele>1050.4</ele>
        <time>2017-05-24T11:36:26Z</time>
      </trkpt>
      <trkpt lat="45.04863" lon="5.38985">
        <ele>1050.6</ele>
        <time>2017-05-24T11:36:27Z</time>
      </trkpt>
      <trkpt lat="45.0486" lon="5.38982">
        <ele>1057.2</ele>
        <time>2017-05-24T11:36:32Z</time>
      </trkpt>
      <trkpt lat="45.04857" lon="5.38984">
        <ele>1063.2</ele>
        <time>2017-05-24T11:36:40Z</time>
      </trkpt>
      <trkpt lat="45.04853" lon="5.38981">
        <ele>1062.9</ele>
        <time>2017-05-24T11:36:56Z</time>
      </trkpt>
      <trkpt lat="45.04845" lon="5.38982">
        <ele>1063.1</ele>
        <time>2017-05-24T11:37:04Z</time>
      </trkpt>
      <trkpt lat="45.04841" lon="5.38987">
        <ele>1063.6</ele>
        <time>2017-05-24T11:37:12Z</time>
      </trkpt>
      <trkpt lat="45.04834" lon="5.39016">
        <ele>1072.7</ele>
        <time>2017-05-24T11:37:44Z</time>
      </trkpt>
      <trkpt lat="45.04828" lon="5.39056">
        <ele>1086.1</ele>
        <time>2017-05-24T11:38:16Z</time>
      </trkpt>
      <trkpt lat="45.04821" lon="5.39071">
        <ele>1085.3</ele>
        <time>2017-05-24T11:38:32Z</time>
      </trkpt>
      <trkpt lat="45.04817" lon="5.39076">
        <ele>1084.8</ele>
        <time>2017-05-24T11:38:40Z</time>
      </trkpt>
      <trkpt lat="45.04815" lon="5.39076">
        <ele>1084.9</ele>
        <time>2017-05-24T11:38:44Z</time>
      </trkpt>
      <trkpt lat="45.04807" lon="5.39066">
        <ele>1087.1</ele>
        <time>2017-05-24T11:39:00Z</time>
      </trkpt>
      <trkpt lat="45.04801" lon="5.39062">
        <ele>1085.1</ele>
        <time>2017-05-24T11:39:32Z</time>
      </trkpt>
      <trkpt lat="45.04797" lon="5.39066">
        <ele>1086.1</ele>
        <time>2017-05-24T11:39:36Z</time>
      </trkpt>
      <trkpt lat="45.048" lon="5.39059">
        <ele>1088</ele>
        <time>2017-05-24T11:39:44Z</time>
      </trkpt>
      <trkpt lat="45.04799" lon="5.39046">
        <ele>1109</ele>
        <time>2017-05-24T11:40:16Z</time>
      </trkpt>
      <trkpt lat="45.04804" lon="5.39055">
        <ele>1106.5</ele>
        <time>2017-05-24T11:42:54Z</time>
      </trkpt>
      <trkpt lat="45.04809" lon="5.39052">
        <ele>1073.2</ele>
        <time>2017-05-24T11:42:55Z</time>
      </trkpt>
      <trkpt lat="45.04805" lon="5.39052">
        <ele>1100.3</ele>
        <time>2017-05-24T11:42:56Z</time>
      </trkpt>
      <trkpt lat="45.04793" lon="5.39056">
        <ele>1088.1</ele>
        <time>2017-05-24T11:43:28Z</time>
      </trkpt>
      <trkpt lat="45.04802" lon="5.39058">
        <ele>1088.8</ele>
        <time>2017-05-24T11:44:32Z</time>
      </trkpt>
      <trkpt lat="45.04799" lon="5.39062">
        <ele>1084.7</ele>
        <time>2017-05-24T11:45:36Z</time>
      </trkpt>
      <trkpt lat="45.04794" lon="5.39062">
        <ele>1082.8</ele>
        <time>2017-05-24T11:46:08Z</time>
      </trkpt>
      <trkpt lat="45.04793" lon="5.3906">
        <ele>1081.4</ele>
        <time>2017-05-24T11:46:40Z</time>
      </trkpt>
      <trkpt lat="45.04797" lon="5.39058">
        <ele>1086.5</ele>
        <time>2017-05-24T11:46:56Z</time>
      </trkpt>
      <trkpt lat="45.04795" lon="5.39062">
        <ele>1088.5</ele>
        <time>2017-05-24T11:47:04Z</time>
      </trkpt>
      <trkpt lat="45.04794" lon="5.39062">
        <ele>1089.4</ele>
        <time>2017-05-24T11:47:08Z</time>
      </trkpt>
      <trkpt lat="45.0479" lon="5.39049">
        <ele>1100.6</ele>
        <time>2017-05-24T11:47:24Z</time>
      </trkpt>
      <trkpt lat="45.04782" lon="5.3904">
        <ele>1108.9</ele>
        <time>2017-05-24T11:47:40Z</time>
      </trkpt>
      <trkpt lat="45.04774" lon="5.39035">
        <ele>1106.4</ele>
        <time>2017-05-24T11:47:48Z</time>
      </trkpt>
      <trkpt lat="45.04762" lon="5.39034">
        <ele>1102.9</ele>
        <time>2017-05-24T11:48:12Z</time>
      </trkpt>
      <trkpt lat="45.0476" lon="5.39031">
        <ele>1101.5</ele>
        <time>2017-05-24T11:48:28Z</time>
      </trkpt>
      <trkpt lat="45.04762" lon="5.3903">
        <ele>1106.6</ele>
        <time>2017-05-24T11:48:40Z</time>
      </trkpt>
      <trkpt lat="45.0476" lon="5.39032">
        <ele>1105.1</ele>
        <time>2017-05-24T11:49:36Z</time>
      </trkpt>
      <trkpt lat="45.04731" lon="5.39016">
        <ele>1096.9</ele>
        <time>2017-05-24T11:50:10Z</time>
      </trkpt>
      <trkpt lat="45.04723" lon="5.39018">
        <ele>1094.5</ele>
        <time>2017-05-24T11:50:12Z</time>
      </trkpt>
      <trkpt lat="45.04718" lon="5.39016">
        <ele>1098</ele>
        <time>2017-05-24T11:50:20Z</time>
      </trkpt>
      <trkpt lat="45.04718" lon="5.39032">
        <ele>1101.7</ele>
        <time>2017-05-24T11:50:36Z</time>
      </trkpt>
      <trkpt lat="45.04723" lon="5.39057">
        <ele>1103.8</ele>
        <time>2017-05-24T11:50:58Z</time>
      </trkpt>
      <trkpt lat="45.04724" lon="5.39057">
        <ele>1104.7</ele>
        <time>2017-05-24T11:51:00Z</time>
      </trkpt>
      <trkpt lat="45.0472" lon="5.39063">
        <ele>1108.2</ele>
        <time>2017-05-24T11:51:16Z</time>
      </trkpt>
      <trkpt lat="45.04708" lon="5.39064">
        <ele>1108.2</ele>
        <time>2017-05-24T11:51:30Z</time>
      </trkpt>
      <trkpt lat="45.04693" lon="5.3906">
        <ele>1111.5</ele>
        <time>2017-05-24T11:51:46Z</time>
      </trkpt>
      <trkpt lat="45.0468" lon="5.39051">
        <ele>1113.2</ele>
        <time>2017-05-24T11:52:02Z</time>
      </trkpt>
      <trkpt lat="45.04666" lon="5.39048">
        <ele>1116.5</ele>
        <time>2017-05-24T11:52:18Z</time>
      </trkpt>
      <trkpt lat="45.04658" lon="5.39042">
        <ele>1115.1</ele>
        <time>2017-05-24T11:52:50Z</time>
      </trkpt>
      <trkpt lat="45.04655" lon="5.39054">
        <ele>1106.7</ele>
        <time>2017-05-24T11:53:38Z</time>
      </trkpt>
      <trkpt lat="45.04657" lon="5.39059">
        <ele>1101.6</ele>
        <time>2017-05-24T11:53:46Z</time>
      </trkpt>
      <trkpt lat="45.04647" lon="5.39075">
        <ele>1095.1</ele>
        <time>2017-05-24T11:54:02Z</time>
      </trkpt>
      <trkpt lat="45.0463" lon="5.39085">
        <ele>1098.7</ele>
        <time>2017-05-24T11:54:18Z</time>
      </trkpt>
      <trkpt lat="45.04619" lon="5.39102">
        <ele>1102.7</ele>
        <time>2017-05-24T11:54:50Z</time>
      </trkpt>
      <trkpt lat="45.04619" lon="5.39104">
        <ele>1103.7</ele>
        <time>2017-05-24T11:54:58Z</time>
      </trkpt>
      <trkpt lat="45.04616" lon="5.39107">
        <ele>1105</ele>
        <time>2017-05-24T11:55:14Z</time>
      </trkpt>
      <trkpt lat="45.04614" lon="5.39104">
        <ele>1109.1</ele>
        <time>2017-05-24T11:55:30Z</time>
      </trkpt>
      <trkpt lat="45.0462" lon="5.39089">
        <ele>1117.9</ele>
        <time>2017-05-24T11:55:46Z</time>
      </trkpt>
      <trkpt lat="45.0462" lon="5.39084">
        <ele>1121.7</ele>
        <time>2017-05-24T11:55:54Z</time>
      </trkpt>
      <trkpt lat="45.04618" lon="5.39089">
        <ele>1122.6</ele>
        <time>2017-05-24T11:56:02Z</time>
      </trkpt>
      <trkpt lat="45.04617" lon="5.391">
        <ele>1117.3</ele>
        <time>2017-05-24T11:56:34Z</time>
      </trkpt>
      <trkpt lat="45.04618" lon="5.39096">
        <ele>1121.3</ele>
        <time>2017-05-24T11:57:06Z</time>
      </trkpt>
      <trkpt lat="45.04619" lon="5.39098">
        <ele>1118.5</ele>
        <time>2017-05-24T11:57:14Z</time>
      </trkpt>
      <trkpt lat="45.04622" lon="5.39089">
        <ele>1127.3</ele>
        <time>2017-05-24T11:57:43Z</time>
      </trkpt>
      <trkpt lat="45.04626" lon="5.39093">
        <ele>1119.7</ele>
        <time>2017-05-24T11:57:48Z</time>
      </trkpt>
      <trkpt lat="45.04635" lon="5.39082">
        <ele>1116.1</ele>
        <time>2017-05-24T11:58:20Z</time>
      </trkpt>
      <trkpt lat="45.04643" lon="5.39075">
        <ele>1117.5</ele>
        <time>2017-05-24T11:58:32Z</time>
      </trkpt>
      <trkpt lat="45.04643" lon="5.39072">
        <ele>1117.7</ele>
        <time>2017-05-24T11:58:33Z</time>
      </trkpt>
      <trkpt lat="45.04648" lon="5.39064">
        <ele>1118.5</ele>
        <time>2017-05-24T11:58:41Z</time>
      </trkpt>
      <trkpt lat="45.0465" lon="5.39057">
        <ele>1119.8</ele>
        <time>2017-05-24T11:58:45Z</time>
      </trkpt>
      <trkpt lat="45.04657" lon="5.39047">
        <ele>1119.8</ele>
        <time>2017-05-24T11:58:53Z</time>
      </trkpt>
      <trkpt lat="45.04655" lon="5.39042">
        <ele>1117</ele>
        <time>2017-05-24T11:59:01Z</time>
      </trkpt>
      <trkpt lat="45.04673" lon="5.39067">
        <ele>1118</ele>
        <time>2017-05-24T11:59:33Z</time>
      </trkpt>
      <trkpt lat="45.04678" lon="5.39085">
        <ele>1122.5</ele>
        <time>2017-05-24T11:59:49Z</time>
      </trkpt>
      <trkpt lat="45.04685" lon="5.391">
        <ele>1127</ele>
        <time>2017-05-24T12:00:05Z</time>
      </trkpt>
      <trkpt lat="45.04684" lon="5.39106">
        <ele>1127.9</ele>
        <time>2017-05-24T12:00:09Z</time>
      </trkpt>
      <trkpt lat="45.04696" lon="5.39122">
        <ele>1126.8</ele>
        <time>2017-05-24T12:00:41Z</time>
      </trkpt>
      <trkpt lat="45.04696" lon="5.39126">
        <ele>1125.6</ele>
        <time>2017-05-24T12:00:57Z</time>
      </trkpt>
      <trkpt lat="45.04699" lon="5.39128">
        <ele>1123.6</ele>
        <time>2017-05-24T12:00:59Z</time>
      </trkpt>
      <trkpt lat="45.04696" lon="5.39128">
        <ele>1128.5</ele>
        <time>2017-05-24T12:01:11Z</time>
      </trkpt>
      <trkpt lat="45.04697" lon="5.39134">
        <ele>1133.8</ele>
        <time>2017-05-24T12:01:15Z</time>
      </trkpt>
      <trkpt lat="45.04694" lon="5.39141">
        <ele>1140</ele>
        <time>2017-05-24T12:01:23Z</time>
      </trkpt>
      <trkpt lat="45.04694" lon="5.39132">
        <ele>1135.6</ele>
        <time>2017-05-24T12:01:43Z</time>
      </trkpt>
      <trkpt lat="45.04693" lon="5.3913">
        <ele>1135.3</ele>
        <time>2017-05-24T12:01:47Z</time>
      </trkpt>
      <trkpt lat="45.04681" lon="5.3913">
        <ele>1134.3</ele>
        <time>2017-05-24T12:01:59Z</time>
      </trkpt>
      <trkpt lat="45.04668" lon="5.39122">
        <ele>1138</ele>
        <time>2017-05-24T12:02:15Z</time>
      </trkpt>
      <trkpt lat="45.04653" lon="5.39119">
        <ele>1140.9</ele>
        <time>2017-05-24T12:02:31Z</time>
      </trkpt>
      <trkpt lat="45.04639" lon="5.39122">
        <ele>1143.7</ele>
        <time>2017-05-24T12:02:47Z</time>
      </trkpt>
      <trkpt lat="45.04634" lon="5.39117">
        <ele>1143.9</ele>
        <time>2017-05-24T12:03:09Z</time>
      </trkpt>
      <trkpt lat="45.04621" lon="5.39141">
        <ele>1148.8</ele>
        <time>2017-05-24T12:03:33Z</time>
      </trkpt>
      <trkpt lat="45.04616" lon="5.39147">
        <ele>1151.4</ele>
        <time>2017-05-24T12:03:41Z</time>
      </trkpt>
      <trkpt lat="45.04604" lon="5.39152">
        <ele>1155.4</ele>
        <time>2017-05-24T12:04:13Z</time>
      </trkpt>
      <trkpt lat="45.04602" lon="5.39141">
        <ele>1157</ele>
        <time>2017-05-24T12:04:18Z</time>
      </trkpt>
      <trkpt lat="45.04598" lon="5.39138">
        <ele>1157.8</ele>
        <time>2017-05-24T12:04:20Z</time>
      </trkpt>
      <trkpt lat="45.04597" lon="5.3914">
        <ele>1156.8</ele>
        <time>2017-05-24T12:04:22Z</time>
      </trkpt>
      <trkpt lat="45.04597" lon="5.39191">
        <ele>1163.6</ele>
        <time>2017-05-24T12:04:54Z</time>
      </trkpt>
      <trkpt lat="45.0459" lon="5.39219">
        <ele>1171.5</ele>
        <time>2017-05-24T12:05:26Z</time>
      </trkpt>
      <trkpt lat="45.04589" lon="5.39216">
        <ele>1173.3</ele>
        <time>2017-05-24T12:05:34Z</time>
      </trkpt>
      <trkpt lat="45.04592" lon="5.3922">
        <ele>1170.5</ele>
        <time>2017-05-24T12:05:42Z</time>
      </trkpt>
      <trkpt lat="45.04592" lon="5.39227">
        <ele>1169.2</ele>
        <time>2017-05-24T12:05:50Z</time>
      </trkpt>
      <trkpt lat="45.04591" lon="5.3923">
        <ele>1169.3</ele>
        <time>2017-05-24T12:05:58Z</time>
      </trkpt>
      <trkpt lat="45.0459" lon="5.3924">
        <ele>1169.2</ele>
        <time>2017-05-24T12:06:07Z</time>
      </trkpt>
      <trkpt lat="45.04592" lon="5.39242">
        <ele>1168.3</ele>
        <time>2017-05-24T12:06:15Z</time>
      </trkpt>
      <trkpt lat="45.04594" lon="5.39241">
        <ele>1169.3</ele>
        <time>2017-05-24T12:06:19Z</time>
      </trkpt>
      <trkpt lat="45.04591" lon="5.39242">
        <ele>1167</ele>
        <time>2017-05-24T12:06:27Z</time>
      </trkpt>
      <trkpt lat="45.046" lon="5.3925">
        <ele>1165.9</ele>
        <time>2017-05-24T12:08:03Z</time>
      </trkpt>
      <trkpt lat="45.04597" lon="5.39252">
        <ele>1161.5</ele>
        <time>2017-05-24T12:08:19Z</time>
      </trkpt>
      <trkpt lat="45.0459" lon="5.3925">
        <ele>1159.6</ele>
        <time>2017-05-24T12:08:35Z</time>
      </trkpt>
      <trkpt lat="45.04581" lon="5.39253">
        <ele>1157.7</ele>
        <time>2017-05-24T12:08:49Z</time>
      </trkpt>
      <trkpt lat="45.04565" lon="5.39236">
        <ele>1153.9</ele>
        <time>2017-05-24T12:09:21Z</time>
      </trkpt>
      <trkpt lat="45.04553" lon="5.39216">
        <ele>1153.9</ele>
        <time>2017-05-24T12:09:37Z</time>
      </trkpt>
      <trkpt lat="45.04535" lon="5.39203">
        <ele>1154.7</ele>
        <time>2017-05-24T12:09:53Z</time>
      </trkpt>
      <trkpt lat="45.04527" lon="5.39194">
        <ele>1154.6</ele>
        <time>2017-05-24T12:10:01Z</time>
      </trkpt>
      <trkpt lat="45.04508" lon="5.39184">
        <ele>1159.1</ele>
        <time>2017-05-24T12:10:17Z</time>
      </trkpt>
      <trkpt lat="45.04495" lon="5.39174">
        <ele>1162.5</ele>
        <time>2017-05-24T12:10:33Z</time>
      </trkpt>
      <trkpt lat="45.04487" lon="5.39172">
        <ele>1158.5</ele>
        <time>2017-05-24T12:10:41Z</time>
      </trkpt>
      <trkpt lat="45.04478" lon="5.39172">
        <ele>1153.7</ele>
        <time>2017-05-24T12:10:49Z</time>
      </trkpt>
      <trkpt lat="45.04472" lon="5.39179">
        <ele>1154</ele>
        <time>2017-05-24T12:10:57Z</time>
      </trkpt>
      <trkpt lat="45.04469" lon="5.39187">
        <ele>1155.5</ele>
        <time>2017-05-24T12:11:05Z</time>
      </trkpt>
      <trkpt lat="45.04469" lon="5.39201">
        <ele>1157.9</ele>
        <time>2017-05-24T12:11:13Z</time>
      </trkpt>
      <trkpt lat="45.04466" lon="5.39226">
        <ele>1161.4</ele>
        <time>2017-05-24T12:11:29Z</time>
      </trkpt>
      <trkpt lat="45.04461" lon="5.39246">
        <ele>1160.4</ele>
        <time>2017-05-24T12:11:41Z</time>
      </trkpt>
      <trkpt lat="45.04462" lon="5.39267">
        <ele>1166.6</ele>
        <time>2017-05-24T12:11:57Z</time>
      </trkpt>
      <trkpt lat="45.04461" lon="5.39279">
        <ele>1169.6</ele>
        <time>2017-05-24T12:12:09Z</time>
      </trkpt>
      <trkpt lat="45.04466" lon="5.39289">
        <ele>1170.7</ele>
        <time>2017-05-24T12:12:41Z</time>
      </trkpt>
      <trkpt lat="45.04467" lon="5.39298">
        <ele>1165</ele>
        <time>2017-05-24T12:13:03Z</time>
      </trkpt>
      <trkpt lat="45.04466" lon="5.39297">
        <ele>1160.1</ele>
        <time>2017-05-24T12:13:16Z</time>
      </trkpt>
      <trkpt lat="45.04465" lon="5.39288">
        <ele>1157.8</ele>
        <time>2017-05-24T12:13:32Z</time>
      </trkpt>
      <trkpt lat="45.04467" lon="5.39287">
        <ele>1162.2</ele>
        <time>2017-05-24T12:13:48Z</time>
      </trkpt>
      <trkpt lat="45.0447" lon="5.39277">
        <ele>1171.4</ele>
        <time>2017-05-24T12:14:12Z</time>
      </trkpt>
      <trkpt lat="45.04467" lon="5.39281">
        <ele>1171.6</ele>
        <time>2017-05-24T12:14:36Z</time>
      </trkpt>
      <trkpt lat="45.04461" lon="5.39282">
        <ele>1159.4</ele>
        <time>2017-05-24T12:14:48Z</time>
      </trkpt>
      <trkpt lat="45.0446" lon="5.39284">
        <ele>1158.2</ele>
        <time>2017-05-24T12:14:52Z</time>
      </trkpt>
      <trkpt lat="45.04462" lon="5.39285">
        <ele>1161.6</ele>
        <time>2017-05-24T12:15:00Z</time>
      </trkpt>
      <trkpt lat="45.04461" lon="5.3929">
        <ele>1159.5</ele>
        <time>2017-05-24T12:15:08Z</time>
      </trkpt>
      <trkpt lat="45.04456" lon="5.39291">
        <ele>1157.5</ele>
        <time>2017-05-24T12:15:24Z</time>
      </trkpt>
      <trkpt lat="45.04455" lon="5.39296">
        <ele>1161.8</ele>
        <time>2017-05-24T12:15:32Z</time>
      </trkpt>
      <trkpt lat="45.04459" lon="5.39293">
        <ele>1159.6</ele>
        <time>2017-05-24T12:16:04Z</time>
      </trkpt>
      <trkpt lat="45.04458" lon="5.39288">
        <ele>1157.8</ele>
        <time>2017-05-24T12:16:36Z</time>
      </trkpt>
      <trkpt lat="45.04462" lon="5.393">
        <ele>1160.4</ele>
        <time>2017-05-24T12:17:08Z</time>
      </trkpt>
      <trkpt lat="45.04461" lon="5.39302">
        <ele>1167.8</ele>
        <time>2017-05-24T12:18:12Z</time>
      </trkpt>
      <trkpt lat="45.0446" lon="5.39293">
        <ele>1179.4</ele>
        <time>2017-05-24T12:18:28Z</time>
      </trkpt>
      <trkpt lat="45.04458" lon="5.39297">
        <ele>1169.8</ele>
        <time>2017-05-24T12:19:00Z</time>
      </trkpt>
      <trkpt lat="45.04459" lon="5.39285">
        <ele>1176.2</ele>
        <time>2017-05-24T12:19:16Z</time>
      </trkpt>
      <trkpt lat="45.0446" lon="5.39287">
        <ele>1170.9</ele>
        <time>2017-05-24T12:19:32Z</time>
      </trkpt>
      <trkpt lat="45.04457" lon="5.39289">
        <ele>1168.1</ele>
        <time>2017-05-24T12:19:40Z</time>
      </trkpt>
      <trkpt lat="45.04455" lon="5.39293">
        <ele>1167</ele>
        <time>2017-05-24T12:19:46Z</time>
      </trkpt>
      <trkpt lat="45.04455" lon="5.393">
        <ele>1166.9</ele>
        <time>2017-05-24T12:19:54Z</time>
      </trkpt>
      <trkpt lat="45.04446" lon="5.39332">
        <ele>1165.4</ele>
        <time>2017-05-24T12:21:14Z</time>
      </trkpt>
      <trkpt lat="45.04441" lon="5.39341">
        <ele>1165.6</ele>
        <time>2017-05-24T12:21:22Z</time>
      </trkpt>
      <trkpt lat="45.04444" lon="5.39342">
        <ele>1164.5</ele>
        <time>2017-05-24T12:22:10Z</time>
      </trkpt>
      <trkpt lat="45.04436" lon="5.39363">
        <ele>1166.6</ele>
        <time>2017-05-24T12:23:06Z</time>
      </trkpt>
      <trkpt lat="45.04433" lon="5.39364">
        <ele>1167.4</ele>
        <time>2017-05-24T12:23:14Z</time>
      </trkpt>
      <trkpt lat="45.04427" lon="5.39358">
        <ele>1170</ele>
        <time>2017-05-24T12:23:30Z</time>
      </trkpt>
      <trkpt lat="45.04424" lon="5.39341">
        <ele>1172.5</ele>
        <time>2017-05-24T12:23:44Z</time>
      </trkpt>
      <trkpt lat="45.04411" lon="5.39322">
        <ele>1181</ele>
        <time>2017-05-24T12:24:00Z</time>
      </trkpt>
      <trkpt lat="45.04386" lon="5.39307">
        <ele>1183.2</ele>
        <time>2017-05-24T12:24:32Z</time>
      </trkpt>
      <trkpt lat="45.0437" lon="5.39306">
        <ele>1184.9</ele>
        <time>2017-05-24T12:24:48Z</time>
      </trkpt>
      <trkpt lat="45.04353" lon="5.39311">
        <ele>1185.2</ele>
        <time>2017-05-24T12:25:04Z</time>
      </trkpt>
      <trkpt lat="45.0435" lon="5.39318">
        <ele>1186.9</ele>
        <time>2017-05-24T12:25:12Z</time>
      </trkpt>
      <trkpt lat="45.04345" lon="5.39325">
        <ele>1188.1</ele>
        <time>2017-05-24T12:25:20Z</time>
      </trkpt>
      <trkpt lat="45.04322" lon="5.39325">
        <ele>1191.5</ele>
        <time>2017-05-24T12:25:44Z</time>
      </trkpt>
      <trkpt lat="45.0432" lon="5.39319">
        <ele>1189.7</ele>
        <time>2017-05-24T12:25:52Z</time>
      </trkpt>
      <trkpt lat="45.04318" lon="5.39318">
        <ele>1188</ele>
        <time>2017-05-24T12:26:00Z</time>
      </trkpt>
      <trkpt lat="45.04316" lon="5.39319">
        <ele>1185.2</ele>
        <time>2017-05-24T12:26:32Z</time>
      </trkpt>
      <trkpt lat="45.0432" lon="5.39311">
        <ele>1181.5</ele>
        <time>2017-05-24T12:27:12Z</time>
      </trkpt>
      <trkpt lat="45.04322" lon="5.39312">
        <ele>1179.5</ele>
        <time>2017-05-24T12:27:16Z</time>
      </trkpt>
      <trkpt lat="45.04321" lon="5.39315">
        <ele>1179.6</ele>
        <time>2017-05-24T12:27:17Z</time>
      </trkpt>
      <trkpt lat="45.04315" lon="5.39305">
        <ele>1185.3</ele>
        <time>2017-05-24T12:27:18Z</time>
      </trkpt>
      <trkpt lat="45.04311" lon="5.39306">
        <ele>1182.4</ele>
        <time>2017-05-24T12:27:19Z</time>
      </trkpt>
      <trkpt lat="45.04312" lon="5.39312">
        <ele>1179.7</ele>
        <time>2017-05-24T12:27:23Z</time>
      </trkpt>
      <trkpt lat="45.04321" lon="5.39323">
        <ele>1186.6</ele>
        <time>2017-05-24T12:28:27Z</time>
      </trkpt>
      <trkpt lat="45.04325" lon="5.39336">
        <ele>1188.9</ele>
        <time>2017-05-24T12:28:51Z</time>
      </trkpt>
      <trkpt lat="45.04346" lon="5.39363">
        <ele>1191.5</ele>
        <time>2017-05-24T12:29:23Z</time>
      </trkpt>
      <trkpt lat="45.04352" lon="5.39373">
        <ele>1195.4</ele>
        <time>2017-05-24T12:29:35Z</time>
      </trkpt>
      <trkpt lat="45.04351" lon="5.39376">
        <ele>1197</ele>
        <time>2017-05-24T12:29:39Z</time>
      </trkpt>
      <trkpt lat="45.0434" lon="5.3937">
        <ele>1199.3</ele>
        <time>2017-05-24T12:29:55Z</time>
      </trkpt>
      <trkpt lat="45.04337" lon="5.39373">
        <ele>1201.2</ele>
        <time>2017-05-24T12:30:03Z</time>
      </trkpt>
      <trkpt lat="45.04337" lon="5.39379">
        <ele>1204.2</ele>
        <time>2017-05-24T12:30:12Z</time>
      </trkpt>
      <trkpt lat="45.04341" lon="5.39388">
        <ele>1203.5</ele>
        <time>2017-05-24T12:30:22Z</time>
      </trkpt>
      <trkpt lat="45.04338" lon="5.39392">
        <ele>1203.9</ele>
        <time>2017-05-24T12:30:24Z</time>
      </trkpt>
      <trkpt lat="45.04349" lon="5.39426">
        <ele>1206.9</ele>
        <time>2017-05-24T12:30:52Z</time>
      </trkpt>
      <trkpt lat="45.04348" lon="5.3943">
        <ele>1208.3</ele>
        <time>2017-05-24T12:30:56Z</time>
      </trkpt>
      <trkpt lat="45.04355" lon="5.39451">
        <ele>1208.3</ele>
        <time>2017-05-24T12:31:12Z</time>
      </trkpt>
      <trkpt lat="45.04357" lon="5.39478">
        <ele>1214.5</ele>
        <time>2017-05-24T12:31:44Z</time>
      </trkpt>
      <trkpt lat="45.04365" lon="5.39473">
        <ele>1216.1</ele>
        <time>2017-05-24T12:32:31Z</time>
      </trkpt>
      <trkpt lat="45.04369" lon="5.39473">
        <ele>1218.7</ele>
        <time>2017-05-24T12:32:47Z</time>
      </trkpt>
      <trkpt lat="45.04367" lon="5.39468">
        <ele>1221.1</ele>
        <time>2017-05-24T12:33:03Z</time>
      </trkpt>
      <trkpt lat="45.04358" lon="5.3948">
        <ele>1210.5</ele>
        <time>2017-05-24T12:33:35Z</time>
      </trkpt>
      <trkpt lat="45.0436" lon="5.39487">
        <ele>1216.6</ele>
        <time>2017-05-24T12:33:43Z</time>
      </trkpt>
      <trkpt lat="45.04356" lon="5.39504">
        <ele>1224.9</ele>
        <time>2017-05-24T12:33:59Z</time>
      </trkpt>
      <trkpt lat="45.04352" lon="5.39509">
        <ele>1223.9</ele>
        <time>2017-05-24T12:34:07Z</time>
      </trkpt>
      <trkpt lat="45.0435" lon="5.3952">
        <ele>1225.5</ele>
        <time>2017-05-24T12:34:15Z</time>
      </trkpt>
      <trkpt lat="45.04343" lon="5.3953">
        <ele>1230</ele>
        <time>2017-05-24T12:34:25Z</time>
      </trkpt>
      <trkpt lat="45.04334" lon="5.39538">
        <ele>1230.4</ele>
        <time>2017-05-24T12:34:33Z</time>
      </trkpt>
      <trkpt lat="45.04329" lon="5.39548">
        <ele>1230</ele>
        <time>2017-05-24T12:34:41Z</time>
      </trkpt>
      <trkpt lat="45.04327" lon="5.39555">
        <ele>1228.5</ele>
        <time>2017-05-24T12:34:45Z</time>
      </trkpt>
      <trkpt lat="45.04315" lon="5.39579">
        <ele>1222.3</ele>
        <time>2017-05-24T12:35:01Z</time>
      </trkpt>
      <trkpt lat="45.04301" lon="5.39624">
        <ele>1224.1</ele>
        <time>2017-05-24T12:35:29Z</time>
      </trkpt>
      <trkpt lat="45.04292" lon="5.39633">
        <ele>1225.2</ele>
        <time>2017-05-24T12:35:37Z</time>
      </trkpt>
      <trkpt lat="45.0428" lon="5.39656">
        <ele>1228.9</ele>
        <time>2017-05-24T12:35:57Z</time>
      </trkpt>
      <trkpt lat="45.04278" lon="5.3967">
        <ele>1226.4</ele>
        <time>2017-05-24T12:36:05Z</time>
      </trkpt>
      <trkpt lat="45.04272" lon="5.39684">
        <ele>1225</ele>
        <time>2017-05-24T12:36:15Z</time>
      </trkpt>
      <trkpt lat="45.04273" lon="5.39685">
        <ele>1225.6</ele>
        <time>2017-05-24T12:36:16Z</time>
      </trkpt>
      <trkpt lat="45.04266" lon="5.39688">
        <ele>1224.3</ele>
        <time>2017-05-24T12:36:20Z</time>
      </trkpt>
      <trkpt lat="45.04266" lon="5.39692">
        <ele>1224.5</ele>
        <time>2017-05-24T12:36:24Z</time>
      </trkpt>
      <trkpt lat="45.04277" lon="5.39707">
        <ele>1225.8</ele>
        <time>2017-05-24T12:36:32Z</time>
      </trkpt>
      <trkpt lat="45.0428" lon="5.39718">
        <ele>1223.8</ele>
        <time>2017-05-24T12:36:48Z</time>
      </trkpt>
      <trkpt lat="45.04276" lon="5.39718">
        <ele>1223.5</ele>
        <time>2017-05-24T12:37:00Z</time>
      </trkpt>
      <trkpt lat="45.04277" lon="5.3971">
        <ele>1228.8</ele>
        <time>2017-05-24T12:37:16Z</time>
      </trkpt>
      <trkpt lat="45.04274" lon="5.39708">
        <ele>1227.7</ele>
        <time>2017-05-24T12:37:32Z</time>
      </trkpt>
      <trkpt lat="45.04274" lon="5.39711">
        <ele>1215.3</ele>
        <time>2017-05-24T12:38:04Z</time>
      </trkpt>
      <trkpt lat="45.04281" lon="5.39708">
        <ele>1213.8</ele>
        <time>2017-05-24T12:38:12Z</time>
      </trkpt>
      <trkpt lat="45.04277" lon="5.39715">
        <ele>1213.5</ele>
        <time>2017-05-24T12:38:20Z</time>
      </trkpt>
      <trkpt lat="45.04277" lon="5.39729">
        <ele>1230.1</ele>
        <time>2017-05-24T12:38:36Z</time>
      </trkpt>
      <trkpt lat="45.04279" lon="5.39734">
        <ele>1232.1</ele>
        <time>2017-05-24T12:38:40Z</time>
      </trkpt>
      <trkpt lat="45.04286" lon="5.39747">
        <ele>1228.6</ele>
        <time>2017-05-24T12:38:48Z</time>
      </trkpt>
      <trkpt lat="45.04287" lon="5.39752">
        <ele>1226.9</ele>
        <time>2017-05-24T12:38:50Z</time>
      </trkpt>
      <trkpt lat="45.04297" lon="5.39764">
        <ele>1230.3</ele>
        <time>2017-05-24T12:39:00Z</time>
      </trkpt>
      <trkpt lat="45.04314" lon="5.39799">
        <ele>1241.2</ele>
        <time>2017-05-24T12:39:32Z</time>
      </trkpt>
      <trkpt lat="45.04325" lon="5.39817">
        <ele>1245.1</ele>
        <time>2017-05-24T12:39:48Z</time>
      </trkpt>
      <trkpt lat="45.0433" lon="5.39836">
        <ele>1245.6</ele>
        <time>2017-05-24T12:40:04Z</time>
      </trkpt>
      <trkpt lat="45.0436" lon="5.39883">
        <ele>1242.1</ele>
        <time>2017-05-24T12:40:38Z</time>
      </trkpt>
      <trkpt lat="45.04358" lon="5.39886">
        <ele>1242.8</ele>
        <time>2017-05-24T12:40:41Z</time>
      </trkpt>
      <trkpt lat="45.04363" lon="5.39889">
        <ele>1243.1</ele>
        <time>2017-05-24T12:40:45Z</time>
      </trkpt>
      <trkpt lat="45.04363" lon="5.39896">
        <ele>1240.5</ele>
        <time>2017-05-24T12:40:53Z</time>
      </trkpt>
      <trkpt lat="45.0436" lon="5.39903">
        <ele>1238.1</ele>
        <time>2017-05-24T12:41:01Z</time>
      </trkpt>
      <trkpt lat="45.04353" lon="5.3991">
        <ele>1237.3</ele>
        <time>2017-05-24T12:41:09Z</time>
      </trkpt>
      <trkpt lat="45.04338" lon="5.39913">
        <ele>1240.6</ele>
        <time>2017-05-24T12:41:23Z</time>
      </trkpt>
      <trkpt lat="45.04332" lon="5.3992">
        <ele>1251.5</ele>
        <time>2017-05-24T12:41:35Z</time>
      </trkpt>
      <trkpt lat="45.04329" lon="5.3993">
        <ele>1253</ele>
        <time>2017-05-24T12:41:43Z</time>
      </trkpt>
      <trkpt lat="45.04333" lon="5.39932">
        <ele>1252.9</ele>
        <time>2017-05-24T12:41:44Z</time>
      </trkpt>
      <trkpt lat="45.04332" lon="5.39936">
        <ele>1252.5</ele>
        <time>2017-05-24T12:41:46Z</time>
      </trkpt>
      <trkpt lat="45.04338" lon="5.39951">
        <ele>1253.9</ele>
        <time>2017-05-24T12:42:02Z</time>
      </trkpt>
      <trkpt lat="45.04343" lon="5.3995">
        <ele>1255</ele>
        <time>2017-05-24T12:43:06Z</time>
      </trkpt>
      <trkpt lat="45.04346" lon="5.39953">
        <ele>1242.3</ele>
        <time>2017-05-24T12:44:10Z</time>
      </trkpt>
      <trkpt lat="45.04345" lon="5.39958">
        <ele>1247</ele>
        <time>2017-05-24T12:45:23Z</time>
      </trkpt>
      <trkpt lat="45.04346" lon="5.39959">
        <ele>1250.2</ele>
        <time>2017-05-24T12:45:27Z</time>
      </trkpt>
      <trkpt lat="45.04345" lon="5.39957">
        <ele>1250</ele>
        <time>2017-05-24T12:45:35Z</time>
      </trkpt>
      <trkpt lat="45.04359" lon="5.39962">
        <ele>1245</ele>
        <time>2017-05-24T12:45:51Z</time>
      </trkpt>
      <trkpt lat="45.0436" lon="5.39966">
        <ele>1244</ele>
        <time>2017-05-24T12:46:07Z</time>
      </trkpt>
      <trkpt lat="45.04363" lon="5.39967">
        <ele>1247.1</ele>
        <time>2017-05-24T12:46:19Z</time>
      </trkpt>
      <trkpt lat="45.04363" lon="5.39971">
        <ele>1247.6</ele>
        <time>2017-05-24T12:46:35Z</time>
      </trkpt>
      <trkpt lat="45.04367" lon="5.39975">
        <ele>1256</ele>
        <time>2017-05-24T12:47:39Z</time>
      </trkpt>
      <trkpt lat="45.04356" lon="5.3996">
        <ele>1234.2</ele>
        <time>2017-05-24T12:48:39Z</time>
      </trkpt>
      <trkpt lat="45.0436" lon="5.39961">
        <ele>1237.8</ele>
        <time>2017-05-24T12:48:43Z</time>
      </trkpt>
      <trkpt lat="45.0436" lon="5.3996">
        <ele>1237.4</ele>
        <time>2017-05-24T12:48:47Z</time>
      </trkpt>
      <trkpt lat="45.04361" lon="5.39968">
        <ele>1237.7</ele>
        <time>2017-05-24T12:48:55Z</time>
      </trkpt>
      <trkpt lat="45.04366" lon="5.39974">
        <ele>1251.5</ele>
        <time>2017-05-24T12:49:07Z</time>
      </trkpt>
      <trkpt lat="45.04369" lon="5.39964">
        <ele>1251.7</ele>
        <time>2017-05-24T12:49:15Z</time>
      </trkpt>
      <trkpt lat="45.04376" lon="5.39957">
        <ele>1253.5</ele>
        <time>2017-05-24T12:49:36Z</time>
      </trkpt>
      <trkpt lat="45.04371" lon="5.39953">
        <ele>1251.8</ele>
        <time>2017-05-24T12:49:56Z</time>
      </trkpt>
      <trkpt lat="45.04374" lon="5.39951">
        <ele>1254.3</ele>
        <time>2017-05-24T12:51:00Z</time>
      </trkpt>
      <trkpt lat="45.04291" lon="5.39942">
        <ele>1243.2</ele>
        <time>2017-05-24T14:17:47Z</time>
      </trkpt>
      <trkpt lat="45.04318" lon="5.3995">
        <ele>1242.8</ele>
        <time>2017-05-24T14:18:11Z</time>
      </trkpt>
      <trkpt lat="45.0432" lon="5.39947">
        <ele>1242.9</ele>
        <time>2017-05-24T14:18:15Z</time>
      </trkpt>
      <trkpt lat="45.04322" lon="5.3992">
        <ele>1242.5</ele>
        <time>2017-05-24T14:18:35Z</time>
      </trkpt>
      <trkpt lat="45.04329" lon="5.39917">
        <ele>1242.2</ele>
        <time>2017-05-24T14:18:43Z</time>
      </trkpt>
      <trkpt lat="45.04337" lon="5.39918">
        <ele>1241.9</ele>
        <time>2017-05-24T14:18:51Z</time>
      </trkpt>
      <trkpt lat="45.04344" lon="5.39918">
        <ele>1241.6</ele>
        <time>2017-05-24T14:18:59Z</time>
      </trkpt>
      <trkpt lat="45.0435" lon="5.39914">
        <ele>1241.3</ele>
        <time>2017-05-24T14:19:07Z</time>
      </trkpt>
      <trkpt lat="45.04356" lon="5.39916">
        <ele>1240.5</ele>
        <time>2017-05-24T14:19:23Z</time>
      </trkpt>
      <trkpt lat="45.04357" lon="5.39919">
        <ele>1240.1</ele>
        <time>2017-05-24T14:19:39Z</time>
      </trkpt>
      <trkpt lat="45.04354" lon="5.39915">
        <ele>1240.1</ele>
        <time>2017-05-24T14:19:46Z</time>
      </trkpt>
      <trkpt lat="45.04353" lon="5.39903">
        <ele>1239.8</ele>
        <time>2017-05-24T14:19:54Z</time>
      </trkpt>
      <trkpt lat="45.04346" lon="5.39878">
        <ele>1238.9</ele>
        <time>2017-05-24T14:20:10Z</time>
      </trkpt>
      <trkpt lat="45.04332" lon="5.39849">
        <ele>1236.9</ele>
        <time>2017-05-24T14:20:34Z</time>
      </trkpt>
      <trkpt lat="45.04322" lon="5.39823">
        <ele>1235.4</ele>
        <time>2017-05-24T14:20:50Z</time>
      </trkpt>
      <trkpt lat="45.04308" lon="5.39803">
        <ele>1234</ele>
        <time>2017-05-24T14:21:06Z</time>
      </trkpt>
      <trkpt lat="45.04303" lon="5.39791">
        <ele>1233.3</ele>
        <time>2017-05-24T14:21:14Z</time>
      </trkpt>
      <trkpt lat="45.04288" lon="5.39767">
        <ele>1231.9</ele>
        <time>2017-05-24T14:21:30Z</time>
      </trkpt>
      <trkpt lat="45.04274" lon="5.39725">
        <ele>1229.4</ele>
        <time>2017-05-24T14:21:54Z</time>
      </trkpt>
      <trkpt lat="45.04276" lon="5.39687">
        <ele>1226.3</ele>
        <time>2017-05-24T14:22:18Z</time>
      </trkpt>
      <trkpt lat="45.04283" lon="5.3967">
        <ele>1224.5</ele>
        <time>2017-05-24T14:22:33Z</time>
      </trkpt>
      <trkpt lat="45.04282" lon="5.39666">
        <ele>1220.7</ele>
        <time>2017-05-24T14:22:49Z</time>
      </trkpt>
      <trkpt lat="45.04287" lon="5.39659">
        <ele>1217.2</ele>
        <time>2017-05-24T14:23:21Z</time>
      </trkpt>
      <trkpt lat="45.04282" lon="5.39657">
        <ele>1216</ele>
        <time>2017-05-24T14:23:37Z</time>
      </trkpt>
      <trkpt lat="45.04278" lon="5.39659">
        <ele>1214.1</ele>
        <time>2017-05-24T14:23:44Z</time>
      </trkpt>
      <trkpt lat="45.04275" lon="5.39666">
        <ele>1212.4</ele>
        <time>2017-05-24T14:23:52Z</time>
      </trkpt>
      <trkpt lat="45.04276" lon="5.39663">
        <ele>1211.1</ele>
        <time>2017-05-24T14:24:16Z</time>
      </trkpt>
      <trkpt lat="45.04283" lon="5.39659">
        <ele>1215</ele>
        <time>2017-05-24T14:24:48Z</time>
      </trkpt>
      <trkpt lat="45.04302" lon="5.39662">
        <ele>1212.3</ele>
        <time>2017-05-24T14:25:20Z</time>
      </trkpt>
      <trkpt lat="45.04308" lon="5.39666">
        <ele>1207.1</ele>
        <time>2017-05-24T14:25:28Z</time>
      </trkpt>
      <trkpt lat="45.04324" lon="5.39682">
        <ele>1205.6</ele>
        <time>2017-05-24T14:25:48Z</time>
      </trkpt>
      <trkpt lat="45.04329" lon="5.39683">
        <ele>1204.6</ele>
        <time>2017-05-24T14:25:52Z</time>
      </trkpt>
      <trkpt lat="45.04348" lon="5.39656">
        <ele>1203.8</ele>
        <time>2017-05-24T14:26:48Z</time>
      </trkpt>
      <trkpt lat="45.04353" lon="5.39645">
        <ele>1203.2</ele>
        <time>2017-05-24T14:27:01Z</time>
      </trkpt>
      <trkpt lat="45.04364" lon="5.39644">
        <ele>1204.6</ele>
        <time>2017-05-24T14:27:09Z</time>
      </trkpt>
      <trkpt lat="45.04385" lon="5.39627">
        <ele>1205.5</ele>
        <time>2017-05-24T14:27:33Z</time>
      </trkpt>
      <trkpt lat="45.04401" lon="5.39626">
        <ele>1201.1</ele>
        <time>2017-05-24T14:27:57Z</time>
      </trkpt>
      <trkpt lat="45.04404" lon="5.3963">
        <ele>1197.4</ele>
        <time>2017-05-24T14:28:05Z</time>
      </trkpt>
      <trkpt lat="45.04411" lon="5.39631">
        <ele>1194.6</ele>
        <time>2017-05-24T14:28:13Z</time>
      </trkpt>
      <trkpt lat="45.04417" lon="5.39628">
        <ele>1189.3</ele>
        <time>2017-05-24T14:28:21Z</time>
      </trkpt>
      <trkpt lat="45.04428" lon="5.39617">
        <ele>1183.2</ele>
        <time>2017-05-24T14:28:37Z</time>
      </trkpt>
      <trkpt lat="45.0444" lon="5.39597">
        <ele>1173.7</ele>
        <time>2017-05-24T14:29:01Z</time>
      </trkpt>
      <trkpt lat="45.04442" lon="5.39581">
        <ele>1164.9</ele>
        <time>2017-05-24T14:29:17Z</time>
      </trkpt>
      <trkpt lat="45.04447" lon="5.39571">
        <ele>1163</ele>
        <time>2017-05-24T14:29:25Z</time>
      </trkpt>
      <trkpt lat="45.0445" lon="5.39569">
        <ele>1162.8</ele>
        <time>2017-05-24T14:29:33Z</time>
      </trkpt>
      <trkpt lat="45.04454" lon="5.39561">
        <ele>1158.9</ele>
        <time>2017-05-24T14:29:41Z</time>
      </trkpt>
      <trkpt lat="45.0447" lon="5.3955">
        <ele>1160.8</ele>
        <time>2017-05-24T14:29:57Z</time>
      </trkpt>
      <trkpt lat="45.04479" lon="5.39536">
        <ele>1156.4</ele>
        <time>2017-05-24T14:30:13Z</time>
      </trkpt>
      <trkpt lat="45.04492" lon="5.39532">
        <ele>1149.2</ele>
        <time>2017-05-24T14:30:41Z</time>
      </trkpt>
      <trkpt lat="45.04496" lon="5.39528">
        <ele>1149.3</ele>
        <time>2017-05-24T14:30:48Z</time>
      </trkpt>
      <trkpt lat="45.04499" lon="5.39522">
        <ele>1156.8</ele>
        <time>2017-05-24T14:30:52Z</time>
      </trkpt>
      <trkpt lat="45.0451" lon="5.39622">
        <ele>1161.1</ele>
        <time>2017-05-24T14:33:34Z</time>
      </trkpt>
      <trkpt lat="45.0452" lon="5.39615">
        <ele>1156</ele>
        <time>2017-05-24T14:34:38Z</time>
      </trkpt>
      <trkpt lat="45.04525" lon="5.39603">
        <ele>1148.4</ele>
        <time>2017-05-24T14:34:54Z</time>
      </trkpt>
      <trkpt lat="45.04518" lon="5.39597">
        <ele>1146.6</ele>
        <time>2017-05-24T14:35:34Z</time>
      </trkpt>
      <trkpt lat="45.04513" lon="5.39616">
        <ele>1147.5</ele>
        <time>2017-05-24T14:37:39Z</time>
      </trkpt>
      <trkpt lat="45.04509" lon="5.39618">
        <ele>1148.9</ele>
        <time>2017-05-24T14:37:54Z</time>
      </trkpt>
      <trkpt lat="45.04508" lon="5.39615">
        <ele>1149.4</ele>
        <time>2017-05-24T14:38:10Z</time>
      </trkpt>
      <trkpt lat="45.04504" lon="5.39623">
        <ele>1149.5</ele>
        <time>2017-05-24T14:38:42Z</time>
      </trkpt>
      <trkpt lat="45.04495" lon="5.3963">
        <ele>1149.5</ele>
        <time>2017-05-24T14:38:58Z</time>
      </trkpt>
      <trkpt lat="45.04499" lon="5.39645">
        <ele>1149.5</ele>
        <time>2017-05-24T14:39:18Z</time>
      </trkpt>
      <trkpt lat="45.04498" lon="5.39645">
        <ele>1149.5</ele>
        <time>2017-05-24T14:39:22Z</time>
      </trkpt>
      <trkpt lat="45.04502" lon="5.39636">
        <ele>1143.5</ele>
        <time>2017-05-24T14:39:44Z</time>
      </trkpt>
      <trkpt lat="45.04496" lon="5.3963">
        <ele>1127.2</ele>
        <time>2017-05-24T14:40:00Z</time>
      </trkpt>
      <trkpt lat="45.04497" lon="5.39634">
        <ele>1135.5</ele>
        <time>2017-05-24T14:40:04Z</time>
      </trkpt>
      <trkpt lat="45.04496" lon="5.39634">
        <ele>1133.6</ele>
        <time>2017-05-24T14:40:08Z</time>
      </trkpt>
      <trkpt lat="45.04496" lon="5.39652">
        <ele>1140.8</ele>
        <time>2017-05-24T14:40:19Z</time>
      </trkpt>
      <trkpt lat="45.04492" lon="5.3966">
        <ele>1138.5</ele>
        <time>2017-05-24T14:40:35Z</time>
      </trkpt>
      <trkpt lat="45.04493" lon="5.39662">
        <ele>1138.5</ele>
        <time>2017-05-24T14:41:07Z</time>
      </trkpt>
      <trkpt lat="45.04499" lon="5.39665">
        <ele>1136.2</ele>
        <time>2017-05-24T14:41:21Z</time>
      </trkpt>
      <trkpt lat="45.04493" lon="5.39675">
        <ele>1136.2</ele>
        <time>2017-05-24T14:41:37Z</time>
      </trkpt>
      <trkpt lat="45.04493" lon="5.39682">
        <ele>1136.1</ele>
        <time>2017-05-24T14:41:53Z</time>
      </trkpt>
      <trkpt lat="45.0449" lon="5.39679">
        <ele>1136</ele>
        <time>2017-05-24T14:42:01Z</time>
      </trkpt>
      <trkpt lat="45.04491" lon="5.39676">
        <ele>1130.7</ele>
        <time>2017-05-24T14:42:09Z</time>
      </trkpt>
      <trkpt lat="45.04491" lon="5.39678">
        <ele>1132.8</ele>
        <time>2017-05-24T14:42:41Z</time>
      </trkpt>
      <trkpt lat="45.04483" lon="5.39683">
        <ele>1133.2</ele>
        <time>2017-05-24T14:42:47Z</time>
      </trkpt>
      <trkpt lat="45.04471" lon="5.39683">
        <ele>1133.5</ele>
        <time>2017-05-24T14:43:11Z</time>
      </trkpt>
      <trkpt lat="45.04465" lon="5.39675">
        <ele>1121.3</ele>
        <time>2017-05-24T14:43:31Z</time>
      </trkpt>
      <trkpt lat="45.04465" lon="5.39669">
        <ele>1112.9</ele>
        <time>2017-05-24T14:43:33Z</time>
      </trkpt>
      <trkpt lat="45.04466" lon="5.39675">
        <ele>1115.5</ele>
        <time>2017-05-24T14:43:49Z</time>
      </trkpt>
      <trkpt lat="45.04462" lon="5.39685">
        <ele>1112.2</ele>
        <time>2017-05-24T14:44:21Z</time>
      </trkpt>
      <trkpt lat="45.04459" lon="5.39698">
        <ele>1104.4</ele>
        <time>2017-05-24T14:44:53Z</time>
      </trkpt>
      <trkpt lat="45.04455" lon="5.39709">
        <ele>1103.6</ele>
        <time>2017-05-24T14:45:17Z</time>
      </trkpt>
      <trkpt lat="45.0445" lon="5.39705">
        <ele>1101</ele>
        <time>2017-05-24T14:45:33Z</time>
      </trkpt>
      <trkpt lat="45.04451" lon="5.39703">
        <ele>1090.2</ele>
        <time>2017-05-24T14:45:41Z</time>
      </trkpt>
      <trkpt lat="45.04457" lon="5.39708">
        <ele>1100.9</ele>
        <time>2017-05-24T14:45:43Z</time>
      </trkpt>
      <trkpt lat="45.04458" lon="5.39718">
        <ele>1098.1</ele>
        <time>2017-05-24T14:45:47Z</time>
      </trkpt>
      <trkpt lat="45.04456" lon="5.39715">
        <ele>1096.6</ele>
        <time>2017-05-24T14:45:49Z</time>
      </trkpt>
      <trkpt lat="45.04466" lon="5.397">
        <ele>1096.8</ele>
        <time>2017-05-24T14:45:55Z</time>
      </trkpt>
      <trkpt lat="45.04465" lon="5.39684">
        <ele>1092.4</ele>
        <time>2017-05-24T14:45:56Z</time>
      </trkpt>
      <trkpt lat="45.04467" lon="5.39677">
        <ele>1084.6</ele>
        <time>2017-05-24T14:46:00Z</time>
      </trkpt>
      <trkpt lat="45.04458" lon="5.39676">
        <ele>1077.1</ele>
        <time>2017-05-24T14:46:03Z</time>
      </trkpt>
      <trkpt lat="45.04451" lon="5.39673">
        <ele>1075.3</ele>
        <time>2017-05-24T14:46:05Z</time>
      </trkpt>
      <trkpt lat="45.04435" lon="5.39676">
        <ele>1075.1</ele>
        <time>2017-05-24T14:46:11Z</time>
      </trkpt>
      <trkpt lat="45.04425" lon="5.39674">
        <ele>1073.6</ele>
        <time>2017-05-24T14:46:13Z</time>
      </trkpt>
      <trkpt lat="45.04419" lon="5.39677">
        <ele>1073.8</ele>
        <time>2017-05-24T14:46:15Z</time>
      </trkpt>
      <trkpt lat="45.04416" lon="5.39682">
        <ele>1073.7</ele>
        <time>2017-05-24T14:46:17Z</time>
      </trkpt>
      <trkpt lat="45.04418" lon="5.39683">
        <ele>1073.7</ele>
        <time>2017-05-24T14:46:18Z</time>
      </trkpt>
      <trkpt lat="45.04417" lon="5.39687">
        <ele>1073.1</ele>
        <time>2017-05-24T14:46:20Z</time>
      </trkpt>
      <trkpt lat="45.04414" lon="5.39686">
        <ele>1072.1</ele>
        <time>2017-05-24T14:46:22Z</time>
      </trkpt>
      <trkpt lat="45.04409" lon="5.39696">
        <ele>1070.9</ele>
        <time>2017-05-24T14:46:30Z</time>
      </trkpt>
      <trkpt lat="45.0441" lon="5.39724">
        <ele>1069.3</ele>
        <time>2017-05-24T14:47:18Z</time>
      </trkpt>
      <trkpt lat="45.04408" lon="5.39729">
        <ele>1069.2</ele>
        <time>2017-05-24T14:47:34Z</time>
      </trkpt>
      <trkpt lat="45.04411" lon="5.39747">
        <ele>1069.8</ele>
        <time>2017-05-24T14:47:42Z</time>
      </trkpt>
      <trkpt lat="45.04413" lon="5.39749">
        <ele>1070</ele>
        <time>2017-05-24T14:47:46Z</time>
      </trkpt>
      <trkpt lat="45.04415" lon="5.39755">
        <ele>1070.3</ele>
        <time>2017-05-24T14:47:50Z</time>
      </trkpt>
      <trkpt lat="45.04414" lon="5.39758">
        <ele>1070.3</ele>
        <time>2017-05-24T14:47:54Z</time>
      </trkpt>
      <trkpt lat="45.04418" lon="5.39767">
        <ele>1069.4</ele>
        <time>2017-05-24T14:48:02Z</time>
      </trkpt>
      <trkpt lat="45.04421" lon="5.39782">
        <ele>1066.5</ele>
        <time>2017-05-24T14:48:18Z</time>
      </trkpt>
      <trkpt lat="45.04417" lon="5.39794">
        <ele>1065.2</ele>
        <time>2017-05-24T14:48:26Z</time>
      </trkpt>
      <trkpt lat="45.04418" lon="5.398">
        <ele>1063.6</ele>
        <time>2017-05-24T14:48:41Z</time>
      </trkpt>
      <trkpt lat="45.04415" lon="5.39801">
        <ele>1062.8</ele>
        <time>2017-05-24T14:48:56Z</time>
      </trkpt>
      <trkpt lat="45.04421" lon="5.39814">
        <ele>1064.3</ele>
        <time>2017-05-24T14:49:22Z</time>
      </trkpt>
      <trkpt lat="45.04413" lon="5.39814">
        <ele>1062.3</ele>
        <time>2017-05-24T14:49:31Z</time>
      </trkpt>
      <trkpt lat="45.04413" lon="5.39816">
        <ele>1061.2</ele>
        <time>2017-05-24T14:49:35Z</time>
      </trkpt>
      <trkpt lat="45.04415" lon="5.39816">
        <ele>1060.2</ele>
        <time>2017-05-24T14:49:39Z</time>
      </trkpt>
      <trkpt lat="45.04414" lon="5.39805">
        <ele>1056.9</ele>
        <time>2017-05-24T14:50:47Z</time>
      </trkpt>
      <trkpt lat="45.04407" lon="5.39804">
        <ele>1052</ele>
        <time>2017-05-24T14:51:51Z</time>
      </trkpt>
      <trkpt lat="45.04411" lon="5.39825">
        <ele>1049.6</ele>
        <time>2017-05-24T14:52:07Z</time>
      </trkpt>
      <trkpt lat="45.04409" lon="5.3983">
        <ele>1049.3</ele>
        <time>2017-05-24T14:52:11Z</time>
      </trkpt>
      <trkpt lat="45.04412" lon="5.39838">
        <ele>1048.8</ele>
        <time>2017-05-24T14:52:19Z</time>
      </trkpt>
      <trkpt lat="45.04401" lon="5.39853">
        <ele>1047.5</ele>
        <time>2017-05-24T14:52:51Z</time>
      </trkpt>
      <trkpt lat="45.04402" lon="5.39854">
        <ele>1047.6</ele>
        <time>2017-05-24T14:52:58Z</time>
      </trkpt>
      <trkpt lat="45.04401" lon="5.39854">
        <ele>1047.7</ele>
        <time>2017-05-24T14:53:14Z</time>
      </trkpt>
      <trkpt lat="45.044" lon="5.39866">
        <ele>1047.2</ele>
        <time>2017-05-24T14:53:34Z</time>
      </trkpt>
      <trkpt lat="45.04404" lon="5.3987">
        <ele>1047.2</ele>
        <time>2017-05-24T14:53:37Z</time>
      </trkpt>
      <trkpt lat="45.044" lon="5.39875">
        <ele>1047.1</ele>
        <time>2017-05-24T14:53:45Z</time>
      </trkpt>
      <trkpt lat="45.04401" lon="5.39884">
        <ele>1047.2</ele>
        <time>2017-05-24T14:53:53Z</time>
      </trkpt>
      <trkpt lat="45.04392" lon="5.39884">
        <ele>1047.6</ele>
        <time>2017-05-24T14:54:13Z</time>
      </trkpt>
      <trkpt lat="45.04392" lon="5.39894">
        <ele>1048.2</ele>
        <time>2017-05-24T14:54:21Z</time>
      </trkpt>
      <trkpt lat="45.04403" lon="5.39918">
        <ele>1049.3</ele>
        <time>2017-05-24T14:54:53Z</time>
      </trkpt>
      <trkpt lat="45.04408" lon="5.39935">
        <ele>1048.7</ele>
        <time>2017-05-24T14:55:05Z</time>
      </trkpt>
      <trkpt lat="45.04406" lon="5.3994">
        <ele>1048.1</ele>
        <time>2017-05-24T14:55:13Z</time>
      </trkpt>
      <trkpt lat="45.04407" lon="5.39946">
        <ele>1047.8</ele>
        <time>2017-05-24T14:55:17Z</time>
      </trkpt>
      <trkpt lat="45.04405" lon="5.39948">
        <ele>1047.6</ele>
        <time>2017-05-24T14:55:19Z</time>
      </trkpt>
      <trkpt lat="45.0441" lon="5.39949">
        <ele>1047.2</ele>
        <time>2017-05-24T14:55:23Z</time>
      </trkpt>
      <trkpt lat="45.04414" lon="5.39944">
        <ele>1046.5</ele>
        <time>2017-05-24T14:55:31Z</time>
      </trkpt>
      <trkpt lat="45.04414" lon="5.39943">
        <ele>1045.3</ele>
        <time>2017-05-24T14:55:47Z</time>
      </trkpt>
      <trkpt lat="45.04424" lon="5.39928">
        <ele>1042.6</ele>
        <time>2017-05-24T14:56:11Z</time>
      </trkpt>
      <trkpt lat="45.04427" lon="5.39929">
        <ele>1041.6</ele>
        <time>2017-05-24T14:56:27Z</time>
      </trkpt>
      <trkpt lat="45.04431" lon="5.39938">
        <ele>1041.4</ele>
        <time>2017-05-24T14:56:39Z</time>
      </trkpt>
      <trkpt lat="45.04434" lon="5.39939">
        <ele>1041.2</ele>
        <time>2017-05-24T14:56:43Z</time>
      </trkpt>
      <trkpt lat="45.04434" lon="5.39938">
        <ele>1041.2</ele>
        <time>2017-05-24T14:56:51Z</time>
      </trkpt>
      <trkpt lat="45.04436" lon="5.39937">
        <ele>1041</ele>
        <time>2017-05-24T14:56:55Z</time>
      </trkpt>
      <trkpt lat="45.04437" lon="5.3993">
        <ele>1038</ele>
        <time>2017-05-24T14:57:27Z</time>
      </trkpt>
      <trkpt lat="45.04434" lon="5.39928">
        <ele>1036.9</ele>
        <time>2017-05-24T14:58:04Z</time>
      </trkpt>
      <trkpt lat="45.04433" lon="5.3993">
        <ele>1036.8</ele>
        <time>2017-05-24T14:58:06Z</time>
      </trkpt>
      <trkpt lat="45.04443" lon="5.39927">
        <ele>1036.5</ele>
        <time>2017-05-24T14:58:14Z</time>
      </trkpt>
      <trkpt lat="45.04449" lon="5.39922">
        <ele>1035.1</ele>
        <time>2017-05-24T14:58:26Z</time>
      </trkpt>
      <trkpt lat="45.0445" lon="5.39917">
        <ele>1033.4</ele>
        <time>2017-05-24T14:58:42Z</time>
      </trkpt>
      <trkpt lat="45.04448" lon="5.39912">
        <ele>1031.9</ele>
        <time>2017-05-24T14:58:50Z</time>
      </trkpt>
      <trkpt lat="45.0445" lon="5.39911">
        <ele>1031.2</ele>
        <time>2017-05-24T14:58:58Z</time>
      </trkpt>
      <trkpt lat="45.04452" lon="5.39912">
        <ele>1029.7</ele>
        <time>2017-05-24T14:59:02Z</time>
      </trkpt>
      <trkpt lat="45.04451" lon="5.39914">
        <ele>1029.2</ele>
        <time>2017-05-24T14:59:06Z</time>
      </trkpt>
      <trkpt lat="45.04458" lon="5.39914">
        <ele>1025</ele>
        <time>2017-05-24T14:59:38Z</time>
      </trkpt>
      <trkpt lat="45.04461" lon="5.39925">
        <ele>1023.2</ele>
        <time>2017-05-24T15:00:14Z</time>
      </trkpt>
      <trkpt lat="45.04466" lon="5.39924">
        <ele>1022.5</ele>
        <time>2017-05-24T15:00:18Z</time>
      </trkpt>
      <trkpt lat="45.0447" lon="5.3993">
        <ele>1021.5</ele>
        <time>2017-05-24T15:00:34Z</time>
      </trkpt>
      <trkpt lat="45.0447" lon="5.39933">
        <ele>1021</ele>
        <time>2017-05-24T15:00:42Z</time>
      </trkpt>
      <trkpt lat="45.0447" lon="5.39932">
        <ele>1020.6</ele>
        <time>2017-05-24T15:00:50Z</time>
      </trkpt>
      <trkpt lat="45.04474" lon="5.39933">
        <ele>1018.8</ele>
        <time>2017-05-24T15:01:06Z</time>
      </trkpt>
      <trkpt lat="45.04479" lon="5.39932">
        <ele>1017</ele>
        <time>2017-05-24T15:01:08Z</time>
      </trkpt>
      <trkpt lat="45.04479" lon="5.39928">
        <ele>1015.7</ele>
        <time>2017-05-24T15:01:24Z</time>
      </trkpt>
      <trkpt lat="45.0449" lon="5.39929">
        <ele>1013.3</ele>
        <time>2017-05-24T15:01:56Z</time>
      </trkpt>
      <trkpt lat="45.04492" lon="5.39933">
        <ele>1012.8</ele>
        <time>2017-05-24T15:02:04Z</time>
      </trkpt>
      <trkpt lat="45.04508" lon="5.39919">
        <ele>1005.6</ele>
        <time>2017-05-24T15:02:49Z</time>
      </trkpt>
      <trkpt lat="45.04506" lon="5.39918">
        <ele>1005.2</ele>
        <time>2017-05-24T15:02:59Z</time>
      </trkpt>
      <trkpt lat="45.04507" lon="5.39915">
        <ele>1004.2</ele>
        <time>2017-05-24T15:03:01Z</time>
      </trkpt>
      <trkpt lat="45.04503" lon="5.39907">
        <ele>999.4</ele>
        <time>2017-05-24T15:03:09Z</time>
      </trkpt>
      <trkpt lat="45.04509" lon="5.39908">
        <ele>995.2</ele>
        <time>2017-05-24T15:03:25Z</time>
      </trkpt>
      <trkpt lat="45.0451" lon="5.39905">
        <ele>994.1</ele>
        <time>2017-05-24T15:03:41Z</time>
      </trkpt>
      <trkpt lat="45.04507" lon="5.39904">
        <ele>993.3</ele>
        <time>2017-05-24T15:03:49Z</time>
      </trkpt>
      <trkpt lat="45.04509" lon="5.39909">
        <ele>992</ele>
        <time>2017-05-24T15:04:01Z</time>
      </trkpt>
      <trkpt lat="45.04512" lon="5.39908">
        <ele>991.5</ele>
        <time>2017-05-24T15:04:05Z</time>
      </trkpt>
      <trkpt lat="45.04513" lon="5.39905">
        <ele>989.9</ele>
        <time>2017-05-24T15:04:13Z</time>
      </trkpt>
      <trkpt lat="45.04515" lon="5.39905">
        <ele>989.6</ele>
        <time>2017-05-24T15:04:15Z</time>
      </trkpt>
      <trkpt lat="45.04514" lon="5.39907">
        <ele>988.9</ele>
        <time>2017-05-24T15:04:23Z</time>
      </trkpt>
      <trkpt lat="45.04518" lon="5.3991">
        <ele>986.3</ele>
        <time>2017-05-24T15:04:39Z</time>
      </trkpt>
      <trkpt lat="45.04532" lon="5.39892">
        <ele>978.3</ele>
        <time>2017-05-24T15:05:03Z</time>
      </trkpt>
      <trkpt lat="45.04542" lon="5.39883">
        <ele>973.3</ele>
        <time>2017-05-24T15:06:07Z</time>
      </trkpt>
      <trkpt lat="45.04544" lon="5.39878">
        <ele>971</ele>
        <time>2017-05-24T15:06:39Z</time>
      </trkpt>
      <trkpt lat="45.04553" lon="5.39875">
        <ele>966.5</ele>
        <time>2017-05-24T15:06:55Z</time>
      </trkpt>
      <trkpt lat="45.04553" lon="5.3987">
        <ele>964.4</ele>
        <time>2017-05-24T15:07:11Z</time>
      </trkpt>
      <trkpt lat="45.04562" lon="5.39866">
        <ele>959.9</ele>
        <time>2017-05-24T15:07:27Z</time>
      </trkpt>
      <trkpt lat="45.04561" lon="5.39893">
        <ele>952.8</ele>
        <time>2017-05-24T15:08:03Z</time>
      </trkpt>
      <trkpt lat="45.04574" lon="5.39882">
        <ele>949.8</ele>
        <time>2017-05-24T15:08:22Z</time>
      </trkpt>
      <trkpt lat="45.04578" lon="5.39882">
        <ele>948.2</ele>
        <time>2017-05-24T15:08:30Z</time>
      </trkpt>
      <trkpt lat="45.0458" lon="5.39878">
        <ele>944.8</ele>
        <time>2017-05-24T15:09:02Z</time>
      </trkpt>
      <trkpt lat="45.04577" lon="5.39874">
        <ele>943.7</ele>
        <time>2017-05-24T15:09:12Z</time>
      </trkpt>
      <trkpt lat="45.04582" lon="5.39871">
        <ele>943.1</ele>
        <time>2017-05-24T15:09:20Z</time>
      </trkpt>
      <trkpt lat="45.04597" lon="5.39869">
        <ele>938.6</ele>
        <time>2017-05-24T15:09:36Z</time>
      </trkpt>
      <trkpt lat="45.04606" lon="5.39858">
        <ele>935</ele>
        <time>2017-05-24T15:09:50Z</time>
      </trkpt>
      <trkpt lat="45.04605" lon="5.39855">
        <ele>934</ele>
        <time>2017-05-24T15:09:52Z</time>
      </trkpt>
      <trkpt lat="45.04609" lon="5.39854">
        <ele>932.6</ele>
        <time>2017-05-24T15:10:00Z</time>
      </trkpt>
      <trkpt lat="45.04614" lon="5.39864">
        <ele>929.7</ele>
        <time>2017-05-24T15:10:16Z</time>
      </trkpt>
      <trkpt lat="45.0461" lon="5.3987">
        <ele>927.8</ele>
        <time>2017-05-24T15:10:24Z</time>
      </trkpt>
      <trkpt lat="45.04613" lon="5.39872">
        <ele>924.5</ele>
        <time>2017-05-24T15:10:32Z</time>
      </trkpt>
      <trkpt lat="45.04612" lon="5.39869">
        <ele>923.9</ele>
        <time>2017-05-24T15:10:34Z</time>
      </trkpt>
      <trkpt lat="45.04616" lon="5.39866">
        <ele>920.9</ele>
        <time>2017-05-24T15:10:42Z</time>
      </trkpt>
      <trkpt lat="45.04622" lon="5.39875">
        <ele>917</ele>
        <time>2017-05-24T15:10:54Z</time>
      </trkpt>
      <trkpt lat="45.04623" lon="5.39873">
        <ele>914.6</ele>
        <time>2017-05-24T15:11:02Z</time>
      </trkpt>
      <trkpt lat="45.04619" lon="5.39861">
        <ele>910.7</ele>
        <time>2017-05-24T15:11:18Z</time>
      </trkpt>
      <trkpt lat="45.0462" lon="5.39853">
        <ele>908.9</ele>
        <time>2017-05-24T15:11:34Z</time>
      </trkpt>
      <trkpt lat="45.04636" lon="5.39855">
        <ele>907.2</ele>
        <time>2017-05-24T15:11:58Z</time>
      </trkpt>
      <trkpt lat="45.04637" lon="5.39857">
        <ele>907</ele>
        <time>2017-05-24T15:12:00Z</time>
      </trkpt>
      <trkpt lat="45.04635" lon="5.39861">
        <ele>906.7</ele>
        <time>2017-05-24T15:12:04Z</time>
      </trkpt>
      <trkpt lat="45.04634" lon="5.39858">
        <ele>906.5</ele>
        <time>2017-05-24T15:12:06Z</time>
      </trkpt>
      <trkpt lat="45.04631" lon="5.39855">
        <ele>906.1</ele>
        <time>2017-05-24T15:12:14Z</time>
      </trkpt>
      <trkpt lat="45.04633" lon="5.39861">
        <ele>904.6</ele>
        <time>2017-05-24T15:12:29Z</time>
      </trkpt>
      <trkpt lat="45.04636" lon="5.39862">
        <ele>904.7</ele>
        <time>2017-05-24T15:12:33Z</time>
      </trkpt>
      <trkpt lat="45.04638" lon="5.39869">
        <ele>905.2</ele>
        <time>2017-05-24T15:12:41Z</time>
      </trkpt>
      <trkpt lat="45.0464" lon="5.39872">
        <ele>905.3</ele>
        <time>2017-05-24T15:13:13Z</time>
      </trkpt>
      <trkpt lat="45.04642" lon="5.39871">
        <ele>903.5</ele>
        <time>2017-05-24T15:13:15Z</time>
      </trkpt>
      <trkpt lat="45.04644" lon="5.39874">
        <ele>903.3</ele>
        <time>2017-05-24T15:13:31Z</time>
      </trkpt>
      <trkpt lat="45.04639" lon="5.39885">
        <ele>902.1</ele>
        <time>2017-05-24T15:14:03Z</time>
      </trkpt>
      <trkpt lat="45.04634" lon="5.39874">
        <ele>900.2</ele>
        <time>2017-05-24T15:14:21Z</time>
      </trkpt>
      <trkpt lat="45.04629" lon="5.39871">
        <ele>900.2</ele>
        <time>2017-05-24T15:14:53Z</time>
      </trkpt>
      <trkpt lat="45.04638" lon="5.39888">
        <ele>893.4</ele>
        <time>2017-05-24T15:15:57Z</time>
      </trkpt>
      <trkpt lat="45.04638" lon="5.39893">
        <ele>891.8</ele>
        <time>2017-05-24T15:17:02Z</time>
      </trkpt>
      <trkpt lat="45.04632" lon="5.39887">
        <ele>891.1</ele>
        <time>2017-05-24T15:17:06Z</time>
      </trkpt>
      <trkpt lat="45.04632" lon="5.39885">
        <ele>887</ele>
        <time>2017-05-24T15:17:13Z</time>
      </trkpt>
      <trkpt lat="45.04636" lon="5.39884">
        <ele>884.6</ele>
        <time>2017-05-24T15:17:21Z</time>
      </trkpt>
      <trkpt lat="45.04644" lon="5.3989">
        <ele>884.4</ele>
        <time>2017-05-24T15:17:25Z</time>
      </trkpt>
      <trkpt lat="45.04643" lon="5.39885">
        <ele>884.3</ele>
        <time>2017-05-24T15:18:27Z</time>
      </trkpt>
      <trkpt lat="45.04647" lon="5.39883">
        <ele>883.8</ele>
        <time>2017-05-24T15:18:59Z</time>
      </trkpt>
      <trkpt lat="45.04645" lon="5.39871">
        <ele>880.4</ele>
        <time>2017-05-24T15:19:31Z</time>
      </trkpt>
      <trkpt lat="45.04646" lon="5.39853">
        <ele>877.9</ele>
        <time>2017-05-24T15:20:19Z</time>
      </trkpt>
      <trkpt lat="45.04647" lon="5.39858">
        <ele>871.9</ele>
        <time>2017-05-24T15:20:31Z</time>
      </trkpt>
      <trkpt lat="45.04647" lon="5.3986">
        <ele>868.7</ele>
        <time>2017-05-24T15:20:39Z</time>
      </trkpt>
      <trkpt lat="45.04651" lon="5.39868">
        <ele>868.8</ele>
        <time>2017-05-24T15:20:47Z</time>
      </trkpt>
      <trkpt lat="45.0465" lon="5.39876">
        <ele>868.6</ele>
        <time>2017-05-24T15:20:55Z</time>
      </trkpt>
      <trkpt lat="45.04652" lon="5.3988">
        <ele>868.8</ele>
        <time>2017-05-24T15:21:03Z</time>
      </trkpt>
      <trkpt lat="45.04654" lon="5.3988">
        <ele>868.7</ele>
        <time>2017-05-24T15:21:11Z</time>
      </trkpt>
      <trkpt lat="45.04655" lon="5.39876">
        <ele>868.9</ele>
        <time>2017-05-24T15:21:15Z</time>
      </trkpt>
      <trkpt lat="45.04652" lon="5.39877">
        <ele>869.1</ele>
        <time>2017-05-24T15:22:14Z</time>
      </trkpt>
      <trkpt lat="45.04645" lon="5.39874">
        <ele>867</ele>
        <time>2017-05-24T15:22:22Z</time>
      </trkpt>
      <trkpt lat="45.04642" lon="5.39876">
        <ele>866</ele>
        <time>2017-05-24T15:22:30Z</time>
      </trkpt>
      <trkpt lat="45.04653" lon="5.39881">
        <ele>872.1</ele>
        <time>2017-05-24T15:23:34Z</time>
      </trkpt>
      <trkpt lat="45.04656" lon="5.39884">
        <ele>874.8</ele>
        <time>2017-05-24T15:24:06Z</time>
      </trkpt>
      <trkpt lat="45.04651" lon="5.39884">
        <ele>874.2</ele>
        <time>2017-05-24T15:24:34Z</time>
      </trkpt>
      <trkpt lat="45.04657" lon="5.39872">
        <ele>871.8</ele>
        <time>2017-05-24T15:25:22Z</time>
      </trkpt>
      <trkpt lat="45.04655" lon="5.39874">
        <ele>870.9</ele>
        <time>2017-05-24T15:25:30Z</time>
      </trkpt>
      <trkpt lat="45.04657" lon="5.39875">
        <ele>870.6</ele>
        <time>2017-05-24T15:25:38Z</time>
      </trkpt>
      <trkpt lat="45.04654" lon="5.39868">
        <ele>869.9</ele>
        <time>2017-05-24T15:25:42Z</time>
      </trkpt>
      <trkpt lat="45.04655" lon="5.39866">
        <ele>870.3</ele>
        <time>2017-05-24T15:26:14Z</time>
      </trkpt>
      <trkpt lat="45.0465" lon="5.39868">
        <ele>868.2</ele>
        <time>2017-05-24T15:26:32Z</time>
      </trkpt>
      <trkpt lat="45.04648" lon="5.39867">
        <ele>867.1</ele>
        <time>2017-05-24T15:26:36Z</time>
      </trkpt>
      <trkpt lat="45.04646" lon="5.39863">
        <ele>864.7</ele>
        <time>2017-05-24T15:26:44Z</time>
      </trkpt>
      <trkpt lat="45.04648" lon="5.39864">
        <ele>863.5</ele>
        <time>2017-05-24T15:26:52Z</time>
      </trkpt>
      <trkpt lat="45.04648" lon="5.39877">
        <ele>861.8</ele>
        <time>2017-05-24T15:27:08Z</time>
      </trkpt>
      <trkpt lat="45.0465" lon="5.39879">
        <ele>861.4</ele>
        <time>2017-05-24T15:27:16Z</time>
      </trkpt>
      <trkpt lat="45.04661" lon="5.39873">
        <ele>860.6</ele>
        <time>2017-05-24T15:27:22Z</time>
      </trkpt>
      <trkpt lat="45.04661" lon="5.3987">
        <ele>860.5</ele>
        <time>2017-05-24T15:27:24Z</time>
      </trkpt>
      <trkpt lat="45.0467" lon="5.39867">
        <ele>860.6</ele>
        <time>2017-05-24T15:27:32Z</time>
      </trkpt>
      <trkpt lat="45.0468" lon="5.39859">
        <ele>859.7</ele>
        <time>2017-05-24T15:27:48Z</time>
      </trkpt>
      <trkpt lat="45.04687" lon="5.39858">
        <ele>859.4</ele>
        <time>2017-05-24T15:27:56Z</time>
      </trkpt>
      <trkpt lat="45.0469" lon="5.39862">
        <ele>859</ele>
        <time>2017-05-24T15:28:04Z</time>
      </trkpt>
      <trkpt lat="45.04708" lon="5.39856">
        <ele>855.2</ele>
        <time>2017-05-24T15:28:31Z</time>
      </trkpt>
      <trkpt lat="45.04708" lon="5.3986">
        <ele>854.1</ele>
        <time>2017-05-24T15:28:35Z</time>
      </trkpt>
      <trkpt lat="45.04709" lon="5.39862">
        <ele>853.8</ele>
        <time>2017-05-24T15:28:39Z</time>
      </trkpt>
      <trkpt lat="45.04703" lon="5.39867">
        <ele>852.4</ele>
        <time>2017-05-24T15:28:57Z</time>
      </trkpt>
      <trkpt lat="45.04703" lon="5.39869">
        <ele>852</ele>
        <time>2017-05-24T15:29:01Z</time>
      </trkpt>
      <trkpt lat="45.04709" lon="5.39873">
        <ele>851.8</ele>
        <time>2017-05-24T15:29:05Z</time>
      </trkpt>
      <trkpt lat="45.0471" lon="5.39877">
        <ele>851.3</ele>
        <time>2017-05-24T15:29:08Z</time>
      </trkpt>
      <trkpt lat="45.04713" lon="5.39874">
        <ele>851</ele>
        <time>2017-05-24T15:29:10Z</time>
      </trkpt>
      <trkpt lat="45.04718" lon="5.39876">
        <ele>850.4</ele>
        <time>2017-05-24T15:29:14Z</time>
      </trkpt>
      <trkpt lat="45.04717" lon="5.39878">
        <ele>849.7</ele>
        <time>2017-05-24T15:29:16Z</time>
      </trkpt>
      <trkpt lat="45.04728" lon="5.39874">
        <ele>847</ele>
        <time>2017-05-24T15:29:32Z</time>
      </trkpt>
      <trkpt lat="45.04742" lon="5.39865">
        <ele>841.7</ele>
        <time>2017-05-24T15:29:54Z</time>
      </trkpt>
      <trkpt lat="45.04748" lon="5.39857">
        <ele>837.6</ele>
        <time>2017-05-24T15:30:10Z</time>
      </trkpt>
      <trkpt lat="45.04753" lon="5.3987">
        <ele>834.3</ele>
        <time>2017-05-24T15:30:30Z</time>
      </trkpt>
      <trkpt lat="45.04759" lon="5.39864">
        <ele>833.3</ele>
        <time>2017-05-24T15:30:38Z</time>
      </trkpt>
      <trkpt lat="45.04771" lon="5.39862">
        <ele>818.8</ele>
        <time>2017-05-24T15:31:10Z</time>
      </trkpt>
      <trkpt lat="45.04773" lon="5.3986">
        <ele>807.8</ele>
        <time>2017-05-24T15:31:18Z</time>
      </trkpt>
      <trkpt lat="45.0477" lon="5.3986">
        <ele>800.6</ele>
        <time>2017-05-24T15:31:27Z</time>
      </trkpt>
      <trkpt lat="45.04769" lon="5.39857">
        <ele>797.6</ele>
        <time>2017-05-24T15:31:30Z</time>
      </trkpt>
      <trkpt lat="45.0476" lon="5.39856">
        <ele>781.6</ele>
        <time>2017-05-24T15:31:38Z</time>
      </trkpt>
      <trkpt lat="45.04757" lon="5.39848">
        <ele>762.4</ele>
        <time>2017-05-24T15:31:54Z</time>
      </trkpt>
      <trkpt lat="45.04758" lon="5.39853">
        <ele>760.1</ele>
        <time>2017-05-24T15:32:01Z</time>
      </trkpt>
      <trkpt lat="45.04763" lon="5.39861">
        <ele>764.9</ele>
        <time>2017-05-24T15:32:10Z</time>
      </trkpt>
      <trkpt lat="45.04778" lon="5.39871">
        <ele>759.3</ele>
        <time>2017-05-24T15:32:42Z</time>
      </trkpt>
      <trkpt lat="45.0478" lon="5.39874">
        <ele>759.5</ele>
        <time>2017-05-24T15:32:46Z</time>
      </trkpt>
      <trkpt lat="45.04778" lon="5.39875">
        <ele>761.7</ele>
        <time>2017-05-24T15:33:46Z</time>
      </trkpt>
      <trkpt lat="45.04774" lon="5.39889">
        <ele>740.8</ele>
        <time>2017-05-24T15:34:18Z</time>
      </trkpt>
      <trkpt lat="45.04783" lon="5.3989">
        <ele>727.1</ele>
        <time>2017-05-24T15:34:34Z</time>
      </trkpt>
      <trkpt lat="45.04793" lon="5.39887">
        <ele>731.5</ele>
        <time>2017-05-24T15:34:46Z</time>
      </trkpt>
      <trkpt lat="45.048" lon="5.39898">
        <ele>740.8</ele>
        <time>2017-05-24T15:34:54Z</time>
      </trkpt>
      <trkpt lat="45.04803" lon="5.399">
        <ele>741.2</ele>
        <time>2017-05-24T15:34:58Z</time>
      </trkpt>
      <trkpt lat="45.04809" lon="5.399">
        <ele>743.2</ele>
        <time>2017-05-24T15:35:04Z</time>
      </trkpt>
      <trkpt lat="45.04808" lon="5.39914">
        <ele>742.4</ele>
        <time>2017-05-24T15:35:20Z</time>
      </trkpt>
      <trkpt lat="45.04812" lon="5.39918">
        <ele>741.1</ele>
        <time>2017-05-24T15:35:24Z</time>
      </trkpt>
      <trkpt lat="45.04821" lon="5.39916">
        <ele>740.3</ele>
        <time>2017-05-24T15:35:32Z</time>
      </trkpt>
      <trkpt lat="45.04831" lon="5.3991">
        <ele>737.8</ele>
        <time>2017-05-24T15:35:40Z</time>
      </trkpt>
      <trkpt lat="45.04831" lon="5.39912">
        <ele>737.3</ele>
        <time>2017-05-24T15:35:42Z</time>
      </trkpt>
      <trkpt lat="45.0483" lon="5.39912">
        <ele>735.1</ele>
        <time>2017-05-24T15:35:44Z</time>
      </trkpt>
      <trkpt lat="45.04833" lon="5.39915">
        <ele>735</ele>
        <time>2017-05-24T15:35:52Z</time>
      </trkpt>
      <trkpt lat="45.0483" lon="5.39921">
        <ele>734</ele>
        <time>2017-05-24T15:36:00Z</time>
      </trkpt>
      <trkpt lat="45.04831" lon="5.39926">
        <ele>733.3</ele>
        <time>2017-05-24T15:36:04Z</time>
      </trkpt>
      <trkpt lat="45.04838" lon="5.39926">
        <ele>731.1</ele>
        <time>2017-05-24T15:36:10Z</time>
      </trkpt>
      <trkpt lat="45.04837" lon="5.39929">
        <ele>729.8</ele>
        <time>2017-05-24T15:36:14Z</time>
      </trkpt>
      <trkpt lat="45.04843" lon="5.39935">
        <ele>730.9</ele>
        <time>2017-05-24T15:36:22Z</time>
      </trkpt>
      <trkpt lat="45.04852" lon="5.39937">
        <ele>724.9</ele>
        <time>2017-05-24T15:36:30Z</time>
      </trkpt>
      <trkpt lat="45.0486" lon="5.39924">
        <ele>705.6</ele>
        <time>2017-05-24T15:36:58Z</time>
      </trkpt>
      <trkpt lat="45.04859" lon="5.39923">
        <ele>703.2</ele>
        <time>2017-05-24T15:37:02Z</time>
      </trkpt>
      <trkpt lat="45.04856" lon="5.39942">
        <ele>700.2</ele>
        <time>2017-05-24T15:37:18Z</time>
      </trkpt>
      <trkpt lat="45.04858" lon="5.39956">
        <ele>699.9</ele>
        <time>2017-05-24T15:37:30Z</time>
      </trkpt>
      <trkpt lat="45.04874" lon="5.39957">
        <ele>688.3</ele>
        <time>2017-05-24T15:37:46Z</time>
      </trkpt>
      <trkpt lat="45.04877" lon="5.39972">
        <ele>685.6</ele>
        <time>2017-05-24T15:38:02Z</time>
      </trkpt>
      <trkpt lat="45.0488" lon="5.39978">
        <ele>686.2</ele>
        <time>2017-05-24T15:38:14Z</time>
      </trkpt>
      <trkpt lat="45.04882" lon="5.3998">
        <ele>687.4</ele>
        <time>2017-05-24T15:38:18Z</time>
      </trkpt>
      <trkpt lat="45.04886" lon="5.3998">
        <ele>687.8</ele>
        <time>2017-05-24T15:38:22Z</time>
      </trkpt>
      <trkpt lat="45.0489" lon="5.39983">
        <ele>687.6</ele>
        <time>2017-05-24T15:38:29Z</time>
      </trkpt>
      <trkpt lat="45.04911" lon="5.39979">
        <ele>681.9</ele>
        <time>2017-05-24T15:38:46Z</time>
      </trkpt>
      <trkpt lat="45.04914" lon="5.39976">
        <ele>679.5</ele>
        <time>2017-05-24T15:38:54Z</time>
      </trkpt>
      <trkpt lat="45.04916" lon="5.39979">
        <ele>675.4</ele>
        <time>2017-05-24T15:39:02Z</time>
      </trkpt>
      <trkpt lat="45.04916" lon="5.39986">
        <ele>673.7</ele>
        <time>2017-05-24T15:39:10Z</time>
      </trkpt>
      <trkpt lat="45.0491" lon="5.40002">
        <ele>673.6</ele>
        <time>2017-05-24T15:39:26Z</time>
      </trkpt>
      <trkpt lat="45.04903" lon="5.40025">
        <ele>674.6</ele>
        <time>2017-05-24T15:39:42Z</time>
      </trkpt>
      <trkpt lat="45.04902" lon="5.4004">
        <ele>676.4</ele>
        <time>2017-05-24T15:39:58Z</time>
      </trkpt>
      <trkpt lat="45.04899" lon="5.40051">
        <ele>678.2</ele>
        <time>2017-05-24T15:40:06Z</time>
      </trkpt>
      <trkpt lat="45.04899" lon="5.40059">
        <ele>674.4</ele>
        <time>2017-05-24T15:40:14Z</time>
      </trkpt>
      <trkpt lat="45.04895" lon="5.40062">
        <ele>670.5</ele>
        <time>2017-05-24T15:40:26Z</time>
      </trkpt>
      <trkpt lat="45.04903" lon="5.40069">
        <ele>668.4</ele>
        <time>2017-05-24T15:40:58Z</time>
      </trkpt>
      <trkpt lat="45.04903" lon="5.40063">
        <ele>667.2</ele>
        <time>2017-05-24T15:41:12Z</time>
      </trkpt>
      <trkpt lat="45.04905" lon="5.4006">
        <ele>667.7</ele>
        <time>2017-05-24T15:41:16Z</time>
      </trkpt>
      <trkpt lat="45.04906" lon="5.40053">
        <ele>668.9</ele>
        <time>2017-05-24T15:41:24Z</time>
      </trkpt>
      <trkpt lat="45.04907" lon="5.40061">
        <ele>668.4</ele>
        <time>2017-05-24T15:41:40Z</time>
      </trkpt>
      <trkpt lat="45.04904" lon="5.40063">
        <ele>664.8</ele>
        <time>2017-05-24T15:41:56Z</time>
      </trkpt>
      <trkpt lat="45.04904" lon="5.4006">
        <ele>661.5</ele>
        <time>2017-05-24T15:42:10Z</time>
      </trkpt>
      <trkpt lat="45.04907" lon="5.40056">
        <ele>661.6</ele>
        <time>2017-05-24T15:42:26Z</time>
      </trkpt>
      <trkpt lat="45.04903" lon="5.40059">
        <ele>665.1</ele>
        <time>2017-05-24T15:42:38Z</time>
      </trkpt>
      <trkpt lat="45.04905" lon="5.40063">
        <ele>675.1</ele>
        <time>2017-05-24T15:43:10Z</time>
      </trkpt>
      <trkpt lat="45.0491" lon="5.40064">
        <ele>672</ele>
        <time>2017-05-24T15:44:14Z</time>
      </trkpt>
      <trkpt lat="45.04905" lon="5.40061">
        <ele>666.7</ele>
        <time>2017-05-24T15:45:10Z</time>
      </trkpt>
      <trkpt lat="45.04896" lon="5.40064">
        <ele>647.2</ele>
        <time>2017-05-24T15:45:46Z</time>
      </trkpt>
      <trkpt lat="45.04906" lon="5.4007">
        <ele>663.5</ele>
        <time>2017-05-24T15:46:18Z</time>
      </trkpt>
      <trkpt lat="45.04915" lon="5.40066">
        <ele>682.2</ele>
        <time>2017-05-24T15:46:30Z</time>
      </trkpt>
      <trkpt lat="45.04919" lon="5.40056">
        <ele>687.2</ele>
        <time>2017-05-24T15:46:38Z</time>
      </trkpt>
      <trkpt lat="45.04921" lon="5.40056">
        <ele>684.7</ele>
        <time>2017-05-24T15:46:50Z</time>
      </trkpt>
      <trkpt lat="45.04923" lon="5.40043">
        <ele>686.8</ele>
        <time>2017-05-24T15:47:00Z</time>
      </trkpt>
      <trkpt lat="45.0492" lon="5.4004">
        <ele>685.2</ele>
        <time>2017-05-24T15:47:04Z</time>
      </trkpt>
      <trkpt lat="45.04921" lon="5.40036">
        <ele>685</ele>
        <time>2017-05-24T15:47:08Z</time>
      </trkpt>
      <trkpt lat="45.04925" lon="5.40037">
        <ele>677.6</ele>
        <time>2017-05-24T15:47:40Z</time>
      </trkpt>
      <trkpt lat="45.04923" lon="5.40024">
        <ele>675.5</ele>
        <time>2017-05-24T15:48:18Z</time>
      </trkpt>
      <trkpt lat="45.04923" lon="5.40005">
        <ele>676.2</ele>
        <time>2017-05-24T15:48:34Z</time>
      </trkpt>
      <trkpt lat="45.04926" lon="5.3998">
        <ele>674.4</ele>
        <time>2017-05-24T15:48:50Z</time>
      </trkpt>
      <trkpt lat="45.04924" lon="5.39977">
        <ele>673.2</ele>
        <time>2017-05-24T15:48:54Z</time>
      </trkpt>
      <trkpt lat="45.04927" lon="5.39956">
        <ele>672.3</ele>
        <time>2017-05-24T15:49:10Z</time>
      </trkpt>
      <trkpt lat="45.04929" lon="5.3995">
        <ele>671.7</ele>
        <time>2017-05-24T15:49:14Z</time>
      </trkpt>
      <trkpt lat="45.04928" lon="5.39941">
        <ele>672.9</ele>
        <time>2017-05-24T15:49:22Z</time>
      </trkpt>
      <trkpt lat="45.04928" lon="5.39938">
        <ele>673.7</ele>
        <time>2017-05-24T15:49:26Z</time>
      </trkpt>
      <trkpt lat="45.04945" lon="5.39917">
        <ele>677.7</ele>
        <time>2017-05-24T15:49:42Z</time>
      </trkpt>
      <trkpt lat="45.04952" lon="5.39887">
        <ele>674.1</ele>
        <time>2017-05-24T15:50:02Z</time>
      </trkpt>
      <trkpt lat="45.04952" lon="5.39873">
        <ele>671.4</ele>
        <time>2017-05-24T15:50:10Z</time>
      </trkpt>
      <trkpt lat="45.04954" lon="5.39859">
        <ele>671</ele>
        <time>2017-05-24T15:50:18Z</time>
      </trkpt>
      <trkpt lat="45.04958" lon="5.39851">
        <ele>669.4</ele>
        <time>2017-05-24T15:50:26Z</time>
      </trkpt>
      <trkpt lat="45.04958" lon="5.39844">
        <ele>667.4</ele>
        <time>2017-05-24T15:50:34Z</time>
      </trkpt>
      <trkpt lat="45.04964" lon="5.39843">
        <ele>661.2</ele>
        <time>2017-05-24T15:50:38Z</time>
      </trkpt>
      <trkpt lat="45.04995" lon="5.39826">
        <ele>671.6</ele>
        <time>2017-05-24T15:51:02Z</time>
      </trkpt>
      <trkpt lat="45.04999" lon="5.39822">
        <ele>673.4</ele>
        <time>2017-05-24T15:51:06Z</time>
      </trkpt>
      <trkpt lat="45.05021" lon="5.39758">
        <ele>667.6</ele>
        <time>2017-05-24T15:51:42Z</time>
      </trkpt>
      <trkpt lat="45.05025" lon="5.39707">
        <ele>663.3</ele>
        <time>2017-05-24T15:52:10Z</time>
      </trkpt>
      <trkpt lat="45.05028" lon="5.397">
        <ele>663.1</ele>
        <time>2017-05-24T15:52:14Z</time>
      </trkpt>
      <trkpt lat="45.05031" lon="5.39681">
        <ele>664.7</ele>
        <time>2017-05-24T15:52:26Z</time>
      </trkpt>
      <trkpt lat="45.0503" lon="5.39676">
        <ele>661.2</ele>
        <time>2017-05-24T15:52:30Z</time>
      </trkpt>
      <trkpt lat="45.05042" lon="5.39635">
        <ele>656.8</ele>
        <time>2017-05-24T15:52:54Z</time>
      </trkpt>
      <trkpt lat="45.05044" lon="5.39609">
        <ele>642.6</ele>
        <time>2017-05-24T15:53:10Z</time>
      </trkpt>
      <trkpt lat="45.05048" lon="5.39602">
        <ele>643.4</ele>
        <time>2017-05-24T15:53:14Z</time>
      </trkpt>
      <trkpt lat="45.0505" lon="5.39596">
        <ele>642.7</ele>
        <time>2017-05-24T15:53:18Z</time>
      </trkpt>
      <trkpt lat="45.05053" lon="5.39594">
        <ele>641.6</ele>
        <time>2017-05-24T15:53:34Z</time>
      </trkpt>
      <trkpt lat="45.05058" lon="5.39584">
        <ele>650.1</ele>
        <time>2017-05-24T15:53:50Z</time>
      </trkpt>
      <trkpt lat="45.05062" lon="5.39583">
        <ele>657.2</ele>
        <time>2017-05-24T15:53:58Z</time>
      </trkpt>
      <trkpt lat="45.05056" lon="5.39583">
        <ele>642.5</ele>
        <time>2017-05-24T15:55:02Z</time>
      </trkpt>
      <trkpt lat="45.0506" lon="5.39588">
        <ele>645.5</ele>
        <time>2017-05-24T15:55:08Z</time>
      </trkpt>
      <trkpt lat="45.05065" lon="5.39582">
        <ele>644.9</ele>
        <time>2017-05-24T15:55:16Z</time>
      </trkpt>
      <trkpt lat="45.05071" lon="5.39562">
        <ele>644.6</ele>
        <time>2017-05-24T15:55:32Z</time>
      </trkpt>
      <trkpt lat="45.05085" lon="5.39537">
        <ele>649.1</ele>
        <time>2017-05-24T15:55:48Z</time>
      </trkpt>
      <trkpt lat="45.05089" lon="5.39526">
        <ele>650</ele>
        <time>2017-05-24T15:55:56Z</time>
      </trkpt>
      <trkpt lat="45.05102" lon="5.39499">
        <ele>647.1</ele>
        <time>2017-05-24T15:56:12Z</time>
      </trkpt>
      <trkpt lat="45.0513" lon="5.39464">
        <ele>642.6</ele>
        <time>2017-05-24T15:56:36Z</time>
      </trkpt>
      <trkpt lat="45.05138" lon="5.39461">
        <ele>642.7</ele>
        <time>2017-05-24T15:56:44Z</time>
      </trkpt>
      <trkpt lat="45.05196" lon="5.39411">
        <ele>642.3</ele>
        <time>2017-05-24T15:57:40Z</time>
      </trkpt>
      <trkpt lat="45.052" lon="5.39411">
        <ele>642.8</ele>
        <time>2017-05-24T15:57:56Z</time>
      </trkpt>
      <trkpt lat="45.05203" lon="5.39405">
        <ele>636.9</ele>
        <time>2017-05-24T15:58:04Z</time>
      </trkpt>
      <trkpt lat="45.05207" lon="5.39404">
        <ele>635.1</ele>
        <time>2017-05-24T15:58:12Z</time>
      </trkpt>
      <trkpt lat="45.05206" lon="5.39402">
        <ele>627.2</ele>
        <time>2017-05-24T15:58:24Z</time>
      </trkpt>
      <trkpt lat="45.05206" lon="5.394">
        <ele>625.6</ele>
        <time>2017-05-24T15:58:28Z</time>
      </trkpt>
      <trkpt lat="45.05216" lon="5.39389">
        <ele>621.7</ele>
        <time>2017-05-24T15:58:44Z</time>
      </trkpt>
      <trkpt lat="45.05222" lon="5.39379">
        <ele>620.6</ele>
        <time>2017-05-24T15:58:52Z</time>
      </trkpt>
      <trkpt lat="45.0525" lon="5.39365">
        <ele>624.1</ele>
        <time>2017-05-24T15:59:16Z</time>
      </trkpt>
      <trkpt lat="45.05276" lon="5.39339">
        <ele>625.1</ele>
        <time>2017-05-24T15:59:40Z</time>
      </trkpt>
      <trkpt lat="45.05281" lon="5.39338">
        <ele>625.8</ele>
        <time>2017-05-24T15:59:44Z</time>
      </trkpt>
      <trkpt lat="45.05296" lon="5.39323">
        <ele>621.8</ele>
        <time>2017-05-24T16:00:00Z</time>
      </trkpt>
      <trkpt lat="45.05311" lon="5.39313">
        <ele>620.4</ele>
        <time>2017-05-24T16:00:12Z</time>
      </trkpt>
      <trkpt lat="45.05317" lon="5.39313">
        <ele>622.8</ele>
        <time>2017-05-24T16:00:16Z</time>
      </trkpt>
      <trkpt lat="45.05339" lon="5.39301">
        <ele>625.4</ele>
        <time>2017-05-24T16:00:32Z</time>
      </trkpt>
      <trkpt lat="45.05358" lon="5.39294">
        <ele>621.4</ele>
        <time>2017-05-24T16:00:48Z</time>
      </trkpt>
      <trkpt lat="45.0536" lon="5.39283">
        <ele>621.7</ele>
        <time>2017-05-24T16:01:05Z</time>
      </trkpt>
      <trkpt lat="45.05354" lon="5.39283">
        <ele>623.6</ele>
        <time>2017-05-24T16:01:17Z</time>
      </trkpt>
      <trkpt lat="45.05355" lon="5.39285">
        <ele>623.2</ele>
        <time>2017-05-24T16:01:19Z</time>
      </trkpt>
      <trkpt lat="45.05356" lon="5.39283">
        <ele>624.1</ele>
        <time>2017-05-24T16:01:35Z</time>
      </trkpt>
      <trkpt lat="45.05358" lon="5.39287">
        <ele>629</ele>
        <time>2017-05-24T16:02:07Z</time>
      </trkpt>
      <trkpt lat="45.05361" lon="5.39282">
        <ele>622.1</ele>
        <time>2017-05-24T16:02:11Z</time>
      </trkpt>
      <trkpt lat="45.05366" lon="5.39281">
        <ele>623.2</ele>
        <time>2017-05-24T16:02:19Z</time>
      </trkpt>
      <trkpt lat="45.05372" lon="5.39271">
        <ele>615.3</ele>
        <time>2017-05-24T16:03:07Z</time>
      </trkpt>
      <trkpt lat="45.0538" lon="5.39264">
        <ele>613.4</ele>
        <time>2017-05-24T16:03:15Z</time>
      </trkpt>
      <trkpt lat="45.05417" lon="5.39262">
        <ele>619</ele>
        <time>2017-05-24T16:03:47Z</time>
      </trkpt>
      <trkpt lat="45.05426" lon="5.39257">
        <ele>615.6</ele>
        <time>2017-05-24T16:03:55Z</time>
      </trkpt>
      <trkpt lat="45.05446" lon="5.39251">
        <ele>611.2</ele>
        <time>2017-05-24T16:04:09Z</time>
      </trkpt>
      <trkpt lat="45.05456" lon="5.39252">
        <ele>608.2</ele>
        <time>2017-05-24T16:04:17Z</time>
      </trkpt>
      <trkpt lat="45.05488" lon="5.3925">
        <ele>610</ele>
        <time>2017-05-24T16:04:41Z</time>
      </trkpt>
      <trkpt lat="45.05492" lon="5.39252">
        <ele>612.3</ele>
        <time>2017-05-24T16:04:45Z</time>
      </trkpt>
      <trkpt lat="45.05501" lon="5.39245">
        <ele>608.7</ele>
        <time>2017-05-24T16:04:53Z</time>
      </trkpt>
      <trkpt lat="45.05508" lon="5.39234">
        <ele>604.6</ele>
        <time>2017-05-24T16:05:01Z</time>
      </trkpt>
      <trkpt lat="45.05522" lon="5.39226">
        <ele>606.2</ele>
        <time>2017-05-24T16:05:09Z</time>
      </trkpt>
      <trkpt lat="45.05533" lon="5.39224">
        <ele>611.4</ele>
        <time>2017-05-24T16:05:17Z</time>
      </trkpt>
      <trkpt lat="45.05542" lon="5.39218">
        <ele>611.7</ele>
        <time>2017-05-24T16:05:25Z</time>
      </trkpt>
      <trkpt lat="45.05559" lon="5.3921">
        <ele>615.8</ele>
        <time>2017-05-24T16:05:37Z</time>
      </trkpt>
      <trkpt lat="45.05563" lon="5.3921">
        <ele>616.4</ele>
        <time>2017-05-24T16:05:41Z</time>
      </trkpt>
      <trkpt lat="45.05576" lon="5.392">
        <ele>613.5</ele>
        <time>2017-05-24T16:05:53Z</time>
      </trkpt>
      <trkpt lat="45.05593" lon="5.39192">
        <ele>616.3</ele>
        <time>2017-05-24T16:06:09Z</time>
      </trkpt>
      <trkpt lat="45.05606" lon="5.39181">
        <ele>609</ele>
        <time>2017-05-24T16:06:25Z</time>
      </trkpt>
      <trkpt lat="45.05614" lon="5.39177">
        <ele>607.3</ele>
        <time>2017-05-24T16:08:28Z</time>
      </trkpt>
      <trkpt lat="45.05615" lon="5.39174">
        <ele>604.6</ele>
        <time>2017-05-24T16:08:32Z</time>
      </trkpt>
      <trkpt lat="45.05623" lon="5.3917">
        <ele>603.8</ele>
        <time>2017-05-24T16:08:40Z</time>
      </trkpt>
      <trkpt lat="45.0563" lon="5.3917">
        <ele>605.1</ele>
        <time>2017-05-24T16:08:48Z</time>
      </trkpt>
      <trkpt lat="45.05644" lon="5.39159">
        <ele>607.3</ele>
        <time>2017-05-24T16:09:00Z</time>
      </trkpt>
      <trkpt lat="45.05675" lon="5.39154">
        <ele>607.8</ele>
        <time>2017-05-24T16:09:22Z</time>
      </trkpt>
      <trkpt lat="45.05693" lon="5.39146">
        <ele>603.6</ele>
        <time>2017-05-24T16:09:38Z</time>
      </trkpt>
      <trkpt lat="45.05725" lon="5.39142">
        <ele>603.7</ele>
        <time>2017-05-24T16:10:10Z</time>
      </trkpt>
      <trkpt lat="45.05737" lon="5.39143">
        <ele>604.5</ele>
        <time>2017-05-24T16:10:24Z</time>
      </trkpt>
      <trkpt lat="45.05737" lon="5.39147">
        <ele>607.9</ele>
        <time>2017-05-24T16:10:32Z</time>
      </trkpt>
      <trkpt lat="45.05746" lon="5.39145">
        <ele>605.2</ele>
        <time>2017-05-24T16:10:40Z</time>
      </trkpt>
      <trkpt lat="45.05755" lon="5.39139">
        <ele>604.5</ele>
        <time>2017-05-24T16:10:48Z</time>
      </trkpt>
      <trkpt lat="45.05784" lon="5.39133">
        <ele>601.7</ele>
        <time>2017-05-24T16:11:12Z</time>
      </trkpt>
      <trkpt lat="45.058" lon="5.39139">
        <ele>604.4</ele>
        <time>2017-05-24T16:11:26Z</time>
      </trkpt>
      <trkpt lat="45.0581" lon="5.3913">
        <ele>600.7</ele>
        <time>2017-05-24T16:11:34Z</time>
      </trkpt>
      <trkpt lat="45.0582" lon="5.39129">
        <ele>599.2</ele>
        <time>2017-05-24T16:11:42Z</time>
      </trkpt>
      <trkpt lat="45.0584" lon="5.39131">
        <ele>603.2</ele>
        <time>2017-05-24T16:11:58Z</time>
      </trkpt>
      <trkpt lat="45.05847" lon="5.3913">
        <ele>605.6</ele>
        <time>2017-05-24T16:12:06Z</time>
      </trkpt>
      <trkpt lat="45.05855" lon="5.39121">
        <ele>604.8</ele>
        <time>2017-05-24T16:12:18Z</time>
      </trkpt>
      <trkpt lat="45.05857" lon="5.39104">
        <ele>600.4</ele>
        <time>2017-05-24T16:12:30Z</time>
      </trkpt>
      <trkpt lat="45.05868" lon="5.39081">
        <ele>596.6</ele>
        <time>2017-05-24T16:12:46Z</time>
      </trkpt>
      <trkpt lat="45.05877" lon="5.39067">
        <ele>598</ele>
        <time>2017-05-24T16:12:58Z</time>
      </trkpt>
      <trkpt lat="45.05872" lon="5.3906">
        <ele>595.3</ele>
        <time>2017-05-24T16:13:06Z</time>
      </trkpt>
      <trkpt lat="45.05889" lon="5.39059">
        <ele>602.6</ele>
        <time>2017-05-24T16:14:18Z</time>
      </trkpt>
      <trkpt lat="45.05888" lon="5.39057">
        <ele>599</ele>
        <time>2017-05-24T16:15:06Z</time>
      </trkpt>
      <trkpt lat="45.05892" lon="5.39051">
        <ele>598.2</ele>
        <time>2017-05-24T16:15:14Z</time>
      </trkpt>
      <trkpt lat="45.05895" lon="5.3904">
        <ele>597.3</ele>
        <time>2017-05-24T16:15:22Z</time>
      </trkpt>
      <trkpt lat="45.05895" lon="5.39029">
        <ele>594.5</ele>
        <time>2017-05-24T16:15:30Z</time>
      </trkpt>
      <trkpt lat="45.05905" lon="5.39011">
        <ele>593.5</ele>
        <time>2017-05-24T16:15:42Z</time>
      </trkpt>
      <trkpt lat="45.05922" lon="5.38996">
        <ele>593.5</ele>
        <time>2017-05-24T16:15:58Z</time>
      </trkpt>
      <trkpt lat="45.05929" lon="5.38979">
        <ele>596.2</ele>
        <time>2017-05-24T16:16:14Z</time>
      </trkpt>
      <trkpt lat="45.05935" lon="5.3897">
        <ele>596.7</ele>
        <time>2017-05-24T16:16:22Z</time>
      </trkpt>
      <trkpt lat="45.05953" lon="5.38954">
        <ele>600.1</ele>
        <time>2017-05-24T16:16:38Z</time>
      </trkpt>
      <trkpt lat="45.05967" lon="5.38936">
        <ele>600.2</ele>
        <time>2017-05-24T16:16:54Z</time>
      </trkpt>
      <trkpt lat="45.0598" lon="5.38915">
        <ele>600.7</ele>
        <time>2017-05-24T16:17:10Z</time>
      </trkpt>
      <trkpt lat="45.06015" lon="5.38871">
        <ele>605.4</ele>
        <time>2017-05-24T16:17:50Z</time>
      </trkpt>
      <trkpt lat="45.06027" lon="5.3885">
        <ele>608.6</ele>
        <time>2017-05-24T16:18:06Z</time>
      </trkpt>
      <trkpt lat="45.0603" lon="5.38836">
        <ele>607.3</ele>
        <time>2017-05-24T16:18:14Z</time>
      </trkpt>
      <trkpt lat="45.06032" lon="5.38818">
        <ele>609.4</ele>
        <time>2017-05-24T16:18:30Z</time>
      </trkpt>
      <trkpt lat="45.06027" lon="5.3881">
        <ele>609.5</ele>
        <time>2017-05-24T16:18:54Z</time>
      </trkpt>
      <trkpt lat="45.06028" lon="5.38803">
        <ele>609.1</ele>
        <time>2017-05-24T16:19:02Z</time>
      </trkpt>
      <trkpt lat="45.0603" lon="5.38804">
        <ele>610.9</ele>
        <time>2017-05-24T16:19:10Z</time>
      </trkpt>
      <trkpt lat="45.06029" lon="5.3881">
        <ele>596.2</ele>
        <time>2017-05-24T16:20:30Z</time>
      </trkpt>
      <trkpt lat="45.06036" lon="5.38811">
        <ele>605.3</ele>
        <time>2017-05-24T16:20:38Z</time>
      </trkpt>
      <trkpt lat="45.06034" lon="5.38809">
        <ele>604.7</ele>
        <time>2017-05-24T16:20:42Z</time>
      </trkpt>
      <trkpt lat="45.0604" lon="5.38782">
        <ele>611.7</ele>
        <time>2017-05-24T16:20:58Z</time>
      </trkpt>
      <trkpt lat="45.0604" lon="5.38767">
        <ele>614</ele>
        <time>2017-05-24T16:21:06Z</time>
      </trkpt>
      <trkpt lat="45.06042" lon="5.38755">
        <ele>614.8</ele>
        <time>2017-05-24T16:21:14Z</time>
      </trkpt>
      <trkpt lat="45.06041" lon="5.38742">
        <ele>613.7</ele>
        <time>2017-05-24T16:21:22Z</time>
      </trkpt>
      <trkpt lat="45.06049" lon="5.38714">
        <ele>618.3</ele>
        <time>2017-05-24T16:21:38Z</time>
      </trkpt>
      <trkpt lat="45.06055" lon="5.38701">
        <ele>621.9</ele>
        <time>2017-05-24T16:21:46Z</time>
      </trkpt>
      <trkpt lat="45.06055" lon="5.38654">
        <ele>628.2</ele>
        <time>2017-05-24T16:22:18Z</time>
      </trkpt>
      <trkpt lat="45.06053" lon="5.38642">
        <ele>629.2</ele>
        <time>2017-05-24T16:22:26Z</time>
      </trkpt>
      <trkpt lat="45.0605" lon="5.38632">
        <ele>628.3</ele>
        <time>2017-05-24T16:22:34Z</time>
      </trkpt>
      <trkpt lat="45.06046" lon="5.38606">
        <ele>625.7</ele>
        <time>2017-05-24T16:22:50Z</time>
      </trkpt>
      <trkpt lat="45.06046" lon="5.38573">
        <ele>627.5</ele>
        <time>2017-05-24T16:23:14Z</time>
      </trkpt>
      <trkpt lat="45.06043" lon="5.3856">
        <ele>627.7</ele>
        <time>2017-05-24T16:23:22Z</time>
      </trkpt>
      <trkpt lat="45.06026" lon="5.38519">
        <ele>630.2</ele>
        <time>2017-05-24T16:23:46Z</time>
      </trkpt>
      <trkpt lat="45.06018" lon="5.38507">
        <ele>630</ele>
        <time>2017-05-24T16:23:56Z</time>
      </trkpt>
      <trkpt lat="45.06018" lon="5.385">
        <ele>628.6</ele>
        <time>2017-05-24T16:23:58Z</time>
      </trkpt>
      <trkpt lat="45.06013" lon="5.38493">
        <ele>625.7</ele>
        <time>2017-05-24T16:24:02Z</time>
      </trkpt>
      <trkpt lat="45.06" lon="5.3846">
        <ele>620.6</ele>
        <time>2017-05-24T16:24:18Z</time>
      </trkpt>
      <trkpt lat="45.05996" lon="5.38436">
        <ele>622.7</ele>
        <time>2017-05-24T16:24:34Z</time>
      </trkpt>
      <trkpt lat="45.05992" lon="5.38427">
        <ele>626.3</ele>
        <time>2017-05-24T16:24:42Z</time>
      </trkpt>
      <trkpt lat="45.05988" lon="5.38425">
        <ele>629</ele>
        <time>2017-05-24T16:24:50Z</time>
      </trkpt>
      <trkpt lat="45.05988" lon="5.38419">
        <ele>632.4</ele>
        <time>2017-05-24T16:24:58Z</time>
      </trkpt>
      <trkpt lat="45.05983" lon="5.38411">
        <ele>632</ele>
        <time>2017-05-24T16:25:14Z</time>
      </trkpt>
      <trkpt lat="45.05981" lon="5.38419">
        <ele>626.6</ele>
        <time>2017-05-24T16:25:26Z</time>
      </trkpt>
      <trkpt lat="45.05979" lon="5.38417">
        <ele>626.3</ele>
        <time>2017-05-24T16:25:30Z</time>
      </trkpt>
      <trkpt lat="45.05981" lon="5.38423">
        <ele>621.4</ele>
        <time>2017-05-24T16:26:10Z</time>
      </trkpt>
      <trkpt lat="45.05979" lon="5.38422">
        <ele>619.9</ele>
        <time>2017-05-24T16:26:34Z</time>
      </trkpt>
      <trkpt lat="45.05979" lon="5.38413">
        <ele>623.2</ele>
        <time>2017-05-24T16:26:58Z</time>
      </trkpt>
      <trkpt lat="45.05981" lon="5.38416">
        <ele>619.7</ele>
        <time>2017-05-24T16:27:06Z</time>
      </trkpt>
      <trkpt lat="45.05979" lon="5.3842">
        <ele>620.8</ele>
        <time>2017-05-24T16:27:22Z</time>
      </trkpt>
      <trkpt lat="45.05981" lon="5.38412">
        <ele>623</ele>
        <time>2017-05-24T16:27:38Z</time>
      </trkpt>
      <trkpt lat="45.05978" lon="5.38404">
        <ele>623.5</ele>
        <time>2017-05-24T16:27:46Z</time>
      </trkpt>
      <trkpt lat="45.05978" lon="5.38399">
        <ele>623.7</ele>
        <time>2017-05-24T16:27:50Z</time>
      </trkpt>
      <trkpt lat="45.0597" lon="5.38382">
        <ele>616</ele>
        <time>2017-05-24T16:28:06Z</time>
      </trkpt>
      <trkpt lat="45.05967" lon="5.38357">
        <ele>605.7</ele>
        <time>2017-05-24T16:28:30Z</time>
      </trkpt>
      <trkpt lat="45.0597" lon="5.38353">
        <ele>607.8</ele>
        <time>2017-05-24T16:28:41Z</time>
      </trkpt>
      <trkpt lat="45.05966" lon="5.38352">
        <ele>608.6</ele>
        <time>2017-05-24T16:28:45Z</time>
      </trkpt>
      <trkpt lat="45.05961" lon="5.38327">
        <ele>610.5</ele>
        <time>2017-05-24T16:29:05Z</time>
      </trkpt>
      <trkpt lat="45.05963" lon="5.38323">
        <ele>610.3</ele>
        <time>2017-05-24T16:29:09Z</time>
      </trkpt>
      <trkpt lat="45.05957" lon="5.383">
        <ele>607.6</ele>
        <time>2017-05-24T16:29:25Z</time>
      </trkpt>
      <trkpt lat="45.05942" lon="5.38272">
        <ele>600.8</ele>
        <time>2017-05-24T16:29:45Z</time>
      </trkpt>
      <trkpt lat="45.0594" lon="5.38261">
        <ele>601</ele>
        <time>2017-05-24T16:29:53Z</time>
      </trkpt>
      <trkpt lat="45.05931" lon="5.38237">
        <ele>602.1</ele>
        <time>2017-05-24T16:30:09Z</time>
      </trkpt>
      <trkpt lat="45.05928" lon="5.38214">
        <ele>602.2</ele>
        <time>2017-05-24T16:30:25Z</time>
      </trkpt>
      <trkpt lat="45.05931" lon="5.38204">
        <ele>601.8</ele>
        <time>2017-05-24T16:30:33Z</time>
      </trkpt>
      <trkpt lat="45.05925" lon="5.38185">
        <ele>596.4</ele>
        <time>2017-05-24T16:30:49Z</time>
      </trkpt>
      <trkpt lat="45.05923" lon="5.38175">
        <ele>592.3</ele>
        <time>2017-05-24T16:30:57Z</time>
      </trkpt>
      <trkpt lat="45.05926" lon="5.38167">
        <ele>596.6</ele>
        <time>2017-05-24T16:31:01Z</time>
      </trkpt>
      <trkpt lat="45.05925" lon="5.38143">
        <ele>605.6</ele>
        <time>2017-05-24T16:31:13Z</time>
      </trkpt>
      <trkpt lat="45.05922" lon="5.38137">
        <ele>606.3</ele>
        <time>2017-05-24T16:31:17Z</time>
      </trkpt>
      <trkpt lat="45.05922" lon="5.3813">
        <ele>605.5</ele>
        <time>2017-05-24T16:31:21Z</time>
      </trkpt>
      <trkpt lat="45.05927" lon="5.38119">
        <ele>607.7</ele>
        <time>2017-05-24T16:31:27Z</time>
      </trkpt>
      <trkpt lat="45.05928" lon="5.38109">
        <ele>606.2</ele>
        <time>2017-05-24T16:31:31Z</time>
      </trkpt>
      <trkpt lat="45.05922" lon="5.38086">
        <ele>601.7</ele>
        <time>2017-05-24T16:31:43Z</time>
      </trkpt>
      <trkpt lat="45.05912" lon="5.38057">
        <ele>590.8</ele>
        <time>2017-05-24T16:31:59Z</time>
      </trkpt>
      <trkpt lat="45.05909" lon="5.38055">
        <ele>588.7</ele>
        <time>2017-05-24T16:32:03Z</time>
      </trkpt>
      <trkpt lat="45.05908" lon="5.38066">
        <ele>585.2</ele>
        <time>2017-05-24T16:32:36Z</time>
      </trkpt>
      <trkpt lat="45.0591" lon="5.38058">
        <ele>589.1</ele>
        <time>2017-05-24T16:32:40Z</time>
      </trkpt>
      <trkpt lat="45.05909" lon="5.38026">
        <ele>593.4</ele>
        <time>2017-05-24T16:33:00Z</time>
      </trkpt>
      <trkpt lat="45.05914" lon="5.38011">
        <ele>598.3</ele>
        <time>2017-05-24T16:33:08Z</time>
      </trkpt>
      <trkpt lat="45.05925" lon="5.38006">
        <ele>602.5</ele>
        <time>2017-05-24T16:33:24Z</time>
      </trkpt>
      <trkpt lat="45.05933" lon="5.38007">
        <ele>608</ele>
        <time>2017-05-24T16:33:32Z</time>
      </trkpt>
      <trkpt lat="45.05942" lon="5.38004">
        <ele>609.2</ele>
        <time>2017-05-24T16:33:40Z</time>
      </trkpt>
      <trkpt lat="45.0595" lon="5.37998">
        <ele>610.9</ele>
        <time>2017-05-24T16:33:48Z</time>
      </trkpt>
      <trkpt lat="45.05959" lon="5.37986">
        <ele>608.9</ele>
        <time>2017-05-24T16:34:20Z</time>
      </trkpt>
      <trkpt lat="45.05954" lon="5.37973">
        <ele>602</ele>
        <time>2017-05-24T16:34:36Z</time>
      </trkpt>
      <trkpt lat="45.05955" lon="5.37965">
        <ele>600.4</ele>
        <time>2017-05-24T16:34:45Z</time>
      </trkpt>
      <trkpt lat="45.05961" lon="5.37964">
        <ele>600.7</ele>
        <time>2017-05-24T16:34:49Z</time>
      </trkpt>
      <trkpt lat="45.05966" lon="5.37958">
        <ele>597.4</ele>
        <time>2017-05-24T16:34:55Z</time>
      </trkpt>
      <trkpt lat="45.05965" lon="5.37957">
        <ele>597.6</ele>
        <time>2017-05-24T16:35:03Z</time>
      </trkpt>
      <trkpt lat="45.05966" lon="5.37955">
        <ele>594.8</ele>
        <time>2017-05-24T16:35:11Z</time>
      </trkpt>
      <trkpt lat="45.05964" lon="5.37932">
        <ele>570.4</ele>
        <time>2017-05-24T16:35:20Z</time>
      </trkpt>
      <trkpt lat="45.05952" lon="5.37894">
        <ele>560</ele>
        <time>2017-05-24T16:35:22Z</time>
      </trkpt>
      <trkpt lat="45.0594" lon="5.37872">
        <ele>556.3</ele>
        <time>2017-05-24T16:35:23Z</time>
      </trkpt>
      <trkpt lat="45.0594" lon="5.37853">
        <ele>553</ele>
        <time>2017-05-24T16:35:24Z</time>
      </trkpt>
      <trkpt lat="45.05943" lon="5.3784">
        <ele>562.1</ele>
        <time>2017-05-24T16:35:25Z</time>
      </trkpt>
      <trkpt lat="45.05941" lon="5.37843">
        <ele>560.2</ele>
        <time>2017-05-24T16:35:26Z</time>
      </trkpt>
      <trkpt lat="45.05942" lon="5.37836">
        <ele>558.6</ele>
        <time>2017-05-24T16:35:27Z</time>
      </trkpt>
      <trkpt lat="45.05953" lon="5.37872">
        <ele>557.1</ele>
        <time>2017-05-24T16:35:30Z</time>
      </trkpt>
      <trkpt lat="45.05954" lon="5.37885">
        <ele>555.4</ele>
        <time>2017-05-24T16:35:31Z</time>
      </trkpt>
      <trkpt lat="45.05959" lon="5.37887">
        <ele>554.4</ele>
        <time>2017-05-24T16:35:32Z</time>
      </trkpt>
      <trkpt lat="45.05962" lon="5.37897">
        <ele>554.3</ele>
        <time>2017-05-24T16:35:34Z</time>
      </trkpt>
      <trkpt lat="45.05957" lon="5.37923">
        <ele>553.7</ele>
        <time>2017-05-24T16:35:35Z</time>
      </trkpt>
      <trkpt lat="45.05963" lon="5.3793">
        <ele>560.9</ele>
        <time>2017-05-24T16:35:39Z</time>
      </trkpt>
      <trkpt lat="45.05981" lon="5.37922">
        <ele>570.2</ele>
        <time>2017-05-24T16:35:47Z</time>
      </trkpt>
      <trkpt lat="45.05994" lon="5.37913">
        <ele>574.9</ele>
        <time>2017-05-24T16:35:55Z</time>
      </trkpt>
      <trkpt lat="45.06001" lon="5.379">
        <ele>577.6</ele>
        <time>2017-05-24T16:36:03Z</time>
      </trkpt>
      <trkpt lat="45.06002" lon="5.37884">
        <ele>578.6</ele>
        <time>2017-05-24T16:36:11Z</time>
      </trkpt>
      <trkpt lat="45.05999" lon="5.37857">
        <ele>579.7</ele>
        <time>2017-05-24T16:36:27Z</time>
      </trkpt>
      <trkpt lat="45.06" lon="5.37836">
        <ele>579.7</ele>
        <time>2017-05-24T16:36:39Z</time>
      </trkpt>
      <trkpt lat="45.06013" lon="5.37808">
        <ele>581.8</ele>
        <time>2017-05-24T16:36:55Z</time>
      </trkpt>
      <trkpt lat="45.06022" lon="5.37781">
        <ele>581.3</ele>
        <time>2017-05-24T16:37:11Z</time>
      </trkpt>
      <trkpt lat="45.06026" lon="5.37753">
        <ele>579.5</ele>
        <time>2017-05-24T16:37:27Z</time>
      </trkpt>
      <trkpt lat="45.06035" lon="5.37727">
        <ele>576.9</ele>
        <time>2017-05-24T16:37:43Z</time>
      </trkpt>
      <trkpt lat="45.06041" lon="5.377">
        <ele>575.2</ele>
        <time>2017-05-24T16:37:59Z</time>
      </trkpt>
      <trkpt lat="45.0604" lon="5.37693">
        <ele>574.5</ele>
        <time>2017-05-24T16:38:03Z</time>
      </trkpt>
      <trkpt lat="45.06037" lon="5.37685">
        <ele>573.8</ele>
        <time>2017-05-24T16:38:07Z</time>
      </trkpt>
      <trkpt lat="45.05991" lon="5.3765">
        <ele>560.9</ele>
        <time>2017-05-24T16:39:11Z</time>
      </trkpt>
      <trkpt lat="45.05971" lon="5.37631">
        <ele>562.9</ele>
        <time>2017-05-24T16:40:47Z</time>
      </trkpt>
      <trkpt lat="45.05966" lon="5.37619">
        <ele>562.7</ele>
        <time>2017-05-24T16:40:55Z</time>
      </trkpt>
      <trkpt lat="45.05942" lon="5.37582">
        <ele>563.6</ele>
        <time>2017-05-24T16:41:27Z</time>
      </trkpt>
      <trkpt lat="45.05926" lon="5.37561">
        <ele>563.7</ele>
        <time>2017-05-24T16:41:43Z</time>
      </trkpt>
      <trkpt lat="45.05923" lon="5.37559">
        <ele>563.8</ele>
        <time>2017-05-24T16:41:47Z</time>
      </trkpt>
      <trkpt lat="45.0591" lon="5.3754">
        <ele>563.7</ele>
        <time>2017-05-24T16:42:03Z</time>
      </trkpt>
      <trkpt lat="45.05897" lon="5.37512">
        <ele>563.5</ele>
        <time>2017-05-24T16:42:19Z</time>
      </trkpt>
      <trkpt lat="45.05889" lon="5.37501">
        <ele>563.3</ele>
        <time>2017-05-24T16:42:27Z</time>
      </trkpt>
      <trkpt lat="45.05873" lon="5.37485">
        <ele>562.7</ele>
        <time>2017-05-24T16:42:43Z</time>
      </trkpt>
      <trkpt lat="45.0585" lon="5.37439">
        <ele>560.6</ele>
        <time>2017-05-24T16:43:15Z</time>
      </trkpt>
      <trkpt lat="45.05833" lon="5.3742">
        <ele>559.1</ele>
        <time>2017-05-24T16:43:31Z</time>
      </trkpt>
      <trkpt lat="45.05823" lon="5.37413">
        <ele>558.5</ele>
        <time>2017-05-24T16:43:39Z</time>
      </trkpt>
      <trkpt lat="45.05803" lon="5.37409">
        <ele>558</ele>
        <time>2017-05-24T16:43:55Z</time>
      </trkpt>
      <trkpt lat="45.05776" lon="5.37413">
        <ele>556.8</ele>
        <time>2017-05-24T16:44:19Z</time>
      </trkpt>
      <trkpt lat="45.05774" lon="5.37419">
        <ele>556.5</ele>
        <time>2017-05-24T16:44:24Z</time>
      </trkpt>
      <trkpt lat="45.0575" lon="5.37438">
        <ele>553.2</ele>
        <time>2017-05-24T16:44:48Z</time>
      </trkpt>
      <trkpt lat="45.05741" lon="5.37448">
        <ele>551.8</ele>
        <time>2017-05-24T16:44:56Z</time>
      </trkpt>
      <trkpt lat="45.05733" lon="5.37451">
        <ele>550.4</ele>
        <time>2017-05-24T16:45:02Z</time>
      </trkpt>
      <trkpt lat="45.05726" lon="5.37444">
        <ele>548.5</ele>
        <time>2017-05-24T16:45:34Z</time>
      </trkpt>
      <trkpt lat="45.0572" lon="5.37449">
        <ele>547.6</ele>
        <time>2017-05-24T16:46:00Z</time>
      </trkpt>
      <trkpt lat="45.05712" lon="5.37439">
        <ele>547.3</ele>
        <time>2017-05-24T16:46:08Z</time>
      </trkpt>
      <trkpt lat="45.05701" lon="5.37417">
        <ele>547.3</ele>
        <time>2017-05-24T16:46:20Z</time>
      </trkpt>
      <trkpt lat="45.05685" lon="5.37401">
        <ele>547.4</ele>
        <time>2017-05-24T16:46:36Z</time>
      </trkpt>
      <trkpt lat="45.05675" lon="5.37395">
        <ele>547.5</ele>
        <time>2017-05-24T16:46:52Z</time>
      </trkpt>
      <trkpt lat="45.05673" lon="5.37388">
        <ele>547.4</ele>
        <time>2017-05-24T16:46:56Z</time>
      </trkpt>
      <trkpt lat="45.0568" lon="5.37393">
        <ele>547.8</ele>
        <time>2017-05-24T16:47:04Z</time>
      </trkpt>
      <trkpt lat="45.05689" lon="5.37408">
        <ele>548.6</ele>
        <time>2017-05-24T16:47:16Z</time>
      </trkpt>
      <trkpt lat="45.05701" lon="5.37405">
        <ele>549.1</ele>
        <time>2017-05-24T16:47:24Z</time>
      </trkpt>
      <trkpt lat="45.05707" lon="5.37401">
        <ele>549.4</ele>
        <time>2017-05-24T16:47:28Z</time>
      </trkpt>
      <trkpt lat="45.0572" lon="5.37383">
        <ele>548.1</ele>
        <time>2017-05-24T16:47:36Z</time>
      </trkpt>
      <trkpt lat="45.05726" lon="5.37379">
        <ele>548.5</ele>
        <time>2017-05-24T16:49:44Z</time>
      </trkpt>
      <trkpt lat="45.05718" lon="5.37376">
        <ele>548.1</ele>
        <time>2017-05-24T16:50:27Z</time>
      </trkpt>
      <trkpt lat="45.0572" lon="5.37362">
        <ele>547.5</ele>
        <time>2017-05-24T16:50:35Z</time>
      </trkpt>
      <trkpt lat="45.05727" lon="5.37349">
        <ele>546.9</ele>
        <time>2017-05-24T16:50:43Z</time>
      </trkpt>
      <trkpt lat="45.05738" lon="5.37336">
        <ele>546.2</ele>
        <time>2017-05-24T16:50:51Z</time>
      </trkpt>
      <trkpt lat="45.05749" lon="5.37327">
        <ele>545</ele>
        <time>2017-05-24T16:51:55Z</time>
      </trkpt>
      <trkpt lat="45.05756" lon="5.37317">
        <ele>545.6</ele>
        <time>2017-05-24T16:52:59Z</time>
      </trkpt>
      <trkpt lat="45.05754" lon="5.37315">
        <ele>544.3</ele>
        <time>2017-05-24T16:54:03Z</time>
      </trkpt>
      <trkpt lat="45.0576" lon="5.37318">
        <ele>543.2</ele>
        <time>2017-05-24T16:54:11Z</time>
      </trkpt>
      <trkpt lat="45.05797" lon="5.37311">
        <ele>542.2</ele>
        <time>2017-05-24T16:54:42Z</time>
      </trkpt>
      <trkpt lat="45.05818" lon="5.3731">
        <ele>541.4</ele>
        <time>2017-05-24T16:54:58Z</time>
      </trkpt>
      <trkpt lat="45.05835" lon="5.37312">
        <ele>540.4</ele>
        <time>2017-05-24T16:57:06Z</time>
      </trkpt>
      <trkpt lat="45.05844" lon="5.37306">
        <ele>540.1</ele>
        <time>2017-05-24T17:00:44Z</time>
      </trkpt>
    </trkseg>
  </trk>
</gpx>